Darstellungsparameter: Aktuell verwendete Einstellungen:
Skalierung der Graphiken ... ?
xyx+y,   Skalierungsfaktor:      Skalierung: Modus: x, Faktor: 1
Darstellungszeitraum ... ?
Vom - - bis: - -   Zeitraum: 21.10.2008 - 10.11.2008
Min/Max/Avg-Anzeige ... ?
Zeige MMA aktuell
Zeige MMA Monat
Zeige MMA alles
Zeige --A aktuell
Zeige --A Monat
Zeige --A alles
Keine MMA-Anzeige
MMA:
Average (ber die Originaldaten)
MMA-Basis: 17.04.2019 - 19.05.2019
Quicknavigation für Darstellung... ?
Tage:      1T, 2T, 3T, 5T -1T -2T -3T -5T +1T +2T +3T +5T
Wochen: 1W, 2W, 3W -1W -2W -3W +1W +2W +3W
Monate: 1M, 3M, 6M -1M -3M -6M +1M +3M +6M
Jahre:    1J, 3J, 5J, 10J -1J -3J -5J -10J +1J +3J +5J +10J
Nutze für die Darstellung ... ?
Originaldaten oder Mittelwerte auf ...
Stundenbasis Tagesbasis Wochenbasis
Monatsbasis Jahresbasis      Datenbasis: Original-Daten
Darstellen als:
Statistik (Auto) Statistik J:M      Darstellung:
Zur Graphik,    zurück zur Übersicht aller Sensoren.
 
Tabellarische Datenbersicht: ?
 
Sensor: Nr:Datum:Temp:Abs-Feuchte:Windchill:Wind:
Aussen-T/F 1 21-10-2008 00:02:04 12.9 C 9.69 g/m*3 12.9 C 0 km/h
2 21-10-2008 00:07:04 12.9 C 9.81 g/m*3 12.9 C 0 km/h
3 21-10-2008 00:12:04 13 C 9.75 g/m*3 13 C 0 km/h
4 21-10-2008 00:17:04 13.1 C 9.81 g/m*3 13.1 C 0 km/h
5 21-10-2008 00:22:04 13.3 C 9.94 g/m*3 13.3 C 0 km/h
6 21-10-2008 00:27:04 13.8 C 10.37 g/m*3 13.8 C 0 km/h
7 21-10-2008 00:32:04 14 C 10.37 g/m*3 14 C 0 km/h
8 21-10-2008 00:37:04 14.2 C 10.38 g/m*3 14.2 C 0 km/h
9 21-10-2008 00:42:04 14.6 C 10.51 g/m*3 14.6 C 0 km/h
10 21-10-2008 00:47:04 15.1 C 10.45 g/m*3 15.1 C 0 km/h
11 21-10-2008 00:52:04 15.1 C 10.06 g/m*3 15.1 C 0 km/h
12 21-10-2008 00:57:04 15.1 C 10.06 g/m*3 15.1 C 0 km/h
13 21-10-2008 01:02:04 15 C 10 g/m*3 15 C 0 km/h
14 21-10-2008 01:07:04 14.7 C 9.95 g/m*3 14.7 C 0 km/h
15 21-10-2008 01:12:04 14.7 C 9.95 g/m*3 14.7 C 0 km/h
16 21-10-2008 01:17:05 14.4 C 9.89 g/m*3 14.4 C 0 km/h
17 21-10-2008 01:22:05 14.4 C 9.89 g/m*3 14.4 C 0 km/h
18 21-10-2008 01:27:05 14.1 C 9.71 g/m*3 14.1 C 0 km/h
19 21-10-2008 01:32:05 13.8 C 9.65 g/m*3 13.8 C 0 km/h
20 21-10-2008 01:37:05 13.6 C 9.65 g/m*3 13.6 C 0 km/h
21 21-10-2008 01:42:05 13.6 C 9.65 g/m*3 13.6 C 0 km/h
22 21-10-2008 01:47:05 13.4 C 9.65 g/m*3 13.4 C 0 km/h
23 21-10-2008 01:52:05 13.3 C 9.59 g/m*3 13.3 C 0 km/h
24 21-10-2008 01:57:05 13.2 C 9.64 g/m*3 13.2 C 0 km/h
25 21-10-2008 02:02:05 13.1 C 9.59 g/m*3 13.1 C 0 km/h
Sensor: Nr:Datum:Temp:Abs-Feuchte:Windchill:Wind:
Aussen-T/F 26 21-10-2008 02:07:05 13.1 C 9.59 g/m*3 13.1 C 0 km/h
27 21-10-2008 02:12:05 13.1 C 9.59 g/m*3 13.1 C 0 km/h
28 21-10-2008 02:17:05 13.1 C 9.7 g/m*3 13.1 C 0 km/h
29 21-10-2008 02:22:05 13.1 C 9.7 g/m*3 13.1 C 0 km/h
30 21-10-2008 02:27:05 13.2 C 9.87 g/m*3 13.2 C 0 km/h
31 21-10-2008 02:32:05 13.2 C 9.87 g/m*3 13.2 C 0 km/h
32 21-10-2008 02:37:05 13.3 C 10.05 g/m*3 13.3 C 0 km/h
33 21-10-2008 02:42:05 13.4 C 10.11 g/m*3 13.4 C 0 km/h
34 21-10-2008 02:47:05 13.4 C 10.11 g/m*3 13.4 C 0 km/h
35 21-10-2008 02:52:05 13.5 C 10.18 g/m*3 13.5 C 0 km/h
36 21-10-2008 02:57:06 13.5 C 10.18 g/m*3 13.5 C 0 km/h
37 21-10-2008 03:02:06 13.2 C 9.87 g/m*3 13.2 C 0 km/h
38 21-10-2008 03:07:06 13.2 C 9.87 g/m*3 13.2 C 0 km/h
39 21-10-2008 03:12:06 13.2 C 9.87 g/m*3 13.2 C 0 km/h
40 21-10-2008 03:17:06 13.2 C 9.87 g/m*3 13.2 C 0 km/h
41 21-10-2008 03:22:06 13.2 C 9.87 g/m*3 13.2 C 0 km/h
42 21-10-2008 03:27:06 13.2 C 9.87 g/m*3 13.2 C 0 km/h
43 21-10-2008 03:32:06 13.1 C 9.81 g/m*3 13.1 C 0 km/h
44 21-10-2008 03:37:06 13.2 C 9.87 g/m*3 13.2 C 0 km/h
45 21-10-2008 03:42:06 13.2 C 9.87 g/m*3 13.2 C 0 km/h
46 21-10-2008 03:47:06 13.6 C 10.24 g/m*3 13.6 C 0 km/h
47 21-10-2008 03:52:06 13.7 C 10.3 g/m*3 13.7 C 0 km/h
48 21-10-2008 03:57:06 13.9 C 10.31 g/m*3 13.9 C 0 km/h
49 21-10-2008 04:02:06 14 C 10.25 g/m*3 14 C 0 km/h
50 21-10-2008 04:07:06 13.9 C 10.19 g/m*3 13.9 C 0 km/h
Sensor: Nr:Datum:Temp:Abs-Feuchte:Windchill:Wind:
Aussen-T/F 51 21-10-2008 04:12:06 13.9 C 10.19 g/m*3 13.9 C 0 km/h
52 21-10-2008 04:17:06 14 C 10.13 g/m*3 14 C 0 km/h
53 21-10-2008 04:22:06 13.9 C 10.07 g/m*3 13.9 C 0 km/h
54 21-10-2008 04:27:06 14 C 10.01 g/m*3 14 C 0 km/h
55 21-10-2008 04:32:07 13.9 C 10.07 g/m*3 13.9 C 0 km/h
56 21-10-2008 04:37:07 13.8 C 10.01 g/m*3 13.8 C 0 km/h
57 21-10-2008 04:42:07 13.8 C 10.01 g/m*3 13.8 C 0 km/h
58 21-10-2008 04:47:07 13.8 C 10.01 g/m*3 13.8 C 0 km/h
59 21-10-2008 04:52:07 13.9 C 10.07 g/m*3 13.9 C 0 km/h
60 21-10-2008 04:57:07 13.9 C 10.07 g/m*3 13.9 C 0 km/h
61 21-10-2008 05:02:07 14.3 C 10.32 g/m*3 14.3 C 0 km/h
62 21-10-2008 05:07:07 14.2 C 10.26 g/m*3 14.2 C 0 km/h
63 21-10-2008 05:12:07 14.6 C 10.39 g/m*3 14.6 C 0 km/h
64 21-10-2008 05:17:07 14.7 C 10.45 g/m*3 14.7 C 0 km/h
65 21-10-2008 05:22:07 14.8 C 10.51 g/m*3 14.8 C 0 km/h
66 21-10-2008 05:27:07 15 C 10.51 g/m*3 15 C 0 km/h
67 21-10-2008 05:32:07 15.1 C 10.32 g/m*3 15.1 C 0 km/h
68 21-10-2008 05:37:07 15.2 C 10.38 g/m*3 15.2 C 0 km/h
69 21-10-2008 05:42:07 15.2 C 10.38 g/m*3 15.2 C 0 km/h
70 21-10-2008 05:47:07 15.4 C 10.38 g/m*3 15.4 C 0 km/h
71 21-10-2008 05:52:07 15.6 C 10.51 g/m*3 15.6 C 0 km/h
72 21-10-2008 05:57:07 15.6 C 10.37 g/m*3 15.6 C 0 km/h
73 21-10-2008 06:02:07 15.7 C 10.44 g/m*3 15.7 C 0 km/h
74 21-10-2008 06:07:08 15.9 C 10.43 g/m*3 15.9 C 0 km/h
75 21-10-2008 06:12:08 16 C 10.22 g/m*3 16 C 0 km/h
Sensor: Nr:Datum:Temp:Abs-Feuchte:Windchill:Wind:
Aussen-T/F 76 21-10-2008 06:17:08 16.1 C 10.14 g/m*3 16.1 C 0 km/h
77 21-10-2008 06:22:08 16.2 C 10.07 g/m*3 16.2 C 0 km/h
78 21-10-2008 06:27:08 16.3 C 10.13 g/m*3 16.3 C 0 km/h
79 21-10-2008 06:32:03 16.4 C 10.05 g/m*3 16.4 C 0 km/h
80 21-10-2008 06:37:03 16.5 C 10.11 g/m*3 16.5 C 0 km/h
81 21-10-2008 06:42:03 16.5 C 10.11 g/m*3 16.5 C 0 km/h
82 21-10-2008 06:47:02 16.7 C 10.09 g/m*3 16.7 C 0 km/h
83 21-10-2008 06:52:02 16.6 C 10.03 g/m*3 16.6 C 0 km/h
84 21-10-2008 06:57:02 16.6 C 10.03 g/m*3 16.6 C 0 km/h
85 21-10-2008 07:02:02 16.6 C 10.03 g/m*3 16.6 C 0 km/h
86 21-10-2008 07:07:02 16.6 C 10.03 g/m*3 16.6 C 0 km/h
87 21-10-2008 07:12:02 16.5 C 9.97 g/m*3 16.5 C 0 km/h
88 21-10-2008 07:17:02 16.5 C 9.97 g/m*3 16.5 C 0 km/h
89 21-10-2008 07:22:02 16.5 C 9.97 g/m*3 16.5 C 0 km/h
90 21-10-2008 07:27:02 16.4 C 9.91 g/m*3 16.4 C 0 km/h
91 21-10-2008 07:32:02 16.4 C 9.91 g/m*3 16.4 C 0 km/h
92 21-10-2008 07:37:02 16.4 C 10.05 g/m*3 16.4 C 0 km/h
93 21-10-2008 07:42:03 16.6 C 10.03 g/m*3 16.6 C 0 km/h
94 21-10-2008 07:47:01 16.9 C 9.92 g/m*3 16.9 C 0 km/h
95 21-10-2008 07:52:01 17 C 9.84 g/m*3 17 C 0 km/h
96 21-10-2008 07:57:01 16.9 C 9.92 g/m*3 16.9 C 0 km/h
97 21-10-2008 08:02:01 16.9 C 9.92 g/m*3 16.9 C 0 km/h
98 21-10-2008 08:07:01 16.9 C 9.92 g/m*3 16.9 C 0 km/h
99 21-10-2008 08:12:01 16.9 C 9.78 g/m*3 16.9 C 0 km/h
100 21-10-2008 08:17:02 16.9 C 9.64 g/m*3 16.9 C 0 km/h
Sensor: Nr:Datum:Temp:Abs-Feuchte:Windchill:Wind:
Aussen-T/F 101 21-10-2008 08:22:03 17.2 C 9.67 g/m*3 17.2 C 0 km/h
102 21-10-2008 08:27:03 17.1 C 9.46 g/m*3 17.1 C 0 km/h
103 21-10-2008 08:32:01 17.2 C 9.37 g/m*3 17.2 C 0 km/h
104 21-10-2008 08:37:01 17.1 C 9.32 g/m*3 17.1 C 0 km/h
105 21-10-2008 08:42:01 17.1 C 9.17 g/m*3 17.1 C 0 km/h
106 21-10-2008 08:47:01 17.1 C 9.17 g/m*3 17.1 C 0 km/h
107 21-10-2008 08:52:01 17.1 C 9.17 g/m*3 17.1 C 0 km/h
108 21-10-2008 08:57:01 17.1 C 9.17 g/m*3 17.1 C 0 km/h
109 21-10-2008 09:02:02 17.2 C 9.08 g/m*3 17.2 C 0 km/h
110 21-10-2008 09:07:03 17.1 C 9.03 g/m*3 17.1 C 0 km/h
111 21-10-2008 09:12:03 17.2 C 9.08 g/m*3 17.2 C 0 km/h
112 21-10-2008 09:17:01 17.1 C 9.03 g/m*3 17.1 C 0 km/h
113 21-10-2008 09:22:01 17.2 C 9.08 g/m*3 17.2 C 0 km/h
114 21-10-2008 09:27:01 17.1 C 9.03 g/m*3 17.1 C 0 km/h
115 21-10-2008 09:32:02 17.2 C 8.93 g/m*3 17.2 C 0 km/h
116 21-10-2008 09:37:02 17.2 C 8.93 g/m*3 17.2 C 0 km/h
117 21-10-2008 09:42:02 17.3 C 8.99 g/m*3 17.3 C 0 km/h
118 21-10-2008 09:47:02 17.3 C 8.84 g/m*3 17.3 C 0 km/h
119 21-10-2008 09:52:02 17.3 C 8.84 g/m*3 17.3 C 0 km/h
120 21-10-2008 09:57:02 17.3 C 8.84 g/m*3 17.3 C 0 km/h
121 21-10-2008 10:02:02 17.3 C 8.84 g/m*3 17.3 C 0 km/h
122 21-10-2008 10:07:02 17.4 C 8.89 g/m*3 17.4 C 0 km/h
123 21-10-2008 10:12:02 17.5 C 8.8 g/m*3 17.5 C 0 km/h
124 21-10-2008 10:17:02 17.5 C 8.8 g/m*3 17.5 C 0 km/h
125 21-10-2008 10:22:03 17.5 C 8.8 g/m*3 17.5 C 0 km/h
Sensor: Nr:Datum:Temp:Abs-Feuchte:Windchill:Wind:
Aussen-T/F 126 21-10-2008 10:27:03 17.5 C 8.8 g/m*3 17.5 C 0 km/h
127 21-10-2008 10:32:01 17.4 C 8.74 g/m*3 17.4 C 0 km/h
128 21-10-2008 10:37:01 17.5 C 8.65 g/m*3 17.5 C 0 km/h
129 21-10-2008 10:42:01 17.5 C 8.65 g/m*3 17.5 C 0 km/h
130 21-10-2008 10:47:01 17.6 C 8.7 g/m*3 17.6 C 0 km/h
131 21-10-2008 10:52:01 17.6 C 8.7 g/m*3 17.6 C 0 km/h
132 21-10-2008 10:57:01 17.6 C 8.55 g/m*3 17.6 C 0 km/h
133 21-10-2008 11:02:02 17.7 C 8.6 g/m*3 17.7 C 0 km/h
134 21-10-2008 11:07:03 17.7 C 8.6 g/m*3 17.7 C 0 km/h
135 21-10-2008 11:12:03 17.8 C 8.5 g/m*3 17.8 C 0 km/h
136 21-10-2008 11:17:01 17.8 C 8.65 g/m*3 17.8 C 0 km/h
137 21-10-2008 11:22:01 17.9 C 8.7 g/m*3 17.9 C 0 km/h
138 21-10-2008 11:27:01 18 C 8.6 g/m*3 18 C 0 km/h
139 21-10-2008 11:32:02 18.1 C 8.34 g/m*3 18.1 C 0 km/h
140 21-10-2008 11:37:02 18.1 C 8.34 g/m*3 18.1 C 0 km/h
141 21-10-2008 11:42:02 18.1 C 8.34 g/m*3 18.1 C 0 km/h
142 21-10-2008 11:47:02 18.1 C 8.34 g/m*3 18.1 C 0 km/h
143 21-10-2008 11:52:03 18.1 C 8.34 g/m*3 18.1 C 0 km/h
144 21-10-2008 11:57:03 18.1 C 8.34 g/m*3 18.1 C 0 km/h
145 21-10-2008 12:02:02 18.3 C 8.44 g/m*3 18.3 C 0 km/h
146 21-10-2008 12:07:02 18.2 C 8.39 g/m*3 18.2 C 0 km/h
147 21-10-2008 12:12:02 18.2 C 8.39 g/m*3 18.2 C 0 km/h
148 21-10-2008 12:17:02 18.1 C 8.5 g/m*3 18.1 C 0 km/h
149 21-10-2008 12:22:02 17.7 C 8.45 g/m*3 17.7 C 0 km/h
150 21-10-2008 12:27:02 16.1 C 7.26 g/m*3 16.1 C 0 km/h
Sensor: Nr:Datum:Temp:Abs-Feuchte:Windchill:Wind:
Aussen-T/F 151 21-10-2008 12:32:02 14.8 C 7.6 g/m*3 14.8 C 0 km/h
152 21-10-2008 12:37:02 14.1 C 7.65 g/m*3 14.1 C 0 km/h
153 21-10-2008 12:42:02 13.7 C 7.93 g/m*3 13.7 C 0 km/h
154 21-10-2008 12:47:02 13.2 C 7.92 g/m*3 13.2 C 0 km/h
155 21-10-2008 12:52:02 12.6 C 8.19 g/m*3 12.6 C 0 km/h
156 21-10-2008 12:57:02 12.1 C 8.36 g/m*3 12.1 C 0 km/h
157 21-10-2008 13:02:02 12.1 C 8.47 g/m*3 12.1 C 0 km/h
158 21-10-2008 13:07:02 12 C 8.63 g/m*3 12 C 0 km/h
159 21-10-2008 13:12:02 12 C 8.74 g/m*3 12 C 0 km/h
160 21-10-2008 13:17:02 12 C 8.74 g/m*3 12 C 0 km/h
161 21-10-2008 13:22:02 11.8 C 8.74 g/m*3 11.8 C 0 km/h
162 21-10-2008 13:27:02 11.7 C 8.79 g/m*3 11.7 C 0 km/h
163 21-10-2008 13:32:03 11.7 C 8.89 g/m*3 11.7 C 0 km/h
164 21-10-2008 13:37:03 11.6 C 8.94 g/m*3 11.6 C 0 km/h
165 21-10-2008 13:42:03 11.6 C 8.94 g/m*3 11.6 C 0 km/h
166 21-10-2008 13:47:02 11.6 C 9.04 g/m*3 11.6 C 0 km/h
167 21-10-2008 13:52:02 11.7 C 9.2 g/m*3 11.7 C 0 km/h
168 21-10-2008 13:57:02 11.5 C 9.09 g/m*3 11.5 C 0 km/h
169 21-10-2008 14:02:02 11.3 C 8.98 g/m*3 11.3 C 0 km/h
170 21-10-2008 14:07:02 11.4 C 9.03 g/m*3 11.4 C 0 km/h
171 21-10-2008 14:12:02 11.4 C 9.03 g/m*3 11.4 C 0 km/h
172 21-10-2008 14:17:01 11.6 C 9.15 g/m*3 11.6 C 0 km/h
173 21-10-2008 14:22:01 11.6 C 9.15 g/m*3 11.6 C 0 km/h
174 21-10-2008 14:27:01 11.5 C 9.09 g/m*3 11.5 C 0 km/h
175 21-10-2008 14:32:02 11.4 C 9.14 g/m*3 11.4 C 0 km/h
Sensor: Nr:Datum:Temp:Abs-Feuchte:Windchill:Wind:
Aussen-T/F 176 21-10-2008 14:37:02 11.4 C 9.14 g/m*3 11.4 C 0 km/h
177 21-10-2008 14:42:03 11.4 C 9.14 g/m*3 11.4 C 0 km/h
178 21-10-2008 14:47:02 11.5 C 9.19 g/m*3 11.5 C 0 km/h
179 21-10-2008 14:52:02 11.5 C 9.19 g/m*3 11.5 C 0 km/h
180 21-10-2008 14:57:02 11.5 C 9.19 g/m*3 11.5 C 0 km/h
181 21-10-2008 15:02:02 11.5 C 9.19 g/m*3 11.5 C 0 km/h
182 21-10-2008 15:07:02 11.7 C 9.41 g/m*3 11.7 C 0 km/h
183 21-10-2008 15:12:02 11.7 C 9.41 g/m*3 11.7 C 0 km/h
184 21-10-2008 15:17:03 11.7 C 9.41 g/m*3 11.7 C 0 km/h
185 21-10-2008 15:22:03 11.7 C 9.41 g/m*3 11.7 C 0 km/h
186 21-10-2008 15:27:03 11.7 C 9.31 g/m*3 11.7 C 0 km/h
187 21-10-2008 15:32:02 11.4 C 9.14 g/m*3 11.4 C 0 km/h
188 21-10-2008 15:37:02 11.2 C 9.02 g/m*3 11.2 C 0 km/h
189 21-10-2008 15:42:02 11.3 C 9.08 g/m*3 11.3 C 0 km/h
190 21-10-2008 15:47:01 11.3 C 9.08 g/m*3 11.3 C 0 km/h
191 21-10-2008 15:52:01 11.2 C 9.02 g/m*3 11.2 C 0 km/h
192 21-10-2008 15:57:01 11.2 C 9.02 g/m*3 11.2 C 0 km/h
193 21-10-2008 16:02:02 11.2 C 9.02 g/m*3 11.2 C 0 km/h
194 21-10-2008 16:07:02 11.1 C 8.96 g/m*3 11.1 C 0 km/h
195 21-10-2008 16:12:02 11 C 8.91 g/m*3 11 C 0 km/h
196 21-10-2008 16:17:01 11.1 C 8.96 g/m*3 11.1 C 0 km/h
197 21-10-2008 16:22:01 11.3 C 9.18 g/m*3 11.3 C 0 km/h
198 21-10-2008 16:27:01 11.1 C 9.07 g/m*3 11.1 C 0 km/h
199 21-10-2008 16:32:02 11 C 9.01 g/m*3 11 C 0 km/h
200 21-10-2008 16:37:02 10.9 C 8.95 g/m*3 10.9 C 0 km/h
Sensor: Nr:Datum:Temp:Abs-Feuchte:Windchill:Wind:
Aussen-T/F 201 21-10-2008 16:42:02 10.7 C 8.84 g/m*3 10.7 C 0 km/h
202 21-10-2008 16:47:02 10.8 C 8.99 g/m*3 10.8 C 0 km/h
203 21-10-2008 16:52:02 10.9 C 9.05 g/m*3 10.9 C 0 km/h
204 21-10-2008 16:57:02 10.9 C 9.05 g/m*3 10.9 C 0 km/h
205 21-10-2008 17:02:02 10.9 C 9.15 g/m*3 10.9 C 0 km/h
206 21-10-2008 17:07:02 11 C 9.11 g/m*3 11 C 0 km/h
207 21-10-2008 17:12:02 11.1 C 9.17 g/m*3 11.1 C 0 km/h
208 21-10-2008 17:17:02 11 C 9.11 g/m*3 11 C 0 km/h
209 21-10-2008 17:22:02 10.9 C 9.15 g/m*3 10.9 C 0 km/h
210 21-10-2008 17:27:02 10.9 C 9.15 g/m*3 10.9 C 0 km/h
211 21-10-2008 17:32:02 11 C 9.11 g/m*3 11 C 0 km/h
212 21-10-2008 17:37:02 10.9 C 9.15 g/m*3 10.9 C 0 km/h
213 21-10-2008 17:42:02 10.9 C 9.15 g/m*3 10.9 C 0 km/h
214 21-10-2008 17:47:02 11 C 9.21 g/m*3 11 C 0 km/h
215 21-10-2008 17:52:02 10.9 C 9.15 g/m*3 10.9 C 0 km/h
216 21-10-2008 17:57:02 11 C 9.21 g/m*3 11 C 0 km/h
217 21-10-2008 18:02:02 10.9 C 9.15 g/m*3 10.9 C 0 km/h
218 21-10-2008 18:07:02 10.8 C 9.09 g/m*3 10.8 C 0 km/h
219 21-10-2008 18:12:02 10.6 C 8.98 g/m*3 10.6 C 0 km/h
220 21-10-2008 18:17:02 10.5 C 8.92 g/m*3 10.5 C 0 km/h
221 21-10-2008 18:22:02 10.2 C 8.76 g/m*3 10.2 C 0 km/h
222 21-10-2008 18:27:02 10.2 C 8.76 g/m*3 10.2 C 0 km/h
223 21-10-2008 18:32:03 10.2 C 8.76 g/m*3 10.2 C 0 km/h
224 21-10-2008 18:37:03 10.1 C 8.7 g/m*3 10.1 C 0 km/h
225 21-10-2008 18:42:03 10.3 C 8.81 g/m*3 10.3 C 0 km/h
Sensor: Nr:Datum:Temp:Abs-Feuchte:Windchill:Wind:
Aussen-T/F 226 21-10-2008 18:47:02 10.3 C 8.81 g/m*3 10.3 C 0 km/h
227 21-10-2008 18:52:02 10.1 C 8.7 g/m*3 10.1 C 0 km/h
228 21-10-2008 18:57:02 10 C 8.64 g/m*3 10 C 0 km/h
229 21-10-2008 19:02:02 10 C 8.64 g/m*3 10 C 0 km/h
230 21-10-2008 19:07:02 9.9 C 8.78 g/m*3 9.9 C 0 km/h
231 21-10-2008 19:12:02 9.9 C 8.78 g/m*3 9.9 C 0 km/h
232 21-10-2008 19:17:02 9.9 C 8.78 g/m*3 9.9 C 0 km/h
233 21-10-2008 19:22:02 9.9 C 8.78 g/m*3 9.9 C 0 km/h
234 21-10-2008 19:27:02 9.9 C 8.78 g/m*3 9.9 C 0 km/h
235 21-10-2008 19:32:02 9.8 C 8.72 g/m*3 9.8 C 0 km/h
236 21-10-2008 19:37:03 9.9 C 8.78 g/m*3 9.9 C 0 km/h
237 21-10-2008 19:42:03 9.7 C 8.67 g/m*3 9.7 C 0 km/h
238 21-10-2008 19:47:01 9.7 C 8.67 g/m*3 9.7 C 0 km/h
239 21-10-2008 19:52:01 9.6 C 8.61 g/m*3 9.6 C 0 km/h
240 21-10-2008 19:57:01 9.6 C 8.61 g/m*3 9.6 C 0 km/h
241 21-10-2008 20:02:01 9.4 C 8.5 g/m*3 9.4 C 0 km/h
242 21-10-2008 20:07:01 9.4 C 8.5 g/m*3 9.4 C 0 km/h
243 21-10-2008 20:12:01 9.4 C 8.5 g/m*3 9.4 C 0 km/h
244 21-10-2008 20:17:02 9.4 C 8.5 g/m*3 9.4 C 0 km/h
245 21-10-2008 20:22:02 9.5 C 8.56 g/m*3 9.5 C 0 km/h
246 21-10-2008 20:27:02 9.5 C 8.56 g/m*3 9.5 C 0 km/h
247 21-10-2008 20:32:01 9.5 C 8.56 g/m*3 9.5 C 0 km/h
248 21-10-2008 20:37:01 9.5 C 8.56 g/m*3 9.5 C 0 km/h
249 21-10-2008 20:42:01 9.7 C 8.67 g/m*3 9.7 C 0 km/h
250 21-10-2008 20:47:01 9.7 C 8.67 g/m*3 9.7 C 0 km/h
Sensor: Nr:Datum:Temp:Abs-Feuchte:Windchill:Wind:
Aussen-T/F 251 21-10-2008 20:52:01 9.5 C 8.56 g/m*3 9.5 C 0 km/h
252 21-10-2008 20:57:01 9.7 C 8.67 g/m*3 9.7 C 0 km/h
253 21-10-2008 21:02:02 9.7 C 8.76 g/m*3 9.7 C 0 km/h
254 21-10-2008 21:07:03 9.5 C 8.65 g/m*3 9.5 C 0 km/h
255 21-10-2008 21:12:03 9.7 C 8.76 g/m*3 9.7 C 0 km/h
256 21-10-2008 21:17:01 9.6 C 8.7 g/m*3 9.6 C 0 km/h
257 21-10-2008 21:22:01 9.6 C 8.7 g/m*3 9.6 C 0 km/h
258 21-10-2008 21:27:01 9.6 C 8.7 g/m*3 9.6 C 0 km/h
259 21-10-2008 21:32:02 9.5 C 8.65 g/m*3 9.5 C 0 km/h
260 21-10-2008 21:37:02 9.5 C 8.65 g/m*3 9.5 C 0 km/h
261 21-10-2008 21:42:02 9.3 C 8.54 g/m*3 9.3 C 0 km/h
262 21-10-2008 21:47:02 9.3 C 8.54 g/m*3 9.3 C 0 km/h
263 21-10-2008 21:52:02 9.2 C 8.48 g/m*3 9.2 C 0 km/h
264 21-10-2008 21:57:02 9.1 C 8.43 g/m*3 9.1 C 0 km/h
265 21-10-2008 22:02:02 9.1 C 8.34 g/m*3 9.1 C 0 km/h
266 21-10-2008 22:07:02 9.1 C 8.34 g/m*3 9.1 C 0 km/h
267 21-10-2008 22:12:02 9.1 C 8.34 g/m*3 9.1 C 0 km/h
268 21-10-2008 22:18:04 9.1 C 8.34 g/m*3 9.1 C 0 km/h
269 21-10-2008 22:23:04 9.2 C 8.39 g/m*3 9.2 C 0 km/h
270 21-10-2008 22:28:04 9.2 C 8.39 g/m*3 9.2 C 0 km/h
271 21-10-2008 22:33:04 9.1 C 8.34 g/m*3 9.1 C 0 km/h
272 21-10-2008 22:38:04 9 C 8.29 g/m*3 9 C 0 km/h
273 21-10-2008 22:43:04 9 C 8.29 g/m*3 9 C 0 km/h
274 21-10-2008 22:48:04 8.9 C 8.32 g/m*3 8.9 C 0 km/h
275 21-10-2008 22:53:04 8.8 C 8.27 g/m*3 8.8 C 0 km/h
Sensor: Nr:Datum:Temp:Abs-Feuchte:Windchill:Wind:
Aussen-T/F 276 21-10-2008 22:58:04 8.8 C 8.27 g/m*3 8.8 C 0 km/h
277 21-10-2008 23:03:04 8.7 C 8.22 g/m*3 8.7 C 0 km/h
278 21-10-2008 23:08:05 8.7 C 8.22 g/m*3 8.7 C 0 km/h
279 21-10-2008 23:13:05 8.7 C 8.22 g/m*3 8.7 C 0 km/h
280 21-10-2008 23:18:05 8.7 C 8.22 g/m*3 8.7 C 0 km/h
281 21-10-2008 23:23:05 8.7 C 8.22 g/m*3 8.7 C 0 km/h
282 21-10-2008 23:28:05 8.7 C 8.22 g/m*3 8.7 C 0 km/h
283 21-10-2008 23:33:05 8.6 C 8.16 g/m*3 8.6 C 0 km/h
284 21-10-2008 23:38:05 8.7 C 8.22 g/m*3 8.7 C 0 km/h
285 21-10-2008 23:43:05 8.6 C 8.16 g/m*3 8.6 C 0 km/h
286 21-10-2008 23:48:05 8.6 C 8.16 g/m*3 8.6 C 0 km/h
287 21-10-2008 23:53:05 8.7 C 8.22 g/m*3 8.7 C 0 km/h
288 21-10-2008 23:58:05 8.8 C 8.27 g/m*3 8.8 C 0 km/h
289 22-10-2008 00:03:05 8.8 C 8.27 g/m*3 8.8 C 0 km/h
290 22-10-2008 00:08:05 8.7 C 8.22 g/m*3 8.7 C 0 km/h
291 22-10-2008 00:13:05 8.8 C 8.27 g/m*3 8.8 C 0 km/h
292 22-10-2008 00:18:05 8.7 C 8.22 g/m*3 8.7 C 0 km/h
293 22-10-2008 00:23:05 8.7 C 8.22 g/m*3 8.7 C 0 km/h
294 22-10-2008 00:28:05 8.8 C 8.27 g/m*3 8.8 C 0 km/h
295 22-10-2008 00:33:05 8.8 C 8.27 g/m*3 8.8 C 0 km/h
296 22-10-2008 00:38:05 8.8 C 8.27 g/m*3 8.8 C 0 km/h
297 22-10-2008 00:43:06 8.8 C 8.27 g/m*3 8.8 C 0 km/h
298 22-10-2008 00:48:06 8.8 C 8.18 g/m*3 8.8 C 0 km/h
299 22-10-2008 00:53:06 8.8 C 8.27 g/m*3 8.8 C 0 km/h
300 22-10-2008 00:58:06 8.8 C 8.18 g/m*3 8.8 C 0 km/h
Sensor: Nr:Datum:Temp:Abs-Feuchte:Windchill:Wind:
Aussen-T/F 301 22-10-2008 01:03:06 8.8 C 8.18 g/m*3 8.8 C 0 km/h
302 22-10-2008 01:08:06 8.8 C 8.18 g/m*3 8.8 C 0 km/h
303 22-10-2008 01:13:06 8.8 C 8.18 g/m*3 8.8 C 0 km/h
304 22-10-2008 01:18:06 8.7 C 8.13 g/m*3 8.7 C 0 km/h
305 22-10-2008 01:23:06 8.7 C 8.13 g/m*3 8.7 C 0 km/h
306 22-10-2008 01:28:06 8.7 C 8.13 g/m*3 8.7 C 0 km/h
307 22-10-2008 01:33:06 8.8 C 8.18 g/m*3 8.8 C 0 km/h
308 22-10-2008 01:38:06 8.7 C 8.13 g/m*3 8.7 C 0 km/h
309 22-10-2008 01:43:06 8.7 C 8.13 g/m*3 8.7 C 0 km/h
310 22-10-2008 01:48:06 8.7 C 8.13 g/m*3 8.7 C 0 km/h
311 22-10-2008 01:53:06 8.7 C 8.13 g/m*3 8.7 C 0 km/h
312 22-10-2008 01:58:06 8.7 C 8.13 g/m*3 8.7 C 0 km/h
313 22-10-2008 02:03:06 8.7 C 8.13 g/m*3 8.7 C 0 km/h
314 22-10-2008 02:08:06 8.7 C 8.13 g/m*3 8.7 C 0 km/h
315 22-10-2008 02:13:06 8.7 C 8.13 g/m*3 8.7 C 0 km/h
316 22-10-2008 02:18:06 8.6 C 8.08 g/m*3 8.6 C 0 km/h
317 22-10-2008 02:23:07 8.6 C 8.08 g/m*3 8.6 C 0 km/h
318 22-10-2008 02:28:07 8.6 C 8.08 g/m*3 8.6 C 0 km/h
319 22-10-2008 02:33:07 8.6 C 8.08 g/m*3 8.6 C 0 km/h
320 22-10-2008 02:38:07 8.6 C 8.08 g/m*3 8.6 C 0 km/h
321 22-10-2008 02:43:07 8.6 C 8.16 g/m*3 8.6 C 0 km/h
322 22-10-2008 02:48:07 8.5 C 8.03 g/m*3 8.5 C 0 km/h
323 22-10-2008 02:53:07 8.5 C 8.03 g/m*3 8.5 C 0 km/h
324 22-10-2008 02:58:07 8.5 C 8.03 g/m*3 8.5 C 0 km/h
325 22-10-2008 03:03:07 8.5 C 8.03 g/m*3 8.5 C 0 km/h
Sensor: Nr:Datum:Temp:Abs-Feuchte:Windchill:Wind:
Aussen-T/F 326 22-10-2008 03:08:07 8.5 C 8.11 g/m*3 8.5 C 0 km/h
327 22-10-2008 03:13:07 8.5 C 8.11 g/m*3 8.5 C 0 km/h
328 22-10-2008 03:18:07 8.5 C 8.11 g/m*3 8.5 C 0 km/h
329 22-10-2008 03:23:07 8.5 C 8.11 g/m*3 8.5 C 0 km/h
330 22-10-2008 03:28:07 8.5 C 8.11 g/m*3 8.5 C 0 km/h
331 22-10-2008 03:33:07 8.5 C 8.11 g/m*3 8.5 C 0 km/h
332 22-10-2008 03:38:07 8.5 C 8.11 g/m*3 8.5 C 0 km/h
333 22-10-2008 03:43:07 8.5 C 8.11 g/m*3 8.5 C 0 km/h
334 22-10-2008 03:48:07 8.5 C 8.11 g/m*3 8.5 C 0 km/h
335 22-10-2008 03:53:07 8.5 C 8.11 g/m*3 8.5 C 0 km/h
336 22-10-2008 03:58:08 8.5 C 8.11 g/m*3 8.5 C 0 km/h
337 22-10-2008 04:03:08 8.5 C 8.11 g/m*3 8.5 C 0 km/h
338 22-10-2008 04:08:08 8.4 C 8.06 g/m*3 8.4 C 0 km/h
339 22-10-2008 04:13:08 8.5 C 8.11 g/m*3 8.5 C 0 km/h
340 22-10-2008 04:18:08 8.4 C 8.06 g/m*3 8.4 C 0 km/h
341 22-10-2008 04:23:08 8.4 C 8.06 g/m*3 8.4 C 0 km/h
342 22-10-2008 04:28:08 8.4 C 8.06 g/m*3 8.4 C 0 km/h
343 22-10-2008 04:33:08 8.4 C 8.06 g/m*3 8.4 C 0 km/h
344 22-10-2008 04:38:08 8.4 C 8.06 g/m*3 8.4 C 0 km/h
345 22-10-2008 04:43:08 8.4 C 8.06 g/m*3 8.4 C 0 km/h
346 22-10-2008 04:48:08 8.4 C 8.06 g/m*3 8.4 C 0 km/h
347 22-10-2008 04:53:08 8.4 C 8.06 g/m*3 8.4 C 0 km/h
348 22-10-2008 04:58:08 8.4 C 8.06 g/m*3 8.4 C 0 km/h
349 22-10-2008 05:03:08 8.3 C 8.01 g/m*3 8.3 C 0 km/h
350 22-10-2008 05:08:08 8.3 C 8.01 g/m*3 8.3 C 0 km/h
Sensor: Nr:Datum:Temp:Abs-Feuchte:Windchill:Wind:
Aussen-T/F 351 22-10-2008 05:13:08 8.3 C 8.01 g/m*3 8.3 C 0 km/h
352 22-10-2008 05:18:08 8.3 C 8.01 g/m*3 8.3 C 0 km/h
353 22-10-2008 05:23:08 8.3 C 8.01 g/m*3 8.3 C 0 km/h
354 22-10-2008 05:28:08 8.3 C 8.01 g/m*3 8.3 C 0 km/h
355 22-10-2008 05:33:08 8.3 C 8.01 g/m*3 8.3 C 0 km/h
356 22-10-2008 05:38:09 8.2 C 7.96 g/m*3 8.2 C 0 km/h
357 22-10-2008 05:43:09 8.2 C 7.96 g/m*3 8.2 C 0 km/h
358 22-10-2008 05:48:09 8.2 C 7.96 g/m*3 8.2 C 0 km/h
359 22-10-2008 05:53:09 8.2 C 7.96 g/m*3 8.2 C 0 km/h
360 22-10-2008 05:58:09 8.2 C 7.96 g/m*3 8.2 C 0 km/h
361 22-10-2008 06:03:09 8.2 C 7.96 g/m*3 8.2 C 0 km/h
362 22-10-2008 06:08:09 8.1 C 7.9 g/m*3 8.1 C 0 km/h
363 22-10-2008 06:13:09 8.2 C 7.96 g/m*3 8.2 C 0 km/h
364 22-10-2008 06:18:09 8.2 C 7.96 g/m*3 8.2 C 0 km/h
365 22-10-2008 06:23:09 8.2 C 7.96 g/m*3 8.2 C 0 km/h
366 22-10-2008 06:28:09 8.2 C 7.96 g/m*3 8.2 C 0 km/h
367 22-10-2008 06:33:09 8.1 C 7.9 g/m*3 8.1 C 0 km/h
368 22-10-2008 06:38:09 8.1 C 7.9 g/m*3 8.1 C 0 km/h
369 22-10-2008 06:43:09 8.1 C 7.9 g/m*3 8.1 C 0 km/h
370 22-10-2008 06:48:02 8.1 C 7.9 g/m*3 8.1 C 0 km/h
371 22-10-2008 06:53:02 8.1 C 7.9 g/m*3 8.1 C 0 km/h
372 22-10-2008 06:58:02 8.1 C 7.9 g/m*3 8.1 C 0 km/h
373 22-10-2008 07:03:02 8.1 C 7.9 g/m*3 8.1 C 0 km/h
374 22-10-2008 07:08:02 8 C 7.85 g/m*3 8 C 0 km/h
375 22-10-2008 07:13:02 8 C 7.85 g/m*3 8 C 0 km/h
Sensor: Nr:Datum:Temp:Abs-Feuchte:Windchill:Wind:
Aussen-T/F 376 22-10-2008 07:18:03 8 C 7.85 g/m*3 8 C 0 km/h
377 22-10-2008 07:23:03 8 C 7.85 g/m*3 8 C 0 km/h
378 22-10-2008 07:28:03 8 C 7.85 g/m*3 8 C 0 km/h
379 22-10-2008 07:33:02 8 C 7.85 g/m*3 8 C 0 km/h
380 22-10-2008 07:38:02 8 C 7.85 g/m*3 8 C 0 km/h
381 22-10-2008 07:43:02 8 C 7.85 g/m*3 8 C 0 km/h
382 22-10-2008 07:48:01 8 C 7.85 g/m*3 8 C 0 km/h
383 22-10-2008 07:53:01 8 C 7.85 g/m*3 8 C 0 km/h
384 22-10-2008 07:58:01 8 C 7.85 g/m*3 8 C 0 km/h
385 22-10-2008 08:03:02 8 C 7.85 g/m*3 8 C 0 km/h
386 22-10-2008 08:08:02 8 C 7.85 g/m*3 8 C 0 km/h
387 22-10-2008 08:13:02 8 C 7.85 g/m*3 8 C 0 km/h
388 22-10-2008 08:18:01 8 C 7.85 g/m*3 8 C 0 km/h
389 22-10-2008 08:23:01 8 C 7.85 g/m*3 8 C 0 km/h
390 22-10-2008 08:28:01 8 C 7.85 g/m*3 8 C 0 km/h
391 22-10-2008 08:33:02 8 C 7.85 g/m*3 8 C 0 km/h
392 22-10-2008 08:38:02 8.1 C 7.9 g/m*3 8.1 C 0 km/h
393 22-10-2008 08:43:02 8.1 C 7.9 g/m*3 8.1 C 0 km/h
394 22-10-2008 08:48:02 8.1 C 7.9 g/m*3 8.1 C 0 km/h
395 22-10-2008 08:53:02 8.1 C 7.9 g/m*3 8.1 C 0 km/h
396 22-10-2008 08:58:02 8.1 C 7.9 g/m*3 8.1 C 0 km/h
397 22-10-2008 09:03:02 8.2 C 7.96 g/m*3 8.2 C 0 km/h
398 22-10-2008 09:08:02 8.2 C 7.96 g/m*3 8.2 C 0 km/h
399 22-10-2008 09:13:02 8.2 C 7.96 g/m*3 8.2 C 0 km/h
400 22-10-2008 09:18:02 8.3 C 8.01 g/m*3 8.3 C 0 km/h
Sensor: Nr:Datum:Temp:Abs-Feuchte:Windchill:Wind:
Aussen-T/F 401 22-10-2008 09:23:02 8.4 C 8.06 g/m*3 8.4 C 0 km/h
402 22-10-2008 09:28:02 8.5 C 8.11 g/m*3 8.5 C 0 km/h
403 22-10-2008 09:33:02 8.5 C 8.11 g/m*3 8.5 C 0 km/h
404 22-10-2008 09:38:02 8.6 C 8.16 g/m*3 8.6 C 0 km/h
405 22-10-2008 09:43:02 8.6 C 8.16 g/m*3 8.6 C 0 km/h
406 22-10-2008 09:48:02 8.7 C 8.22 g/m*3 8.7 C 0 km/h
407 22-10-2008 09:53:02 8.7 C 8.22 g/m*3 8.7 C 0 km/h
408 22-10-2008 09:58:02 8.8 C 8.27 g/m*3 8.8 C 0 km/h
409 22-10-2008 10:03:02 8.7 C 8.22 g/m*3 8.7 C 0 km/h
410 22-10-2008 10:08:02 8.7 C 8.13 g/m*3 8.7 C 0 km/h
411 22-10-2008 10:13:02 8.7 C 8.13 g/m*3 8.7 C 0 km/h
412 22-10-2008 10:18:02 8.7 C 8.13 g/m*3 8.7 C 0 km/h
413 22-10-2008 10:23:02 8.8 C 8.18 g/m*3 8.8 C 0 km/h
414 22-10-2008 10:28:02 8.8 C 8.09 g/m*3 8.8 C 0 km/h
415 22-10-2008 10:33:03 8.8 C 8.09 g/m*3 8.8 C 0 km/h
416 22-10-2008 10:38:03 8.8 C 8.09 g/m*3 8.8 C 0 km/h
417 22-10-2008 10:43:03 8.8 C 8.09 g/m*3 8.8 C 0 km/h
418 22-10-2008 10:48:02 8.8 C 8.01 g/m*3 8.8 C 0 km/h
419 22-10-2008 10:53:02 8.9 C 8.06 g/m*3 8.9 C 0 km/h
420 22-10-2008 10:58:02 8.9 C 8.06 g/m*3 8.9 C 0 km/h
421 22-10-2008 11:03:02 9 C 7.93 g/m*3 9 C 0 km/h
422 22-10-2008 11:08:02 9.1 C 7.99 g/m*3 9.1 C 0 km/h
423 22-10-2008 11:13:02 9.2 C 8.04 g/m*3 9.2 C 0 km/h
424 22-10-2008 11:18:02 9.3 C 8.09 g/m*3 9.3 C 0 km/h
425 22-10-2008 11:23:02 9.3 C 8.09 g/m*3 9.3 C 0 km/h
Sensor: Nr:Datum:Temp:Abs-Feuchte:Windchill:Wind:
Aussen-T/F 426 22-10-2008 11:28:02 9.3 C 8 g/m*3 9.3 C 0 km/h
427 22-10-2008 11:33:02 9.5 C 8.1 g/m*3 9.5 C 0 km/h
428 22-10-2008 11:38:02 9.7 C 8.2 g/m*3 9.7 C 0 km/h
429 22-10-2008 11:43:02 9.7 C 8.11 g/m*3 9.7 C 0 km/h
430 22-10-2008 11:48:02 10 C 8.08 g/m*3 10 C 0 km/h
431 22-10-2008 11:53:02 10.2 C 8.09 g/m*3 10.2 C 0 km/h
432 22-10-2008 11:58:02 10.4 C 8.1 g/m*3 10.4 C 0 km/h
433 22-10-2008 12:03:03 10.5 C 8.05 g/m*3 10.5 C 0 km/h
434 22-10-2008 12:08:03 10.4 C 7.9 g/m*3 10.4 C 0 km/h
435 22-10-2008 12:13:03 10.5 C 7.76 g/m*3 10.5 C 0 km/h
436 22-10-2008 12:18:02 10.5 C 7.66 g/m*3 10.5 C 0 km/h
437 22-10-2008 12:23:02 10.5 C 7.66 g/m*3 10.5 C 0 km/h
438 22-10-2008 12:28:03 10.9 C 7.86 g/m*3 10.9 C 0 km/h
439 22-10-2008 12:33:02 10.9 C 7.66 g/m*3 10.9 C 0 km/h
440 22-10-2008 12:38:02 11 C 7.61 g/m*3 11 C 0 km/h
441 22-10-2008 12:43:02 11.1 C 7.66 g/m*3 11.1 C 0 km/h
442 22-10-2008 12:48:03 11.2 C 7.6 g/m*3 11.2 C 0 km/h
443 22-10-2008 12:53:03 11.2 C 7.6 g/m*3 11.2 C 0 km/h
444 22-10-2008 12:58:03 11.3 C 7.45 g/m*3 11.3 C 0 km/h
445 22-10-2008 13:03:02 11.2 C 7.5 g/m*3 11.2 C 0 km/h
446 22-10-2008 13:08:02 11.2 C 7.4 g/m*3 11.2 C 0 km/h
447 22-10-2008 13:13:03 11.4 C 7.6 g/m*3 11.4 C 0 km/h
448 22-10-2008 13:18:02 11.5 C 7.44 g/m*3 11.5 C 0 km/h
449 22-10-2008 13:23:02 11.5 C 7.44 g/m*3 11.5 C 0 km/h
450 22-10-2008 13:28:02 11.6 C 7.38 g/m*3 11.6 C 0 km/h
Sensor: Nr:Datum:Temp:Abs-Feuchte:Windchill:Wind:
Aussen-T/F 451 22-10-2008 13:33:02 11.7 C 7.32 g/m*3 11.7 C 0 km/h
452 22-10-2008 13:38:02 12 C 7.35 g/m*3 12 C 0 km/h
453 22-10-2008 13:43:02 12.2 C 7.34 g/m*3 12.2 C 0 km/h
454 22-10-2008 13:48:01 12.3 C 7.38 g/m*3 12.3 C 0 km/h
455 22-10-2008 13:53:01 12.1 C 7.08 g/m*3 12.1 C 0 km/h
456 22-10-2008 13:58:02 12.1 C 6.97 g/m*3 12.1 C 0 km/h
457 22-10-2008 14:03:01 12.1 C 6.86 g/m*3 12.1 C 0 km/h
458 22-10-2008 14:08:01 12.3 C 6.95 g/m*3 12.3 C 0 km/h
459 22-10-2008 14:13:01 12.4 C 6.99 g/m*3 12.4 C 0 km/h
460 22-10-2008 14:18:02 12.4 C 6.99 g/m*3 12.4 C 0 km/h
461 22-10-2008 14:23:02 12.3 C 6.84 g/m*3 12.3 C 0 km/h
462 22-10-2008 14:28:02 12.2 C 6.58 g/m*3 12.2 C 0 km/h
463 22-10-2008 14:33:01 12.2 C 6.47 g/m*3 12.2 C 0 km/h
464 22-10-2008 14:38:01 12.3 C 6.73 g/m*3 12.3 C 0 km/h
465 22-10-2008 14:43:01 12.4 C 6.77 g/m*3 12.4 C 0 km/h
466 22-10-2008 14:48:01 12.4 C 6.66 g/m*3 12.4 C 0 km/h
467 22-10-2008 14:53:01 12.3 C 6.52 g/m*3 12.3 C 0 km/h
468 22-10-2008 14:58:01 12.4 C 6.66 g/m*3 12.4 C 0 km/h
469 22-10-2008 15:03:02 12.4 C 6.56 g/m*3 12.4 C 0 km/h
470 22-10-2008 15:08:02 12.3 C 6.52 g/m*3 12.3 C 0 km/h
471 22-10-2008 15:13:02 12.2 C 6.47 g/m*3 12.2 C 0 km/h
472 22-10-2008 15:18:01 12.3 C 6.52 g/m*3 12.3 C 0 km/h
473 22-10-2008 15:23:01 12.2 C 6.37 g/m*3 12.2 C 0 km/h
474 22-10-2008 15:28:01 12.3 C 6.41 g/m*3 12.3 C 0 km/h
475 22-10-2008 15:33:02 12.2 C 6.47 g/m*3 12.2 C 0 km/h
Sensor: Nr:Datum:Temp:Abs-Feuchte:Windchill:Wind:
Aussen-T/F 476 22-10-2008 15:38:02 12.2 C 6.37 g/m*3 12.2 C 0 km/h
477 22-10-2008 15:43:02 12.2 C 6.47 g/m*3 12.2 C 0 km/h
478 22-10-2008 15:48:02 12.2 C 6.47 g/m*3 12.2 C 0 km/h
479 22-10-2008 15:53:02 12.2 C 6.47 g/m*3 12.2 C 0 km/h
480 22-10-2008 15:58:02 12.1 C 6.22 g/m*3 12.1 C 0 km/h
481 22-10-2008 16:03:01 12.1 C 6.11 g/m*3 12.1 C 0 km/h
482 22-10-2008 16:08:01 12 C 6.07 g/m*3 12 C 0 km/h
483 22-10-2008 16:13:01 12.1 C 6.11 g/m*3 12.1 C 0 km/h
484 22-10-2008 16:18:01 11.8 C 6.1 g/m*3 11.8 C 0 km/h
485 22-10-2008 16:23:01 11.8 C 6.1 g/m*3 11.8 C 0 km/h
486 22-10-2008 16:28:01 11.7 C 6.07 g/m*3 11.7 C 0 km/h
487 22-10-2008 16:33:01 11.7 C 6.28 g/m*3 11.7 C 0 km/h
488 22-10-2008 16:38:01 11.7 C 6.28 g/m*3 11.7 C 0 km/h
489 22-10-2008 16:43:01 11.7 C 6.28 g/m*3 11.7 C 0 km/h
490 22-10-2008 16:48:01 11.7 C 6.28 g/m*3 11.7 C 0 km/h
491 22-10-2008 16:53:01 11.7 C 6.38 g/m*3 11.7 C 0 km/h
492 22-10-2008 16:58:01 11.7 C 6.38 g/m*3 11.7 C 0 km/h
493 22-10-2008 17:03:02 11.7 C 6.38 g/m*3 11.7 C 0 km/h
494 22-10-2008 17:08:02 11.7 C 6.48 g/m*3 11.7 C 0 km/h
495 22-10-2008 17:13:02 11.6 C 6.34 g/m*3 11.6 C 0 km/h
496 22-10-2008 17:18:02 11.5 C 6.4 g/m*3 11.5 C 0 km/h
497 22-10-2008 17:23:02 11.4 C 6.36 g/m*3 11.4 C 0 km/h
498 22-10-2008 17:28:02 11.3 C 6.32 g/m*3 11.3 C 0 km/h
499 22-10-2008 17:33:01 11.2 C 6.39 g/m*3 11.2 C 0 km/h
500 22-10-2008 17:38:01 11.1 C 6.35 g/m*3 11.1 C 0 km/h
Sensor: Nr:Datum:Temp:Abs-Feuchte:Windchill:Wind:
Aussen-T/F 501 22-10-2008 17:43:01 11.1 C 6.35 g/m*3 11.1 C 0 km/h
502 22-10-2008 17:48:02 11 C 6.31 g/m*3 11 C 0 km/h
503 22-10-2008 17:53:02 10.9 C 6.37 g/m*3 10.9 C 0 km/h
504 22-10-2008 17:58:02 10.8 C 6.42 g/m*3 10.8 C 0 km/h
505 22-10-2008 18:03:01 10.8 C 6.42 g/m*3 10.8 C 0 km/h
506 22-10-2008 18:08:01 10.7 C 6.48 g/m*3 10.7 C 0 km/h
507 22-10-2008 18:13:01 10.6 C 6.54 g/m*3 10.6 C 0 km/h
508 22-10-2008 18:18:01 10.6 C 6.54 g/m*3 10.6 C 0 km/h
509 22-10-2008 18:23:01 10.5 C 6.5 g/m*3 10.5 C 0 km/h
510 22-10-2008 18:28:01 10.4 C 6.55 g/m*3 10.4 C 0 km/h
511 22-10-2008 18:33:02 10.4 C 6.65 g/m*3 10.4 C 0 km/h
512 22-10-2008 18:38:02 10.3 C 6.61 g/m*3 10.3 C 0 km/h
513 22-10-2008 18:43:02 10.2 C 6.57 g/m*3 10.2 C 0 km/h
514 22-10-2008 18:48:02 10.1 C 6.62 g/m*3 10.1 C 0 km/h
515 22-10-2008 18:53:02 10.1 C 6.62 g/m*3 10.1 C 0 km/h
516 22-10-2008 18:58:02 10 C 6.67 g/m*3 10 C 0 km/h
517 22-10-2008 19:03:01 9.9 C 6.72 g/m*3 9.9 C 0 km/h
518 22-10-2008 19:08:01 9.9 C 6.72 g/m*3 9.9 C 0 km/h
519 22-10-2008 19:13:01 9.8 C 6.77 g/m*3 9.8 C 0 km/h
520 22-10-2008 19:18:02 9.7 C 6.73 g/m*3 9.7 C 0 km/h
521 22-10-2008 19:23:02 9.7 C 6.73 g/m*3 9.7 C 0 km/h
522 22-10-2008 19:28:02 9.7 C 6.73 g/m*3 9.7 C 0 km/h
523 22-10-2008 19:33:02 9.7 C 6.73 g/m*3 9.7 C 0 km/h
524 22-10-2008 19:38:02 9.6 C 6.69 g/m*3 9.6 C 0 km/h
525 22-10-2008 19:43:02 9.6 C 6.69 g/m*3 9.6 C 0 km/h
Sensor: Nr:Datum:Temp:Abs-Feuchte:Windchill:Wind:
Aussen-T/F 526 22-10-2008 19:48:01 9.6 C 6.69 g/m*3 9.6 C 0 km/h
527 22-10-2008 19:53:01 9.6 C 6.69 g/m*3 9.6 C 0 km/h
528 22-10-2008 19:58:01 9.6 C 6.69 g/m*3 9.6 C 0 km/h
529 22-10-2008 20:03:02 9.5 C 6.64 g/m*3 9.5 C 0 km/h
530 22-10-2008 20:08:02 9.4 C 6.6 g/m*3 9.4 C 0 km/h
531 22-10-2008 20:13:02 9.3 C 6.65 g/m*3 9.3 C 0 km/h
532 22-10-2008 20:18:02 9.3 C 6.65 g/m*3 9.3 C 0 km/h
533 22-10-2008 20:23:02 9.2 C 6.61 g/m*3 9.2 C 0 km/h
534 22-10-2008 20:28:02 9.1 C 6.65 g/m*3 9.1 C 0 km/h
535 22-10-2008 20:33:02 9.1 C 6.65 g/m*3 9.1 C 0 km/h
536 22-10-2008 20:38:02 9 C 6.7 g/m*3 9 C 0 km/h
537 22-10-2008 20:43:02 9 C 6.79 g/m*3 9 C 0 km/h
538 22-10-2008 20:48:02 9 C 6.79 g/m*3 9 C 0 km/h
539 22-10-2008 20:53:02 9 C 6.79 g/m*3 9 C 0 km/h
540 22-10-2008 20:58:02 9 C 6.79 g/m*3 9 C 0 km/h
541 22-10-2008 21:03:01 8.9 C 6.83 g/m*3 8.9 C 0 km/h
542 22-10-2008 21:08:01 8.9 C 6.92 g/m*3 8.9 C 0 km/h
543 22-10-2008 21:13:01 8.8 C 6.88 g/m*3 8.8 C 0 km/h
544 22-10-2008 21:18:02 8.7 C 6.83 g/m*3 8.7 C 0 km/h
545 22-10-2008 21:23:02 8.7 C 6.83 g/m*3 8.7 C 0 km/h
546 22-10-2008 21:28:02 8.6 C 6.87 g/m*3 8.6 C 0 km/h
547 22-10-2008 21:33:01 8.4 C 6.79 g/m*3 8.4 C 0 km/h
548 22-10-2008 21:38:01 8.3 C 6.74 g/m*3 8.3 C 0 km/h
549 22-10-2008 21:43:01 8.2 C 6.78 g/m*3 8.2 C 0 km/h
550 22-10-2008 21:49:03 8 C 6.78 g/m*3 8 C 0 km/h
Sensor: Nr:Datum:Temp:Abs-Feuchte:Windchill:Wind:
Aussen-T/F 551 22-10-2008 21:54:03 8 C 6.78 g/m*3 8 C 0 km/h
552 22-10-2008 21:59:03 7.9 C 6.9 g/m*3 7.9 C 0 km/h
553 22-10-2008 22:04:03 7.8 C 6.86 g/m*3 7.8 C 0 km/h
554 22-10-2008 22:09:03 7.7 C 6.81 g/m*3 7.7 C 0 km/h
555 22-10-2008 22:14:03 7.7 C 6.81 g/m*3 7.7 C 0 km/h
556 22-10-2008 22:19:03 7.7 C 6.89 g/m*3 7.7 C 0 km/h
557 22-10-2008 22:24:03 7.7 C 6.89 g/m*3 7.7 C 0 km/h
558 22-10-2008 22:29:03 7.7 C 6.97 g/m*3 7.7 C 0 km/h
559 22-10-2008 22:34:03 7.5 C 6.88 g/m*3 7.5 C 0 km/h
560 22-10-2008 22:39:03 7.5 C 6.88 g/m*3 7.5 C 0 km/h
561 22-10-2008 22:44:03 7.5 C 6.88 g/m*3 7.5 C 0 km/h
562 22-10-2008 22:49:03 7.5 C 6.96 g/m*3 7.5 C 0 km/h
563 22-10-2008 22:54:03 7.4 C 6.92 g/m*3 7.4 C 0 km/h
564 22-10-2008 22:59:03 7.4 C 6.92 g/m*3 7.4 C 0 km/h
565 22-10-2008 23:04:04 7.3 C 6.87 g/m*3 7.3 C 0 km/h
566 22-10-2008 23:09:04 7.2 C 6.83 g/m*3 7.2 C 0 km/h
567 22-10-2008 23:14:04 7.2 C 6.91 g/m*3 7.2 C 0 km/h
568 22-10-2008 23:19:04 7.2 C 6.91 g/m*3 7.2 C 0 km/h
569 22-10-2008 23:24:04 7.1 C 6.86 g/m*3 7.1 C 0 km/h
570 22-10-2008 23:29:04 7 C 6.82 g/m*3 7 C 0 km/h
571 22-10-2008 23:34:04 6.9 C 6.85 g/m*3 6.9 C 0 km/h
572 22-10-2008 23:39:04 6.8 C 6.81 g/m*3 6.8 C 0 km/h
573 22-10-2008 23:44:04 6.8 C 6.81 g/m*3 6.8 C 0 km/h
574 22-10-2008 23:49:04 6.8 C 6.88 g/m*3 6.8 C 0 km/h
575 22-10-2008 23:54:04 6.8 C 6.88 g/m*3 6.8 C 0 km/h
Sensor: Nr:Datum:Temp:Abs-Feuchte:Windchill:Wind:
Aussen-T/F 576 22-10-2008 23:59:04 6.8 C 6.96 g/m*3 6.8 C 0 km/h
577 23-10-2008 00:04:04 6.6 C 6.87 g/m*3 6.6 C 0 km/h
578 23-10-2008 00:09:04 6.6 C 6.87 g/m*3 6.6 C 0 km/h
579 23-10-2008 00:14:04 6.6 C 6.87 g/m*3 6.6 C 0 km/h
580 23-10-2008 00:19:04 6.5 C 6.82 g/m*3 6.5 C 0 km/h
581 23-10-2008 00:24:04 6.5 C 6.9 g/m*3 6.5 C 0 km/h
582 23-10-2008 00:29:04 6.3 C 6.81 g/m*3 6.3 C 0 km/h
583 23-10-2008 00:34:04 6.3 C 6.81 g/m*3 6.3 C 0 km/h
584 23-10-2008 00:39:04 6.3 C 6.81 g/m*3 6.3 C 0 km/h
585 23-10-2008 00:44:04 6.2 C 6.77 g/m*3 6.2 C 0 km/h
586 23-10-2008 00:49:05 6.2 C 6.77 g/m*3 6.2 C 0 km/h
587 23-10-2008 00:54:05 6.1 C 6.72 g/m*3 6.1 C 0 km/h
588 23-10-2008 00:59:05 6.1 C 6.72 g/m*3 6.1 C 0 km/h
589 23-10-2008 01:04:05 6.1 C 6.72 g/m*3 6.1 C 0 km/h
590 23-10-2008 01:09:05 6 C 6.75 g/m*3 6 C 0 km/h
591 23-10-2008 01:14:05 6 C 6.75 g/m*3 6 C 0 km/h
592 23-10-2008 01:19:05 6 C 6.75 g/m*3 6 C 0 km/h
593 23-10-2008 01:24:05 5.9 C 6.78 g/m*3 5.9 C 0 km/h
594 23-10-2008 01:29:05 5.8 C 6.73 g/m*3 5.8 C 0 km/h
595 23-10-2008 01:34:05 5.9 C 6.78 g/m*3 5.9 C 0 km/h
596 23-10-2008 01:39:05 5.9 C 6.85 g/m*3 5.9 C 0 km/h
597 23-10-2008 01:44:05 6 C 6.82 g/m*3 6 C 0 km/h
598 23-10-2008 01:49:05 6 C 6.82 g/m*3 6 C 0 km/h
599 23-10-2008 01:54:05 5.8 C 6.81 g/m*3 5.8 C 0 km/h
600 23-10-2008 01:59:05 5.8 C 6.81 g/m*3 5.8 C 0 km/h
Sensor: Nr:Datum:Temp:Abs-Feuchte:Windchill:Wind:
Aussen-T/F 601 23-10-2008 02:04:05 5.9 C 6.85 g/m*3 5.9 C 0 km/h
602 23-10-2008 02:09:05 5.8 C 6.81 g/m*3 5.8 C 0 km/h
603 23-10-2008 02:14:05 5.9 C 6.85 g/m*3 5.9 C 0 km/h
604 23-10-2008 02:19:05 5.9 C 6.85 g/m*3 5.9 C 0 km/h
605 23-10-2008 02:24:05 6 C 6.82 g/m*3 6 C 0 km/h
606 23-10-2008 02:29:05 6 C 6.82 g/m*3 6 C 0 km/h
607 23-10-2008 02:34:06 6.1 C 6.87 g/m*3 6.1 C 0 km/h
608 23-10-2008 02:39:06 6.4 C 7.08 g/m*3 6.4 C 0 km/h
609 23-10-2008 02:44:06 6.5 C 7.12 g/m*3 6.5 C 0 km/h
610 23-10-2008 02:49:06 6.7 C 7.22 g/m*3 6.7 C 0 km/h
611 23-10-2008 02:54:06 6.7 C 7.22 g/m*3 6.7 C 0 km/h
612 23-10-2008 02:59:06 6.8 C 7.27 g/m*3 6.8 C 0 km/h
613 23-10-2008 03:04:06 6.8 C 7.27 g/m*3 6.8 C 0 km/h
614 23-10-2008 03:09:06 6.9 C 7.31 g/m*3 6.9 C 0 km/h
615 23-10-2008 03:14:06 6.9 C 7.31 g/m*3 6.9 C 0 km/h
616 23-10-2008 03:19:06 7 C 7.28 g/m*3 7 C 0 km/h
617 23-10-2008 03:24:06 7 C 7.28 g/m*3 7 C 0 km/h
618 23-10-2008 03:29:06 7 C 7.28 g/m*3 7 C 0 km/h
619 23-10-2008 03:34:06 7 C 7.28 g/m*3 7 C 0 km/h
620 23-10-2008 03:39:06 7 C 7.28 g/m*3 7 C 0 km/h
621 23-10-2008 03:44:06 6.9 C 7.24 g/m*3 6.9 C 0 km/h
622 23-10-2008 03:49:06 7 C 7.21 g/m*3 7 C 0 km/h
623 23-10-2008 03:54:06 7 C 7.21 g/m*3 7 C 0 km/h
624 23-10-2008 03:59:06 7 C 7.21 g/m*3 7 C 0 km/h
625 23-10-2008 04:04:06 7 C 7.21 g/m*3 7 C 0 km/h
Sensor: Nr:Datum:Temp:Abs-Feuchte:Windchill:Wind:
Aussen-T/F 626 23-10-2008 04:09:06 7.1 C 7.25 g/m*3 7.1 C 0 km/h
627 23-10-2008 04:14:07 7.3 C 7.27 g/m*3 7.3 C 0 km/h
628 23-10-2008 04:19:07 7.3 C 7.35 g/m*3 7.3 C 0 km/h
629 23-10-2008 04:24:07 7.2 C 7.3 g/m*3 7.2 C 0 km/h
630 23-10-2008 04:29:07 7.3 C 7.27 g/m*3 7.3 C 0 km/h
631 23-10-2008 04:34:07 7.3 C 7.27 g/m*3 7.3 C 0 km/h
632 23-10-2008 04:39:07 7.3 C 7.27 g/m*3 7.3 C 0 km/h
633 23-10-2008 04:44:07 7.3 C 7.27 g/m*3 7.3 C 0 km/h
634 23-10-2008 04:49:07 7.3 C 7.27 g/m*3 7.3 C 0 km/h
635 23-10-2008 04:54:07 7.3 C 7.27 g/m*3 7.3 C 0 km/h
636 23-10-2008 04:59:07 7.4 C 7.24 g/m*3 7.4 C 0 km/h
637 23-10-2008 05:04:07 7.3 C 7.19 g/m*3 7.3 C 0 km/h
638 23-10-2008 05:09:07 7.3 C 7.19 g/m*3 7.3 C 0 km/h
639 23-10-2008 05:14:07 7.3 C 7.11 g/m*3 7.3 C 0 km/h
640 23-10-2008 05:19:07 7.3 C 7.11 g/m*3 7.3 C 0 km/h
641 23-10-2008 05:24:07 7.3 C 7.11 g/m*3 7.3 C 0 km/h
642 23-10-2008 05:29:07 7.3 C 7.03 g/m*3 7.3 C 0 km/h
643 23-10-2008 05:34:07 7.3 C 6.95 g/m*3 7.3 C 0 km/h
644 23-10-2008 05:39:07 7.4 C 6.92 g/m*3 7.4 C 0 km/h
645 23-10-2008 05:44:07 7.4 C 6.92 g/m*3 7.4 C 0 km/h
646 23-10-2008 05:49:07 7.4 C 6.84 g/m*3 7.4 C 0 km/h
647 23-10-2008 05:54:08 7.4 C 6.84 g/m*3 7.4 C 0 km/h
648 23-10-2008 05:59:08 7.4 C 6.76 g/m*3 7.4 C 0 km/h
649 23-10-2008 06:04:08 7.4 C 6.76 g/m*3 7.4 C 0 km/h
650 23-10-2008 06:09:08 7.5 C 6.8 g/m*3 7.5 C 0 km/h
Sensor: Nr:Datum:Temp:Abs-Feuchte:Windchill:Wind:
Aussen-T/F 651 23-10-2008 06:14:08 7.5 C 6.8 g/m*3 7.5 C 0 km/h
652 23-10-2008 06:19:08 7.5 C 6.8 g/m*3 7.5 C 0 km/h
653 23-10-2008 06:24:08 7.5 C 6.72 g/m*3 7.5 C 0 km/h
654 23-10-2008 06:29:08 7.5 C 6.72 g/m*3 7.5 C 0 km/h
655 23-10-2008 06:34:08 7.5 C 6.72 g/m*3 7.5 C 0 km/h
656 23-10-2008 06:39:08 7.4 C 6.68 g/m*3 7.4 C 0 km/h
657 23-10-2008 06:44:08 7.4 C 6.68 g/m*3 7.4 C 0 km/h
658 23-10-2008 06:49:08 7.4 C 6.68 g/m*3 7.4 C 0 km/h
659 23-10-2008 06:54:08 7.4 C 6.68 g/m*3 7.4 C 0 km/h
660 23-10-2008 06:59:08 7.4 C 6.68 g/m*3 7.4 C 0 km/h
661 23-10-2008 07:04:02 7.4 C 6.68 g/m*3 7.4 C 0 km/h
662 23-10-2008 07:09:02 7.4 C 6.68 g/m*3 7.4 C 0 km/h
663 23-10-2008 07:14:02 7.4 C 6.76 g/m*3 7.4 C 0 km/h
664 23-10-2008 07:19:03 7.4 C 6.76 g/m*3 7.4 C 0 km/h
665 23-10-2008 07:24:03 7.4 C 6.76 g/m*3 7.4 C 0 km/h
666 23-10-2008 07:29:03 7.4 C 6.76 g/m*3 7.4 C 0 km/h
667 23-10-2008 07:34:02 7.4 C 6.76 g/m*3 7.4 C 0 km/h
668 23-10-2008 07:39:02 7.4 C 6.76 g/m*3 7.4 C 0 km/h
669 23-10-2008 07:44:02 7.4 C 6.76 g/m*3 7.4 C 0 km/h
670 23-10-2008 07:49:01 7.4 C 6.76 g/m*3 7.4 C 0 km/h
671 23-10-2008 07:54:01 7.4 C 6.76 g/m*3 7.4 C 0 km/h
672 23-10-2008 07:59:01 7.4 C 6.76 g/m*3 7.4 C 0 km/h
673 23-10-2008 08:04:02 7.4 C 6.76 g/m*3 7.4 C 0 km/h
674 23-10-2008 08:09:02 7.4 C 6.76 g/m*3 7.4 C 0 km/h
675 23-10-2008 08:14:02 7.4 C 6.76 g/m*3 7.4 C 0 km/h
Sensor: Nr:Datum:Temp:Abs-Feuchte:Windchill:Wind:
Aussen-T/F 676 23-10-2008 08:19:01 7.4 C 6.76 g/m*3 7.4 C 0 km/h
677 23-10-2008 08:24:01 7.3 C 6.72 g/m*3 7.3 C 0 km/h
678 23-10-2008 08:29:01 7.4 C 6.76 g/m*3 7.4 C 0 km/h
679 23-10-2008 08:34:01 7.4 C 6.76 g/m*3 7.4 C 0 km/h
680 23-10-2008 08:39:01 7.4 C 6.76 g/m*3 7.4 C 0 km/h
681 23-10-2008 08:44:01 7.4 C 6.76 g/m*3 7.4 C 0 km/h
682 23-10-2008 08:49:02 7.5 C 6.8 g/m*3 7.5 C 0 km/h
683 23-10-2008 08:54:02 7.5 C 6.88 g/m*3 7.5 C 0 km/h
684 23-10-2008 08:59:02 7.6 C 6.85 g/m*3 7.6 C 0 km/h
685 23-10-2008 09:04:01 7.7 C 6.81 g/m*3 7.7 C 0 km/h
686 23-10-2008 09:09:01 7.8 C 6.77 g/m*3 7.8 C 0 km/h
687 23-10-2008 09:14:01 7.8 C 6.77 g/m*3 7.8 C 0 km/h
688 23-10-2008 09:19:01 7.9 C 6.74 g/m*3 7.9 C 0 km/h
689 23-10-2008 09:24:01 8 C 6.53 g/m*3 8 C 0 km/h
690 23-10-2008 09:29:01 8 C 6.45 g/m*3 8 C 0 km/h
691 23-10-2008 09:34:01 8.1 C 6.41 g/m*3 8.1 C 0 km/h
692 23-10-2008 09:39:01 8.1 C 6.41 g/m*3 8.1 C 0 km/h
693 23-10-2008 09:44:01 8.2 C 6.45 g/m*3 8.2 C 0 km/h
694 23-10-2008 09:49:03 8.3 C 6.49 g/m*3 8.3 C 0 km/h
695 23-10-2008 09:54:03 8.3 C 6.32 g/m*3 8.3 C 0 km/h
696 23-10-2008 09:59:03 8.4 C 6.36 g/m*3 8.4 C 0 km/h
697 23-10-2008 10:04:02 8.4 C 6.36 g/m*3 8.4 C 0 km/h
698 23-10-2008 10:09:02 8.5 C 6.32 g/m*3 8.5 C 0 km/h
699 23-10-2008 10:14:02 8.6 C 6.36 g/m*3 8.6 C 0 km/h
700 23-10-2008 10:19:02 8.7 C 6.4 g/m*3 8.7 C 0 km/h
Sensor: Nr:Datum:Temp:Abs-Feuchte:Windchill:Wind:
Aussen-T/F 701 23-10-2008 10:24:02 8.7 C 6.31 g/m*3 8.7 C 0 km/h
702 23-10-2008 10:29:02 8.7 C 6.23 g/m*3 8.7 C 0 km/h
703 23-10-2008 10:34:02 8.8 C 6.27 g/m*3 8.8 C 0 km/h
704 23-10-2008 10:39:02 8.9 C 6.22 g/m*3 8.9 C 0 km/h
705 23-10-2008 10:44:02 9.1 C 6.21 g/m*3 9.1 C 0 km/h
706 23-10-2008 10:49:02 9.1 C 6.3 g/m*3 9.1 C 0 km/h
707 23-10-2008 10:54:03 9.2 C 6.34 g/m*3 9.2 C 0 km/h
708 23-10-2008 10:59:03 9.2 C 6.25 g/m*3 9.2 C 0 km/h
709 23-10-2008 11:04:01 9.3 C 6.2 g/m*3 9.3 C 0 km/h
710 23-10-2008 11:09:01 9.2 C 6.16 g/m*3 9.2 C 0 km/h
711 23-10-2008 11:14:01 9.4 C 6.24 g/m*3 9.4 C 0 km/h
712 23-10-2008 11:19:02 9.4 C 6.15 g/m*3 9.4 C 0 km/h
713 23-10-2008 11:24:02 9.6 C 6.14 g/m*3 9.6 C 0 km/h
714 23-10-2008 11:29:02 9.5 C 6.1 g/m*3 9.5 C 0 km/h
715 23-10-2008 11:34:01 9.4 C 6.06 g/m*3 9.4 C 0 km/h
716 23-10-2008 11:39:01 9.4 C 6.06 g/m*3 9.4 C 0 km/h
717 23-10-2008 11:44:01 9.4 C 6.06 g/m*3 9.4 C 0 km/h
718 23-10-2008 11:49:02 9.3 C 6.11 g/m*3 9.3 C 0 km/h
719 23-10-2008 11:54:02 9.3 C 6.11 g/m*3 9.3 C 0 km/h
720 23-10-2008 11:59:02 9.6 C 6.32 g/m*3 9.6 C 0 km/h
721 23-10-2008 12:04:02 9.8 C 6.31 g/m*3 9.8 C 0 km/h
722 23-10-2008 12:09:02 10.2 C 6.38 g/m*3 10.2 C 0 km/h
723 23-10-2008 12:14:02 10.3 C 6.32 g/m*3 10.3 C 0 km/h
724 23-10-2008 12:19:02 10.4 C 6.17 g/m*3 10.4 C 0 km/h
725 23-10-2008 12:24:02 10.5 C 6.11 g/m*3 10.5 C 0 km/h
Sensor: Nr:Datum:Temp:Abs-Feuchte:Windchill:Wind:
Aussen-T/F 726 23-10-2008 12:29:02 10.6 C 6.25 g/m*3 10.6 C 0 km/h
727 23-10-2008 12:34:02 10.7 C 6.29 g/m*3 10.7 C 0 km/h
728 23-10-2008 12:39:02 10.9 C 6.27 g/m*3 10.9 C 0 km/h
729 23-10-2008 12:44:02 10.9 C 6.27 g/m*3 10.9 C 0 km/h
730 23-10-2008 12:49:02 11.1 C 6.14 g/m*3 11.1 C 0 km/h
731 23-10-2008 12:54:02 11.3 C 6.43 g/m*3 11.3 C 0 km/h
732 23-10-2008 12:59:02 11.5 C 6.4 g/m*3 11.5 C 0 km/h
733 23-10-2008 13:04:01 11.6 C 6.44 g/m*3 11.6 C 0 km/h
734 23-10-2008 13:09:01 11.9 C 6.46 g/m*3 11.9 C 0 km/h
735 23-10-2008 13:14:01 12.2 C 6.37 g/m*3 12.2 C 0 km/h
736 23-10-2008 13:19:01 12.3 C 6.19 g/m*3 12.3 C 0 km/h
737 23-10-2008 13:24:01 12.3 C 5.97 g/m*3 12.3 C 0 km/h
738 23-10-2008 13:29:01 12.5 C 6.16 g/m*3 12.5 C 0 km/h
739 23-10-2008 13:34:02 12.6 C 6.08 g/m*3 12.6 C 0 km/h
740 23-10-2008 13:39:03 12.8 C 6.05 g/m*3 12.8 C 0 km/h
741 23-10-2008 13:44:03 12.9 C 5.86 g/m*3 12.9 C 0 km/h
742 23-10-2008 13:49:02 12.9 C 5.86 g/m*3 12.9 C 0 km/h
743 23-10-2008 13:54:02 13 C 5.9 g/m*3 13 C 0 km/h
744 23-10-2008 13:59:02 13.2 C 5.97 g/m*3 13.2 C 0 km/h
745 23-10-2008 14:04:02 13.2 C 5.97 g/m*3 13.2 C 0 km/h
746 23-10-2008 14:09:02 13.3 C 6.01 g/m*3 13.3 C 0 km/h
747 23-10-2008 14:14:02 13.2 C 5.86 g/m*3 13.2 C 0 km/h
748 23-10-2008 14:19:02 13.3 C 5.89 g/m*3 13.3 C 0 km/h
749 23-10-2008 14:24:02 13.6 C 6.12 g/m*3 13.6 C 0 km/h
750 23-10-2008 14:29:02 14.1 C 6.07 g/m*3 14.1 C 0 km/h
Sensor: Nr:Datum:Temp:Abs-Feuchte:Windchill:Wind:
Aussen-T/F 751 23-10-2008 14:34:02 14.2 C 5.62 g/m*3 14.2 C 0 km/h
752 23-10-2008 14:39:02 14.2 C 5.62 g/m*3 14.2 C 0 km/h
753 23-10-2008 14:44:02 14 C 5.43 g/m*3 14 C 0 km/h
754 23-10-2008 14:49:02 14.3 C 5.65 g/m*3 14.3 C 0 km/h
755 23-10-2008 14:54:02 14.6 C 5.63 g/m*3 14.6 C 0 km/h
756 23-10-2008 14:59:02 14.7 C 5.54 g/m*3 14.7 C 0 km/h
757 23-10-2008 15:04:02 14.9 C 5.48 g/m*3 14.9 C 0 km/h
758 23-10-2008 15:09:02 15.2 C 5.45 g/m*3 15.2 C 0 km/h
759 23-10-2008 15:14:02 15.4 C 5.39 g/m*3 15.4 C 0 km/h
760 23-10-2008 15:19:02 15.8 C 5.65 g/m*3 15.8 C 0 km/h
761 23-10-2008 15:24:02 16 C 5.31 g/m*3 16 C 0 km/h
762 23-10-2008 15:29:02 15.9 C 5.01 g/m*3 15.9 C 0 km/h
763 23-10-2008 15:34:02 15.8 C 4.98 g/m*3 15.8 C 0 km/h
764 23-10-2008 15:39:02 16.1 C 5.35 g/m*3 16.1 C 0 km/h
765 23-10-2008 15:44:02 16.2 C 5.38 g/m*3 16.2 C 0 km/h
766 23-10-2008 15:49:02 16 C 5.04 g/m*3 16 C 0 km/h
767 23-10-2008 15:54:02 15.9 C 5.15 g/m*3 15.9 C 0 km/h
768 23-10-2008 15:59:02 15.6 C 5.05 g/m*3 15.6 C 0 km/h
769 23-10-2008 16:04:01 15.4 C 4.86 g/m*3 15.4 C 0 km/h
770 23-10-2008 16:09:01 15.2 C 5.19 g/m*3 15.2 C 0 km/h
771 23-10-2008 16:14:01 15.2 C 5.19 g/m*3 15.2 C 0 km/h
772 23-10-2008 16:19:02 15.1 C 5.16 g/m*3 15.1 C 0 km/h
773 23-10-2008 16:24:02 14.9 C 5.23 g/m*3 14.9 C 0 km/h
774 23-10-2008 16:29:02 15.1 C 5.16 g/m*3 15.1 C 0 km/h
775 23-10-2008 16:34:02 15.1 C 5.03 g/m*3 15.1 C 0 km/h
Sensor: Nr:Datum:Temp:Abs-Feuchte:Windchill:Wind:
Aussen-T/F 776 23-10-2008 16:39:02 15.3 C 5.22 g/m*3 15.3 C 0 km/h
777 23-10-2008 16:44:02 15.4 C 5.39 g/m*3 15.4 C 0 km/h
778 23-10-2008 16:49:02 15.5 C 5.29 g/m*3 15.5 C 0 km/h
779 23-10-2008 16:54:02 15.7 C 5.35 g/m*3 15.7 C 0 km/h
780 23-10-2008 16:59:02 15.9 C 5.42 g/m*3 15.9 C 0 km/h
781 23-10-2008 17:04:02 15.9 C 5.55 g/m*3 15.9 C 0 km/h
782 23-10-2008 17:09:02 15.9 C 5.55 g/m*3 15.9 C 0 km/h
783 23-10-2008 17:14:02 15.8 C 5.38 g/m*3 15.8 C 0 km/h
784 23-10-2008 17:19:02 15.7 C 6.02 g/m*3 15.7 C 0 km/h
785 23-10-2008 17:24:02 15.5 C 5.95 g/m*3 15.5 C 0 km/h
786 23-10-2008 17:29:02 15.2 C 5.71 g/m*3 15.2 C 0 km/h
787 23-10-2008 17:34:01 14.9 C 5.99 g/m*3 14.9 C 0 km/h
788 23-10-2008 17:39:01 14.7 C 6.04 g/m*3 14.7 C 0 km/h
789 23-10-2008 17:44:01 14.2 C 5.74 g/m*3 14.2 C 0 km/h
790 23-10-2008 17:49:02 13.9 C 5.75 g/m*3 13.9 C 0 km/h
791 23-10-2008 17:54:02 13.3 C 5.55 g/m*3 13.3 C 0 km/h
792 23-10-2008 17:59:02 13.2 C 5.63 g/m*3 13.2 C 0 km/h
793 23-10-2008 18:04:02 12.6 C 5.53 g/m*3 12.6 C 0 km/h
794 23-10-2008 18:09:02 11.9 C 5.61 g/m*3 11.9 C 0 km/h
795 23-10-2008 18:14:02 11.8 C 5.68 g/m*3 11.8 C 0 km/h
796 23-10-2008 18:19:01 11.3 C 5.51 g/m*3 11.3 C 0 km/h
797 23-10-2008 18:24:01 11.1 C 5.54 g/m*3 11.1 C 0 km/h
798 23-10-2008 18:29:01 10.8 C 5.63 g/m*3 10.8 C 0 km/h
799 23-10-2008 18:34:02 10.5 C 5.72 g/m*3 10.5 C 0 km/h
800 23-10-2008 18:39:02 10.2 C 5.71 g/m*3 10.2 C 0 km/h
Sensor: Nr:Datum:Temp:Abs-Feuchte:Windchill:Wind:
Aussen-T/F 801 23-10-2008 18:44:02 10.1 C 5.67 g/m*3 10.1 C 0 km/h
802 23-10-2008 18:49:02 10 C 5.73 g/m*3 10 C 0 km/h
803 23-10-2008 18:54:02 9.7 C 5.72 g/m*3 9.7 C 0 km/h
804 23-10-2008 18:59:03 9.5 C 5.73 g/m*3 9.5 C 0 km/h
805 23-10-2008 19:04:02 9.5 C 5.73 g/m*3 9.5 C 0 km/h
806 23-10-2008 19:09:02 9.3 C 5.75 g/m*3 9.3 C 0 km/h
807 23-10-2008 19:14:02 9.3 C 5.75 g/m*3 9.3 C 0 km/h
808 23-10-2008 19:19:02 9.2 C 5.8 g/m*3 9.2 C 0 km/h
809 23-10-2008 19:24:02 9.1 C 5.77 g/m*3 9.1 C 0 km/h
810 23-10-2008 19:29:02 9.1 C 5.86 g/m*3 9.1 C 0 km/h
811 23-10-2008 19:34:02 9 C 5.82 g/m*3 9 C 0 km/h
812 23-10-2008 19:39:02 9 C 5.91 g/m*3 9 C 0 km/h
813 23-10-2008 19:44:02 8.9 C 5.96 g/m*3 8.9 C 0 km/h
814 23-10-2008 19:49:02 8.8 C 5.92 g/m*3 8.8 C 0 km/h
815 23-10-2008 19:54:02 8.8 C 5.92 g/m*3 8.8 C 0 km/h
816 23-10-2008 19:59:02 8.7 C 5.97 g/m*3 8.7 C 0 km/h
817 23-10-2008 20:04:02 8.7 C 5.97 g/m*3 8.7 C 0 km/h
818 23-10-2008 20:09:02 8.6 C 5.93 g/m*3 8.6 C 0 km/h
819 23-10-2008 20:14:02 8.6 C 5.93 g/m*3 8.6 C 0 km/h
820 23-10-2008 20:19:02 8.5 C 5.98 g/m*3 8.5 C 0 km/h
821 23-10-2008 20:24:02 8.5 C 5.98 g/m*3 8.5 C 0 km/h
822 23-10-2008 20:29:02 8.4 C 5.94 g/m*3 8.4 C 0 km/h
823 23-10-2008 20:34:03 8.4 C 5.94 g/m*3 8.4 C 0 km/h
824 23-10-2008 20:39:03 8.3 C 5.9 g/m*3 8.3 C 0 km/h
825 23-10-2008 20:44:03 8.2 C 5.95 g/m*3 8.2 C 0 km/h
Sensor: Nr:Datum:Temp:Abs-Feuchte:Windchill:Wind:
Aussen-T/F 826 23-10-2008 20:49:02 8.2 C 5.95 g/m*3 8.2 C 0 km/h
827 23-10-2008 20:54:02 8.1 C 5.99 g/m*3 8.1 C 0 km/h
828 23-10-2008 20:59:02 8.1 C 5.99 g/m*3 8.1 C 0 km/h
829 23-10-2008 21:04:02 8 C 5.95 g/m*3 8 C 0 km/h
830 23-10-2008 21:09:02 7.9 C 6 g/m*3 7.9 C 0 km/h
831 23-10-2008 21:14:02 7.9 C 6 g/m*3 7.9 C 0 km/h
832 23-10-2008 21:19:02 7.8 C 6.04 g/m*3 7.8 C 0 km/h
833 23-10-2008 21:24:02 7.7 C 6 g/m*3 7.7 C 0 km/h
834 23-10-2008 21:29:02 7.6 C 6.04 g/m*3 7.6 C 0 km/h
835 23-10-2008 21:34:02 7.6 C 6.04 g/m*3 7.6 C 0 km/h
836 23-10-2008 21:39:02 7.5 C 6 g/m*3 7.5 C 0 km/h
837 23-10-2008 21:44:03 7.6 C 6.04 g/m*3 7.6 C 0 km/h
838 23-10-2008 21:49:01 7.5 C 6 g/m*3 7.5 C 0 km/h
839 23-10-2008 21:54:01 7.4 C 5.96 g/m*3 7.4 C 0 km/h
840 23-10-2008 21:59:01 7.5 C 6 g/m*3 7.5 C 0 km/h
841 23-10-2008 22:04:01 7.5 C 6 g/m*3 7.5 C 0 km/h
842 23-10-2008 22:09:01 7.5 C 6 g/m*3 7.5 C 0 km/h
843 23-10-2008 22:14:01 7.3 C 5.93 g/m*3 7.3 C 0 km/h
844 23-10-2008 22:20:02 7.2 C 5.89 g/m*3 7.2 C 0 km/h
845 23-10-2008 22:25:02 7.2 C 5.97 g/m*3 7.2 C 0 km/h
846 23-10-2008 22:30:02 7.2 C 6.04 g/m*3 7.2 C 0 km/h
847 23-10-2008 22:35:02 7 C 5.97 g/m*3 7 C 0 km/h
848 23-10-2008 22:40:02 7 C 5.97 g/m*3 7 C 0 km/h
849 23-10-2008 22:45:02 6.9 C 6 g/m*3 6.9 C 0 km/h
850 23-10-2008 22:50:02 6.8 C 6.04 g/m*3 6.8 C 0 km/h
Sensor: Nr:Datum:Temp:Abs-Feuchte:Windchill:Wind:
Aussen-T/F 851 23-10-2008 22:55:02 6.7 C 6 g/m*3 6.7 C 0 km/h
852 23-10-2008 23:00:02 6.6 C 5.96 g/m*3 6.6 C 0 km/h
853 23-10-2008 23:05:02 6.5 C 6 g/m*3 6.5 C 0 km/h
854 23-10-2008 23:10:02 6.6 C 6.04 g/m*3 6.6 C 0 km/h
855 23-10-2008 23:15:02 6.5 C 6 g/m*3 6.5 C 0 km/h
856 23-10-2008 23:20:02 6.4 C 5.96 g/m*3 6.4 C 0 km/h
857 23-10-2008 23:25:02 6.4 C 5.96 g/m*3 6.4 C 0 km/h
858 23-10-2008 23:30:02 6.3 C 6 g/m*3 6.3 C 0 km/h
859 23-10-2008 23:35:02 6.1 C 5.92 g/m*3 6.1 C 0 km/h
860 23-10-2008 23:40:02 6.1 C 5.92 g/m*3 6.1 C 0 km/h
861 23-10-2008 23:45:03 6 C 5.88 g/m*3 6 C 0 km/h
862 23-10-2008 23:50:03 5.9 C 5.91 g/m*3 5.9 C 0 km/h
863 23-10-2008 23:55:03 5.8 C 5.95 g/m*3 5.8 C 0 km/h
864 24-10-2008 00:00:03 5.8 C 5.95 g/m*3 5.8 C 0 km/h
865 24-10-2008 00:05:03 5.7 C 5.91 g/m*3 5.7 C 0 km/h
866 24-10-2008 00:10:03 5.6 C 5.87 g/m*3 5.6 C 0 km/h
867 24-10-2008 00:15:03 5.6 C 5.87 g/m*3 5.6 C 0 km/h
868 24-10-2008 00:20:03 5.4 C 5.79 g/m*3 5.4 C 0 km/h
869 24-10-2008 00:25:03 5.4 C 5.79 g/m*3 5.4 C 0 km/h
870 24-10-2008 00:30:03 5.3 C 5.82 g/m*3 5.3 C 0 km/h
871 24-10-2008 00:35:03 5.2 C 5.78 g/m*3 5.2 C 0 km/h
872 24-10-2008 00:40:03 5.1 C 5.75 g/m*3 5.1 C 0 km/h
873 24-10-2008 00:45:03 5.1 C 5.75 g/m*3 5.1 C 0 km/h
874 24-10-2008 00:50:03 5.1 C 5.75 g/m*3 5.1 C 0 km/h
875 24-10-2008 00:55:03 5 C 5.78 g/m*3 5 C 0 km/h
Sensor: Nr:Datum:Temp:Abs-Feuchte:Windchill:Wind:
Aussen-T/F 876 24-10-2008 01:00:03 4.9 C 5.81 g/m*3 4.9 C 0 km/h
877 24-10-2008 01:05:03 4.9 C 5.81 g/m*3 4.9 C 0 km/h
878 24-10-2008 01:10:03 4.9 C 5.81 g/m*3 4.9 C 0 km/h
879 24-10-2008 01:15:03 4.7 C 5.73 g/m*3 4.7 C 0 km/h
880 24-10-2008 01:20:03 4.7 C 5.73 g/m*3 4.7 C 0 km/h
881 24-10-2008 01:25:04 4.6 C 5.69 g/m*3 4.6 C 0 km/h
882 24-10-2008 01:30:04 4.6 C 5.76 g/m*3 4.6 C 0 km/h
883 24-10-2008 01:35:04 4.5 C 5.72 g/m*3 4.5 C 0 km/h
884 24-10-2008 01:40:04 4.5 C 5.72 g/m*3 4.5 C 0 km/h
885 24-10-2008 01:45:04 4.5 C 5.72 g/m*3 4.5 C 0 km/h
886 24-10-2008 01:50:04 4.5 C 5.72 g/m*3 4.5 C 0 km/h
887 24-10-2008 01:55:04 4.5 C 5.72 g/m*3 4.5 C 0 km/h
888 24-10-2008 02:00:04 4.4 C 5.68 g/m*3 4.4 C 0 km/h
889 24-10-2008 02:05:04 4.3 C 5.64 g/m*3 4.3 C 0 km/h
890 24-10-2008 02:10:04 4.3 C 5.64 g/m*3 4.3 C 0 km/h
891 24-10-2008 02:15:04 4.3 C 5.64 g/m*3 4.3 C 0 km/h
892 24-10-2008 02:20:04 4.2 C 5.61 g/m*3 4.2 C 0 km/h
893 24-10-2008 02:25:04 4.1 C 5.57 g/m*3 4.1 C 0 km/h
894 24-10-2008 02:30:04 4.1 C 5.63 g/m*3 4.1 C 0 km/h
895 24-10-2008 02:35:04 4 C 5.59 g/m*3 4 C 0 km/h
896 24-10-2008 02:40:04 3.9 C 5.56 g/m*3 3.9 C 0 km/h
897 24-10-2008 02:45:04 3.8 C 5.52 g/m*3 3.8 C 0 km/h
898 24-10-2008 02:50:04 3.8 C 5.58 g/m*3 3.8 C 0 km/h
899 24-10-2008 02:55:04 3.8 C 5.58 g/m*3 3.8 C 0 km/h
900 24-10-2008 03:00:05 3.8 C 5.58 g/m*3 3.8 C 0 km/h
Sensor: Nr:Datum:Temp:Abs-Feuchte:Windchill:Wind:
Aussen-T/F 901 24-10-2008 03:05:05 3.8 C 5.58 g/m*3 3.8 C 0 km/h
902 24-10-2008 03:10:05 3.6 C 5.51 g/m*3 3.6 C 0 km/h
903 24-10-2008 03:15:05 3.5 C 5.53 g/m*3 3.5 C 0 km/h
904 24-10-2008 03:20:05 3.6 C 5.51 g/m*3 3.6 C 0 km/h
905 24-10-2008 03:25:05 3.6 C 5.51 g/m*3 3.6 C 0 km/h
906 24-10-2008 03:30:05 3.7 C 5.61 g/m*3 3.7 C 0 km/h
907 24-10-2008 03:35:05 3.7 C 5.61 g/m*3 3.7 C 0 km/h
908 24-10-2008 03:40:05 3.7 C 5.61 g/m*3 3.7 C 0 km/h
909 24-10-2008 03:45:05 3.8 C 5.65 g/m*3 3.8 C 0 km/h
910 24-10-2008 03:50:05 3.8 C 5.71 g/m*3 3.8 C 0 km/h
911 24-10-2008 03:55:05 3.8 C 5.71 g/m*3 3.8 C 0 km/h
912 24-10-2008 04:00:05 3.9 C 5.75 g/m*3 3.9 C 0 km/h
913 24-10-2008 04:05:05 3.9 C 5.75 g/m*3 3.9 C 0 km/h
914 24-10-2008 04:10:05 4 C 5.72 g/m*3 4 C 0 km/h
915 24-10-2008 04:15:05 4 C 5.79 g/m*3 4 C 0 km/h
916 24-10-2008 04:20:05 4.1 C 5.82 g/m*3 4.1 C 0 km/h
917 24-10-2008 04:25:05 4.1 C 5.82 g/m*3 4.1 C 0 km/h
918 24-10-2008 04:30:05 4 C 5.79 g/m*3 4 C 0 km/h
919 24-10-2008 04:35:06 4 C 5.72 g/m*3 4 C 0 km/h
920 24-10-2008 04:40:06 4 C 5.72 g/m*3 4 C 0 km/h
921 24-10-2008 04:45:06 4 C 5.72 g/m*3 4 C 0 km/h
922 24-10-2008 04:50:06 3.9 C 5.75 g/m*3 3.9 C 0 km/h
923 24-10-2008 04:55:06 3.8 C 5.71 g/m*3 3.8 C 0 km/h
924 24-10-2008 05:00:06 3.8 C 5.71 g/m*3 3.8 C 0 km/h
925 24-10-2008 05:05:06 3.8 C 5.71 g/m*3 3.8 C 0 km/h
Sensor: Nr:Datum:Temp:Abs-Feuchte:Windchill:Wind:
Aussen-T/F 926 24-10-2008 05:10:06 3.7 C 5.67 g/m*3 3.7 C 0 km/h
927 24-10-2008 05:15:06 3.6 C 5.63 g/m*3 3.6 C 0 km/h
928 24-10-2008 05:20:06 3.5 C 5.6 g/m*3 3.5 C 0 km/h
929 24-10-2008 05:25:06 3.5 C 5.6 g/m*3 3.5 C 0 km/h
930 24-10-2008 05:30:06 3.5 C 5.6 g/m*3 3.5 C 0 km/h
931 24-10-2008 05:35:06 3.5 C 5.6 g/m*3 3.5 C 0 km/h
932 24-10-2008 05:40:06 3.4 C 5.56 g/m*3 3.4 C 0 km/h
933 24-10-2008 05:45:06 3.4 C 5.56 g/m*3 3.4 C 0 km/h
934 24-10-2008 05:50:06 3.4 C 5.56 g/m*3 3.4 C 0 km/h
935 24-10-2008 05:55:06 3.4 C 5.56 g/m*3 3.4 C 0 km/h
936 24-10-2008 06:00:06 3.3 C 5.52 g/m*3 3.3 C 0 km/h
937 24-10-2008 06:05:06 3.2 C 5.48 g/m*3 3.2 C 0 km/h
938 24-10-2008 06:10:07 3.3 C 5.52 g/m*3 3.3 C 0 km/h
939 24-10-2008 06:15:07 3.3 C 5.52 g/m*3 3.3 C 0 km/h
940 24-10-2008 06:20:07 3.3 C 5.52 g/m*3 3.3 C 0 km/h
941 24-10-2008 06:25:07 3.2 C 5.48 g/m*3 3.2 C 0 km/h
942 24-10-2008 06:30:07 3.2 C 5.48 g/m*3 3.2 C 0 km/h
943 24-10-2008 06:35:07 3.1 C 5.45 g/m*3 3.1 C 0 km/h
944 24-10-2008 06:40:07 3.1 C 5.39 g/m*3 3.1 C 0 km/h
945 24-10-2008 06:45:07 3.1 C 5.39 g/m*3 3.1 C 0 km/h
946 24-10-2008 06:50:07 3 C 5.35 g/m*3 3 C 0 km/h
947 24-10-2008 06:55:07 3 C 5.35 g/m*3 3 C 0 km/h
948 24-10-2008 07:00:07 3 C 5.35 g/m*3 3 C 0 km/h
949 24-10-2008 07:05:02 3 C 5.35 g/m*3 3 C 0 km/h
950 24-10-2008 07:10:02 3 C 5.35 g/m*3 3 C 0 km/h
Sensor: Nr:Datum:Temp:Abs-Feuchte:Windchill:Wind:
Aussen-T/F 951 24-10-2008 07:15:02 3 C 5.35 g/m*3 3 C 0 km/h
952 24-10-2008 07:20:03 3 C 5.35 g/m*3 3 C 0 km/h
953 24-10-2008 07:25:03 3.1 C 5.39 g/m*3 3.1 C 0 km/h
954 24-10-2008 07:30:03 3.1 C 5.39 g/m*3 3.1 C 0 km/h
955 24-10-2008 07:35:02 3.2 C 5.42 g/m*3 3.2 C 0 km/h
956 24-10-2008 07:40:02 3.1 C 5.39 g/m*3 3.1 C 0 km/h
957 24-10-2008 07:45:02 3 C 5.35 g/m*3 3 C 0 km/h
958 24-10-2008 07:50:02 2.9 C 5.37 g/m*3 2.9 C 0 km/h
959 24-10-2008 07:55:02 2.9 C 5.37 g/m*3 2.9 C 0 km/h
960 24-10-2008 08:00:02 3 C 5.35 g/m*3 3 C 0 km/h
961 24-10-2008 08:05:03 2.9 C 5.37 g/m*3 2.9 C 0 km/h
962 24-10-2008 08:10:03 2.9 C 5.37 g/m*3 2.9 C 0 km/h
963 24-10-2008 08:15:02 2.9 C 5.43 g/m*3 2.9 C 0 km/h
964 24-10-2008 08:20:02 2.8 C 5.4 g/m*3 2.8 C 0 km/h
965 24-10-2008 08:25:02 2.7 C 5.36 g/m*3 2.7 C 0 km/h
966 24-10-2008 08:30:02 2.7 C 5.36 g/m*3 2.7 C 0 km/h
967 24-10-2008 08:35:03 2.8 C 5.46 g/m*3 2.8 C 0 km/h
968 24-10-2008 08:40:03 3 C 5.47 g/m*3 3 C 0 km/h
969 24-10-2008 08:45:02 3.1 C 5.57 g/m*3 3.1 C 0 km/h
970 24-10-2008 08:50:02 3.3 C 5.64 g/m*3 3.3 C 0 km/h
971 24-10-2008 08:55:02 3.5 C 5.72 g/m*3 3.5 C 0 km/h
972 24-10-2008 09:00:02 3.5 C 5.66 g/m*3 3.5 C 0 km/h
973 24-10-2008 09:05:02 3.4 C 5.62 g/m*3 3.4 C 0 km/h
974 24-10-2008 09:10:02 3.5 C 5.66 g/m*3 3.5 C 0 km/h
975 24-10-2008 09:15:02 3.8 C 5.77 g/m*3 3.8 C 0 km/h
Sensor: Nr:Datum:Temp:Abs-Feuchte:Windchill:Wind:
Aussen-T/F 976 24-10-2008 09:20:02 4 C 5.79 g/m*3 4 C 0 km/h
977 24-10-2008 09:25:02 4.3 C 5.9 g/m*3 4.3 C 0 km/h
978 24-10-2008 09:30:02 4.4 C 5.88 g/m*3 4.4 C 0 km/h
979 24-10-2008 09:35:02 4.4 C 5.81 g/m*3 4.4 C 0 km/h
980 24-10-2008 09:40:02 4.3 C 5.71 g/m*3 4.3 C 0 km/h
981 24-10-2008 09:45:02 4.4 C 5.75 g/m*3 4.4 C 0 km/h
982 24-10-2008 09:50:02 4.5 C 5.78 g/m*3 4.5 C 0 km/h
983 24-10-2008 09:55:02 4.5 C 5.72 g/m*3 4.5 C 0 km/h
984 24-10-2008 10:00:02 4.6 C 5.76 g/m*3 4.6 C 0 km/h
985 24-10-2008 10:05:01 4.6 C 5.76 g/m*3 4.6 C 0 km/h
986 24-10-2008 10:10:01 4.7 C 5.73 g/m*3 4.7 C 0 km/h
987 24-10-2008 10:15:02 4.8 C 5.77 g/m*3 4.8 C 0 km/h
988 24-10-2008 10:20:02 4.8 C 5.77 g/m*3 4.8 C 0 km/h
989 24-10-2008 10:25:02 5.1 C 5.75 g/m*3 5.1 C 0 km/h
990 24-10-2008 10:30:02 5.4 C 5.79 g/m*3 5.4 C 0 km/h
991 24-10-2008 10:35:01 5.7 C 5.91 g/m*3 5.7 C 0 km/h
992 24-10-2008 10:40:01 6 C 5.88 g/m*3 6 C 0 km/h
993 24-10-2008 10:45:02 6 C 5.81 g/m*3 6 C 0 km/h
994 24-10-2008 10:50:02 5.7 C 5.69 g/m*3 5.7 C 0 km/h
995 24-10-2008 10:55:02 5.6 C 5.66 g/m*3 5.6 C 0 km/h
996 24-10-2008 11:00:02 5.7 C 5.69 g/m*3 5.7 C 0 km/h
997 24-10-2008 11:05:02 5.5 C 5.62 g/m*3 5.5 C 0 km/h
998 24-10-2008 11:10:02 5.6 C 5.73 g/m*3 5.6 C 0 km/h
999 24-10-2008 11:15:02 5.6 C 5.8 g/m*3 5.6 C 0 km/h
1000 24-10-2008 11:20:02 5.6 C 5.8 g/m*3 5.6 C 0 km/h
Sensor: Nr:Datum:Temp:Abs-Feuchte:Windchill:Wind:
Aussen-T/F 1001 24-10-2008 11:25:02 5.8 C 5.95 g/m*3 5.8 C 0 km/h
1002 24-10-2008 11:30:02 5.8 C 5.95 g/m*3 5.8 C 0 km/h
1003 24-10-2008 11:35:01 6.2 C 6.03 g/m*3 6.2 C 0 km/h
1004 24-10-2008 11:40:01 6.3 C 6.07 g/m*3 6.3 C 0 km/h
1005 24-10-2008 11:45:02 6.4 C 6.11 g/m*3 6.4 C 0 km/h
1006 24-10-2008 11:50:02 6.5 C 6.15 g/m*3 6.5 C 0 km/h
1007 24-10-2008 11:55:02 6.5 C 6.15 g/m*3 6.5 C 0 km/h
1008 24-10-2008 12:00:02 6.6 C 6.19 g/m*3 6.6 C 0 km/h
1009 24-10-2008 12:05:02 6.8 C 6.27 g/m*3 6.8 C 0 km/h
1010 24-10-2008 12:10:02 6.9 C 6.31 g/m*3 6.9 C 0 km/h
1011 24-10-2008 12:15:01 7.1 C 6.24 g/m*3 7.1 C 0 km/h
1012 24-10-2008 12:20:01 7.3 C 6.32 g/m*3 7.3 C 0 km/h
1013 24-10-2008 12:25:01 7.8 C 6.53 g/m*3 7.8 C 0 km/h
1014 24-10-2008 12:30:01 8.3 C 6.57 g/m*3 8.3 C 0 km/h
1015 24-10-2008 12:35:02 8.7 C 6.4 g/m*3 8.7 C 0 km/h
1016 24-10-2008 12:40:02 9 C 6.44 g/m*3 9 C 0 km/h
1017 24-10-2008 12:45:02 9.2 C 6.34 g/m*3 9.2 C 0 km/h
1018 24-10-2008 12:50:02 9.7 C 6.45 g/m*3 9.7 C 0 km/h
1019 24-10-2008 12:55:03 9.9 C 6.44 g/m*3 9.9 C 0 km/h
1020 24-10-2008 13:00:03 10.3 C 6.32 g/m*3 10.3 C 0 km/h
1021 24-10-2008 13:05:02 10.3 C 6.13 g/m*3 10.3 C 0 km/h
1022 24-10-2008 13:10:02 10.4 C 6.17 g/m*3 10.4 C 0 km/h
1023 24-10-2008 13:15:02 10.7 C 6.19 g/m*3 10.7 C 0 km/h
1024 24-10-2008 13:20:02 10.8 C 6.13 g/m*3 10.8 C 0 km/h
1025 24-10-2008 13:25:02 10.9 C 6.17 g/m*3 10.9 C 0 km/h
Sensor: Nr:Datum:Temp:Abs-Feuchte:Windchill:Wind:
Aussen-T/F 1026 24-10-2008 13:30:02 11.1 C 6.04 g/m*3 11.1 C 0 km/h
1027 24-10-2008 13:35:02 11.4 C 5.95 g/m*3 11.4 C 0 km/h
1028 24-10-2008 13:40:02 11.7 C 5.86 g/m*3 11.7 C 0 km/h
1029 24-10-2008 13:45:02 11.7 C 5.75 g/m*3 11.7 C 0 km/h
1030 24-10-2008 13:50:02 12.1 C 5.68 g/m*3 12.1 C 0 km/h
1031 24-10-2008 13:55:02 12.2 C 5.83 g/m*3 12.2 C 0 km/h
1032 24-10-2008 14:00:02 12.4 C 5.79 g/m*3 12.4 C 0 km/h
1033 24-10-2008 14:05:02 12.5 C 5.61 g/m*3 12.5 C 0 km/h
1034 24-10-2008 14:10:02 12.6 C 5.53 g/m*3 12.6 C 0 km/h
1035 24-10-2008 14:15:02 12.6 C 5.53 g/m*3 12.6 C 0 km/h
1036 24-10-2008 14:20:02 12.8 C 5.6 g/m*3 12.8 C 0 km/h
1037 24-10-2008 14:25:02 13.2 C 5.51 g/m*3 13.2 C 0 km/h
1038 24-10-2008 14:30:02 13.1 C 5.48 g/m*3 13.1 C 0 km/h
1039 24-10-2008 14:35:02 13.1 C 5.48 g/m*3 13.1 C 0 km/h
1040 24-10-2008 14:40:02 13.2 C 5.51 g/m*3 13.2 C 0 km/h
1041 24-10-2008 14:45:02 12.9 C 5.52 g/m*3 12.9 C 0 km/h
1042 24-10-2008 14:50:02 12.8 C 5.49 g/m*3 12.8 C 0 km/h
1043 24-10-2008 14:55:02 13 C 5.56 g/m*3 13 C 0 km/h
1044 24-10-2008 15:00:02 13 C 5.56 g/m*3 13 C 0 km/h
1045 24-10-2008 15:05:02 13 C 5.44 g/m*3 13 C 0 km/h
1046 24-10-2008 15:10:02 13 C 5.44 g/m*3 13 C 0 km/h
1047 24-10-2008 15:15:02 13.1 C 5.36 g/m*3 13.1 C 0 km/h
1048 24-10-2008 15:20:02 13.1 C 5.36 g/m*3 13.1 C 0 km/h
1049 24-10-2008 15:25:02 13 C 5.22 g/m*3 13 C 0 km/h
1050 24-10-2008 15:30:02 13.2 C 5.4 g/m*3 13.2 C 0 km/h
Sensor: Nr:Datum:Temp:Abs-Feuchte:Windchill:Wind:
Aussen-T/F 1051 24-10-2008 15:35:02 13.5 C 5.38 g/m*3 13.5 C 0 km/h
1052 24-10-2008 15:40:03 13.9 C 5.51 g/m*3 13.9 C 0 km/h
1053 24-10-2008 15:45:02 13.7 C 5.33 g/m*3 13.7 C 0 km/h
1054 24-10-2008 15:50:02 13.3 C 5.31 g/m*3 13.3 C 0 km/h
1055 24-10-2008 15:55:02 13 C 5.33 g/m*3 13 C 0 km/h
1056 24-10-2008 16:00:02 13.1 C 5.48 g/m*3 13.1 C 0 km/h
1057 24-10-2008 16:05:02 13 C 5.44 g/m*3 13 C 0 km/h
1058 24-10-2008 16:10:02 13 C 5.44 g/m*3 13 C 0 km/h
1059 24-10-2008 16:15:02 13.1 C 5.59 g/m*3 13.1 C 0 km/h
1060 24-10-2008 16:20:03 13.1 C 5.59 g/m*3 13.1 C 0 km/h
1061 24-10-2008 16:25:03 13.1 C 5.48 g/m*3 13.1 C 0 km/h
1062 24-10-2008 16:30:03 13.2 C 5.51 g/m*3 13.2 C 0 km/h
1063 24-10-2008 16:35:02 13.3 C 5.55 g/m*3 13.3 C 0 km/h
1064 24-10-2008 16:40:02 13.1 C 5.36 g/m*3 13.1 C 0 km/h
1065 24-10-2008 16:45:02 12.9 C 5.41 g/m*3 12.9 C 0 km/h
1066 24-10-2008 16:50:03 12.8 C 5.71 g/m*3 12.8 C 0 km/h
1067 24-10-2008 16:55:03 12.7 C 5.68 g/m*3 12.7 C 0 km/h
1068 24-10-2008 17:00:03 12.7 C 5.9 g/m*3 12.7 C 0 km/h
1069 24-10-2008 17:05:01 12.5 C 5.83 g/m*3 12.5 C 0 km/h
1070 24-10-2008 17:10:01 12.4 C 6.01 g/m*3 12.4 C 0 km/h
1071 24-10-2008 17:15:02 12.3 C 5.97 g/m*3 12.3 C 0 km/h
1072 24-10-2008 17:20:02 12.1 C 5.9 g/m*3 12.1 C 0 km/h
1073 24-10-2008 17:25:02 11.8 C 6.1 g/m*3 11.8 C 0 km/h
1074 24-10-2008 17:30:02 11.6 C 6.03 g/m*3 11.6 C 0 km/h
1075 24-10-2008 17:35:02 11.5 C 5.99 g/m*3 11.5 C 0 km/h
Sensor: Nr:Datum:Temp:Abs-Feuchte:Windchill:Wind:
Aussen-T/F 1076 24-10-2008 17:40:02 11.3 C 6.02 g/m*3 11.3 C 0 km/h
1077 24-10-2008 17:45:02 11.2 C 5.98 g/m*3 11.2 C 0 km/h
1078 24-10-2008 17:50:02 11.1 C 5.94 g/m*3 11.1 C 0 km/h
1079 24-10-2008 17:55:03 11 C 6.01 g/m*3 11 C 0 km/h
1080 24-10-2008 18:00:03 10.8 C 6.03 g/m*3 10.8 C 0 km/h
1081 24-10-2008 18:05:02 10.8 C 6.13 g/m*3 10.8 C 0 km/h
1082 24-10-2008 18:10:02 10.7 C 6.09 g/m*3 10.7 C 0 km/h
1083 24-10-2008 18:15:02 10.7 C 5.99 g/m*3 10.7 C 0 km/h
1084 24-10-2008 18:20:02 10.6 C 6.05 g/m*3 10.6 C 0 km/h
1085 24-10-2008 18:25:02 10.6 C 6.15 g/m*3 10.6 C 0 km/h
1086 24-10-2008 18:30:02 10.5 C 6.11 g/m*3 10.5 C 0 km/h
1087 24-10-2008 18:35:02 10.5 C 6.11 g/m*3 10.5 C 0 km/h
1088 24-10-2008 18:40:02 10.5 C 6.11 g/m*3 10.5 C 0 km/h
1089 24-10-2008 18:45:02 10.5 C 6.21 g/m*3 10.5 C 0 km/h
1090 24-10-2008 18:50:02 10.5 C 6.21 g/m*3 10.5 C 0 km/h
1091 24-10-2008 18:55:02 10.5 C 6.21 g/m*3 10.5 C 0 km/h
1092 24-10-2008 19:00:02 10.4 C 6.26 g/m*3 10.4 C 0 km/h
1093 24-10-2008 19:05:02 10.4 C 6.26 g/m*3 10.4 C 0 km/h
1094 24-10-2008 19:10:02 10.4 C 6.26 g/m*3 10.4 C 0 km/h
1095 24-10-2008 19:15:02 10.4 C 6.26 g/m*3 10.4 C 0 km/h
1096 24-10-2008 19:20:02 10.4 C 6.36 g/m*3 10.4 C 0 km/h
1097 24-10-2008 19:25:02 10.4 C 6.36 g/m*3 10.4 C 0 km/h
1098 24-10-2008 19:30:02 10.3 C 6.42 g/m*3 10.3 C 0 km/h
1099 24-10-2008 19:35:02 10.2 C 6.47 g/m*3 10.2 C 0 km/h
1100 24-10-2008 19:40:02 10.1 C 6.52 g/m*3 10.1 C 0 km/h
Sensor: Nr:Datum:Temp:Abs-Feuchte:Windchill:Wind:
Aussen-T/F 1101 24-10-2008 19:45:02 10 C 6.58 g/m*3 10 C 0 km/h
1102 24-10-2008 19:50:02 10 C 6.77 g/m*3 10 C 0 km/h
1103 24-10-2008 19:55:02 9.9 C 6.91 g/m*3 9.9 C 0 km/h
1104 24-10-2008 20:00:02 9.8 C 6.87 g/m*3 9.8 C 0 km/h
1105 24-10-2008 20:05:02 9.8 C 6.96 g/m*3 9.8 C 0 km/h
1106 24-10-2008 20:10:02 9.9 C 7.1 g/m*3 9.9 C 0 km/h
1107 24-10-2008 20:15:01 9.9 C 7.1 g/m*3 9.9 C 0 km/h
1108 24-10-2008 20:20:01 9.9 C 7.1 g/m*3 9.9 C 0 km/h
1109 24-10-2008 20:25:01 10 C 7.14 g/m*3 10 C 0 km/h
1110 24-10-2008 20:30:01 10 C 7.14 g/m*3 10 C 0 km/h
1111 24-10-2008 20:35:02 10 C 7.05 g/m*3 10 C 0 km/h
1112 24-10-2008 20:40:02 10 C 6.95 g/m*3 10 C 0 km/h
1113 24-10-2008 20:45:02 10 C 7.05 g/m*3 10 C 0 km/h
1114 24-10-2008 20:50:02 10 C 7.05 g/m*3 10 C 0 km/h
1115 24-10-2008 20:55:03 10 C 6.95 g/m*3 10 C 0 km/h
1116 24-10-2008 21:00:03 10 C 6.95 g/m*3 10 C 0 km/h
1117 24-10-2008 21:05:02 10 C 6.86 g/m*3 10 C 0 km/h
1118 24-10-2008 21:10:02 10 C 6.86 g/m*3 10 C 0 km/h
1119 24-10-2008 21:15:02 9.9 C 6.91 g/m*3 9.9 C 0 km/h
1120 24-10-2008 21:20:02 9.9 C 6.91 g/m*3 9.9 C 0 km/h
1121 24-10-2008 21:25:02 9.9 C 6.91 g/m*3 9.9 C 0 km/h
1122 24-10-2008 21:30:02 9.8 C 6.87 g/m*3 9.8 C 0 km/h
1123 24-10-2008 21:35:02 9.7 C 6.82 g/m*3 9.7 C 0 km/h
1124 24-10-2008 21:40:02 9.7 C 6.82 g/m*3 9.7 C 0 km/h
1125 24-10-2008 21:45:02 9.6 C 6.78 g/m*3 9.6 C 0 km/h
Sensor: Nr:Datum:Temp:Abs-Feuchte:Windchill:Wind:
Aussen-T/F 1126 24-10-2008 21:50:02 9.5 C 6.74 g/m*3 9.5 C 0 km/h
1127 24-10-2008 21:55:02 9.5 C 6.74 g/m*3 9.5 C 0 km/h
1128 24-10-2008 22:00:02 9.5 C 6.74 g/m*3 9.5 C 0 km/h
1129 24-10-2008 22:05:03 9.5 C 6.74 g/m*3 9.5 C 0 km/h
1130 24-10-2008 22:10:03 9.5 C 6.74 g/m*3 9.5 C 0 km/h
1131 24-10-2008 22:15:02 9.5 C 6.74 g/m*3 9.5 C 0 km/h
1132 24-10-2008 22:20:02 9.5 C 6.74 g/m*3 9.5 C 0 km/h
1133 24-10-2008 22:25:02 9.5 C 6.74 g/m*3 9.5 C 0 km/h
1134 24-10-2008 22:30:02 9.5 C 6.74 g/m*3 9.5 C 0 km/h
1135 24-10-2008 22:35:03 9.3 C 6.65 g/m*3 9.3 C 0 km/h
1136 24-10-2008 22:40:03 9.3 C 6.65 g/m*3 9.3 C 0 km/h
1137 24-10-2008 22:46:03 9.3 C 6.65 g/m*3 9.3 C 0 km/h
1138 24-10-2008 22:51:03 9.2 C 6.7 g/m*3 9.2 C 0 km/h
1139 24-10-2008 22:56:03 9.1 C 6.65 g/m*3 9.1 C 0 km/h
1140 24-10-2008 23:01:03 9 C 6.61 g/m*3 9 C 0 km/h
1141 24-10-2008 23:06:03 8.8 C 6.61 g/m*3 8.8 C 0 km/h
1142 24-10-2008 23:11:03 8.7 C 6.66 g/m*3 8.7 C 0 km/h
1143 24-10-2008 23:16:03 8.6 C 6.7 g/m*3 8.6 C 0 km/h
1144 24-10-2008 23:21:03 8.6 C 6.7 g/m*3 8.6 C 0 km/h
1145 24-10-2008 23:26:04 8.6 C 6.7 g/m*3 8.6 C 0 km/h
1146 24-10-2008 23:31:04 8.6 C 6.79 g/m*3 8.6 C 0 km/h
1147 24-10-2008 23:36:04 8.7 C 6.83 g/m*3 8.7 C 0 km/h
1148 24-10-2008 23:41:04 8.8 C 6.88 g/m*3 8.8 C 0 km/h
1149 24-10-2008 23:46:04 8.9 C 6.92 g/m*3 8.9 C 0 km/h
1150 24-10-2008 23:51:04 8.9 C 6.92 g/m*3 8.9 C 0 km/h
Sensor: Nr:Datum:Temp:Abs-Feuchte:Windchill:Wind:
Aussen-T/F 1151 24-10-2008 23:56:04 8.9 C 6.92 g/m*3 8.9 C 0 km/h
1152 25-10-2008 00:01:04 9 C 6.88 g/m*3 9 C 0 km/h
1153 25-10-2008 00:06:04 9 C 6.88 g/m*3 9 C 0 km/h
1154 25-10-2008 00:11:04 9 C 6.88 g/m*3 9 C 0 km/h
1155 25-10-2008 00:16:04 9.1 C 6.92 g/m*3 9.1 C 0 km/h
1156 25-10-2008 00:21:04 9.1 C 6.92 g/m*3 9.1 C 0 km/h
1157 25-10-2008 00:26:04 9.2 C 6.97 g/m*3 9.2 C 0 km/h
1158 25-10-2008 00:31:04 9.2 C 6.97 g/m*3 9.2 C 0 km/h
1159 25-10-2008 00:36:04 9.2 C 6.97 g/m*3 9.2 C 0 km/h
1160 25-10-2008 00:41:04 9.2 C 6.97 g/m*3 9.2 C 0 km/h
1161 25-10-2008 00:46:04 9.3 C 7.01 g/m*3 9.3 C 0 km/h
1162 25-10-2008 00:51:04 9.5 C 7.01 g/m*3 9.5 C 0 km/h
1163 25-10-2008 00:56:04 9.7 C 7.1 g/m*3 9.7 C 0 km/h
1164 25-10-2008 01:01:04 9.7 C 7.01 g/m*3 9.7 C 0 km/h
1165 25-10-2008 01:06:05 9.7 C 6.91 g/m*3 9.7 C 0 km/h
1166 25-10-2008 01:11:05 9.7 C 6.91 g/m*3 9.7 C 0 km/h
1167 25-10-2008 01:16:05 9.7 C 6.91 g/m*3 9.7 C 0 km/h
1168 25-10-2008 01:21:05 9.8 C 6.96 g/m*3 9.8 C 0 km/h
1169 25-10-2008 01:26:05 9.8 C 6.87 g/m*3 9.8 C 0 km/h
1170 25-10-2008 01:31:05 9.9 C 6.91 g/m*3 9.9 C 0 km/h
1171 25-10-2008 01:36:05 9.9 C 6.91 g/m*3 9.9 C 0 km/h
1172 25-10-2008 01:41:05 10 C 6.86 g/m*3 10 C 0 km/h
1173 25-10-2008 01:46:05 10 C 6.86 g/m*3 10 C 0 km/h
1174 25-10-2008 01:51:05 10 C 6.86 g/m*3 10 C 0 km/h
1175 25-10-2008 01:56:05 10.1 C 6.9 g/m*3 10.1 C 0 km/h
Sensor: Nr:Datum:Temp:Abs-Feuchte:Windchill:Wind:
Aussen-T/F 1176 25-10-2008 02:01:05 10.1 C 6.9 g/m*3 10.1 C 0 km/h
1177 25-10-2008 02:06:05 10 C 6.86 g/m*3 10 C 0 km/h
1178 25-10-2008 02:11:05 10 C 6.86 g/m*3 10 C 0 km/h
1179 25-10-2008 02:16:05 10 C 6.95 g/m*3 10 C 0 km/h
1180 25-10-2008 02:21:05 9.9 C 7 g/m*3 9.9 C 0 km/h
1181 25-10-2008 02:26:05 9.9 C 7 g/m*3 9.9 C 0 km/h
1182 25-10-2008 02:31:05 9.9 C 7 g/m*3 9.9 C 0 km/h
1183 25-10-2008 02:36:05 10 C 6.95 g/m*3 10 C 0 km/h
1184 25-10-2008 02:41:05 10 C 6.95 g/m*3 10 C 0 km/h
1185 25-10-2008 02:46:05 10 C 6.95 g/m*3 10 C 0 km/h
1186 25-10-2008 02:51:06 10 C 6.95 g/m*3 10 C 0 km/h
1187 25-10-2008 02:56:06 10 C 6.95 g/m*3 10 C 0 km/h
1188 25-10-2008 03:01:06 10 C 6.95 g/m*3 10 C 0 km/h
1189 25-10-2008 03:06:06 10 C 6.95 g/m*3 10 C 0 km/h
1190 25-10-2008 03:11:06 10 C 6.95 g/m*3 10 C 0 km/h
1191 25-10-2008 03:16:06 9.9 C 7.1 g/m*3 9.9 C 0 km/h
1192 25-10-2008 03:21:06 9.9 C 7.19 g/m*3 9.9 C 0 km/h
1193 25-10-2008 03:26:06 9.9 C 7.19 g/m*3 9.9 C 0 km/h
1194 25-10-2008 03:31:06 9.9 C 7.19 g/m*3 9.9 C 0 km/h
1195 25-10-2008 03:36:06 9.9 C 7.19 g/m*3 9.9 C 0 km/h
1196 25-10-2008 03:41:06 9.9 C 7.19 g/m*3 9.9 C 0 km/h
1197 25-10-2008 03:46:06 9.9 C 7.19 g/m*3 9.9 C 0 km/h
1198 25-10-2008 03:51:06 9.9 C 7.19 g/m*3 9.9 C 0 km/h
1199 25-10-2008 03:56:06 9.9 C 7.19 g/m*3 9.9 C 0 km/h
1200 25-10-2008 04:01:06 9.9 C 7.19 g/m*3 9.9 C 0 km/h
Sensor: Nr:Datum:Temp:Abs-Feuchte:Windchill:Wind:
Aussen-T/F 1201 25-10-2008 04:06:06 9.9 C 7.19 g/m*3 9.9 C 0 km/h
1202 25-10-2008 04:11:06 9.9 C 7.28 g/m*3 9.9 C 0 km/h
1203 25-10-2008 04:16:06 9.9 C 7.28 g/m*3 9.9 C 0 km/h
1204 25-10-2008 04:21:06 9.9 C 7.28 g/m*3 9.9 C 0 km/h
1205 25-10-2008 04:26:06 9.9 C 7.28 g/m*3 9.9 C 0 km/h
1206 25-10-2008 04:31:07 10 C 7.14 g/m*3 10 C 0 km/h
1207 25-10-2008 04:36:07 9.9 C 7.28 g/m*3 9.9 C 0 km/h
1208 25-10-2008 04:41:07 10 C 7.14 g/m*3 10 C 0 km/h
1209 25-10-2008 04:46:07 10 C 7.14 g/m*3 10 C 0 km/h
1210 25-10-2008 04:51:07 10 C 7.14 g/m*3 10 C 0 km/h
1211 25-10-2008 04:56:07 10 C 7.14 g/m*3 10 C 0 km/h
1212 25-10-2008 05:01:07 10 C 7.14 g/m*3 10 C 0 km/h
1213 25-10-2008 05:06:07 9.9 C 7.28 g/m*3 9.9 C 0 km/h
1214 25-10-2008 05:11:07 9.9 C 7.28 g/m*3 9.9 C 0 km/h
1215 25-10-2008 05:16:07 9.9 C 7.28 g/m*3 9.9 C 0 km/h
1216 25-10-2008 05:21:07 10 C 7.24 g/m*3 10 C 0 km/h
1217 25-10-2008 05:26:07 9.9 C 7.28 g/m*3 9.9 C 0 km/h
1218 25-10-2008 05:31:07 9.9 C 7.28 g/m*3 9.9 C 0 km/h
1219 25-10-2008 05:36:07 9.9 C 7.28 g/m*3 9.9 C 0 km/h
1220 25-10-2008 05:41:07 9.9 C 7.28 g/m*3 9.9 C 0 km/h
1221 25-10-2008 05:46:07 9.9 C 7.28 g/m*3 9.9 C 0 km/h
1222 25-10-2008 05:51:07 9.9 C 7.28 g/m*3 9.9 C 0 km/h
1223 25-10-2008 05:56:07 9.9 C 7.28 g/m*3 9.9 C 0 km/h
1224 25-10-2008 06:01:07 9.9 C 7.28 g/m*3 9.9 C 0 km/h
1225 25-10-2008 06:06:07 9.9 C 7.38 g/m*3 9.9 C 0 km/h
Sensor: Nr:Datum:Temp:Abs-Feuchte:Windchill:Wind:
Aussen-T/F 1226 25-10-2008 06:11:07 9.9 C 7.38 g/m*3 9.9 C 0 km/h
1227 25-10-2008 06:16:08 9.8 C 7.42 g/m*3 9.8 C 0 km/h
1228 25-10-2008 06:21:08 9.7 C 7.38 g/m*3 9.7 C 0 km/h
1229 25-10-2008 06:26:08 9.7 C 7.56 g/m*3 9.7 C 0 km/h
1230 25-10-2008 06:31:08 9.7 C 7.56 g/m*3 9.7 C 0 km/h
1231 25-10-2008 06:36:08 9.7 C 7.65 g/m*3 9.7 C 0 km/h
1232 25-10-2008 06:41:08 9.7 C 7.65 g/m*3 9.7 C 0 km/h
1233 25-10-2008 06:46:08 9.6 C 7.6 g/m*3 9.6 C 0 km/h
1234 25-10-2008 06:51:08 9.6 C 7.69 g/m*3 9.6 C 0 km/h
1235 25-10-2008 06:56:08 9.5 C 7.74 g/m*3 9.5 C 0 km/h
1236 25-10-2008 07:01:08 9.5 C 7.74 g/m*3 9.5 C 0 km/h
1237 25-10-2008 07:06:08 9.5 C 7.74 g/m*3 9.5 C 0 km/h
1238 25-10-2008 07:11:08 9.6 C 7.79 g/m*3 9.6 C 0 km/h
1239 25-10-2008 07:16:08 9.6 C 7.79 g/m*3 9.6 C 0 km/h
1240 25-10-2008 07:21:08 9.6 C 7.79 g/m*3 9.6 C 0 km/h
1241 25-10-2008 07:26:08 9.6 C 7.79 g/m*3 9.6 C 0 km/h
1242 25-10-2008 07:31:08 9.6 C 7.79 g/m*3 9.6 C 0 km/h
1243 25-10-2008 07:36:08 9.6 C 7.79 g/m*3 9.6 C 0 km/h
1244 25-10-2008 07:41:08 9.6 C 7.79 g/m*3 9.6 C 0 km/h
1245 25-10-2008 07:46:08 9.6 C 7.79 g/m*3 9.6 C 0 km/h
1246 25-10-2008 07:51:08 9.6 C 7.79 g/m*3 9.6 C 0 km/h
1247 25-10-2008 07:56:08 9.6 C 7.79 g/m*3 9.6 C 0 km/h
1248 25-10-2008 08:01:09 9.6 C 7.69 g/m*3 9.6 C 0 km/h
1249 25-10-2008 08:06:09 9.7 C 7.74 g/m*3 9.7 C 0 km/h
1250 25-10-2008 08:11:09 9.7 C 7.74 g/m*3 9.7 C 0 km/h
Sensor: Nr:Datum:Temp:Abs-Feuchte:Windchill:Wind:
Aussen-T/F 1251 25-10-2008 08:16:09 9.7 C 7.74 g/m*3 9.7 C 0 km/h
1252 25-10-2008 08:21:09 9.7 C 7.74 g/m*3 9.7 C 0 km/h
1253 25-10-2008 08:26:09 9.8 C 7.79 g/m*3 9.8 C 0 km/h
1254 25-10-2008 08:31:09 9.8 C 7.79 g/m*3 9.8 C 0 km/h
1255 25-10-2008 08:36:09 9.8 C 7.79 g/m*3 9.8 C 0 km/h
1256 25-10-2008 08:41:09 9.9 C 7.84 g/m*3 9.9 C 0 km/h
1257 25-10-2008 08:46:09 9.9 C 7.84 g/m*3 9.9 C 0 km/h
1258 25-10-2008 08:51:09 9.9 C 7.84 g/m*3 9.9 C 0 km/h
1259 25-10-2008 08:56:09 10 C 7.71 g/m*3 10 C 0 km/h
1260 25-10-2008 09:01:03 10 C 7.71 g/m*3 10 C 0 km/h
1261 25-10-2008 09:06:03 10.1 C 7.75 g/m*3 10.1 C 0 km/h
1262 25-10-2008 09:11:03 10.1 C 7.75 g/m*3 10.1 C 0 km/h
1263 25-10-2008 09:22:03 10.3 C 7.76 g/m*3 10.3 C 0 km/h
1264 25-10-2008 09:47:02 10.7 C 7.86 g/m*3 10.7 C 0 km/h
1265 25-10-2008 10:12:02 11.1 C 7.76 g/m*3 11.1 C 0 km/h
1266 25-10-2008 10:37:02 11.6 C 7.8 g/m*3 11.6 C 0 km/h
1267 25-10-2008 11:02:02 12 C 7.67 g/m*3 12 C 0 km/h
1268 25-10-2008 11:27:02 12.3 C 7.82 g/m*3 12.3 C 0 km/h
1269 25-10-2008 11:52:01 12.4 C 7.76 g/m*3 12.4 C 0 km/h
1270 25-10-2008 12:17:01 12.7 C 8.01 g/m*3 12.7 C 0 km/h
1271 25-10-2008 12:42:02 14 C 7.84 g/m*3 14 C 0 km/h
1272 25-10-2008 13:07:02 14.8 C 7.73 g/m*3 14.8 C 0 km/h
1273 25-10-2008 13:32:02 14.5 C 7.59 g/m*3 14.5 C 0 km/h
1274 25-10-2008 13:57:02 14.7 C 7.43 g/m*3 14.7 C 0 km/h
1275 25-10-2008 14:22:02 14.9 C 7.65 g/m*3 14.9 C 0 km/h
Sensor: Nr:Datum:Temp:Abs-Feuchte:Windchill:Wind:
Aussen-T/F 1276 25-10-2008 14:47:01 15.4 C 7.36 g/m*3 15.4 C 0 km/h
1277 25-10-2008 15:12:02 15.3 C 7.31 g/m*3 15.3 C 0 km/h
1278 25-10-2008 15:37:02 15.2 C 7.53 g/m*3 15.2 C 0 km/h
1279 25-10-2008 16:02:02 16.8 C 7.72 g/m*3 16.8 C 0 km/h
1280 25-10-2008 16:27:02 17.3 C 7.22 g/m*3 17.3 C 0 km/h
1281 25-10-2008 16:52:02 17 C 7.23 g/m*3 17 C 0 km/h
1282 25-10-2008 17:17:02 16.8 C 7.43 g/m*3 16.8 C 0 km/h
1283 25-10-2008 17:42:02 15.5 C 7.4 g/m*3 15.5 C 0 km/h
1284 25-10-2008 18:07:02 13.7 C 7.46 g/m*3 13.7 C 0 km/h
1285 25-10-2008 18:32:02 12.5 C 7.7 g/m*3 12.5 C 0 km/h
1286 25-10-2008 18:57:02 12.3 C 7.93 g/m*3 12.3 C 0 km/h
1287 25-10-2008 19:22:02 12.5 C 7.92 g/m*3 12.5 C 0 km/h
1288 25-10-2008 19:47:01 11.9 C 7.84 g/m*3 11.9 C 0 km/h
1289 25-10-2008 20:12:02 11.6 C 7.69 g/m*3 11.6 C 0 km/h
1290 25-10-2008 20:37:02 11.1 C 7.45 g/m*3 11.1 C 0 km/h
1291 25-10-2008 21:02:02 10.4 C 7.42 g/m*3 10.4 C 0 km/h
1292 25-10-2008 21:27:02 9.9 C 7.47 g/m*3 9.9 C 0 km/h
1293 25-10-2008 21:52:02 9.5 C 7.37 g/m*3 9.5 C 0 km/h
1294 25-10-2008 22:31:02 9.2 C 7.32 g/m*3 9.2 C 0 km/h
1295 25-10-2008 22:56:02 8.7 C 7.26 g/m*3 8.7 C 0 km/h
1296 25-10-2008 23:21:02 8.3 C 7.08 g/m*3 8.3 C 0 km/h
1297 25-10-2008 23:46:02 8 C 7.03 g/m*3 8 C 0 km/h
1298 26-10-2008 00:11:02 7.6 C 7.01 g/m*3 7.6 C 0 km/h
1299 26-10-2008 00:36:02 7.4 C 6.92 g/m*3 7.4 C 0 km/h
1300 26-10-2008 01:01:02 7.1 C 6.79 g/m*3 7.1 C 0 km/h
Sensor: Nr:Datum:Temp:Abs-Feuchte:Windchill:Wind:
Aussen-T/F 1301 26-10-2008 01:26:02 7 C 6.82 g/m*3 7 C 0 km/h
1302 26-10-2008 01:51:02 6.8 C 6.81 g/m*3 6.8 C 0 km/h
1303 26-10-2008 02:16:02 6.6 C 6.72 g/m*3 6.6 C 0 km/h
1304 26-10-2008 02:41:03 6.4 C 6.63 g/m*3 6.4 C 0 km/h
1305 26-10-2008 03:06:03 6.2 C 6.62 g/m*3 6.2 C 0 km/h
1306 26-10-2008 03:31:03 6 C 6.53 g/m*3 6 C 0 km/h
1307 26-10-2008 03:56:03 5.8 C 6.52 g/m*3 5.8 C 0 km/h
1308 26-10-2008 04:11:03 5.8 C 6.59 g/m*3 5.8 C 0 km/h
1309 26-10-2008 04:21:03 5.7 C 6.48 g/m*3 5.7 C 0 km/h
1310 26-10-2008 04:36:03 5.7 C 6.55 g/m*3 5.7 C 0 km/h
1311 26-10-2008 04:46:03 5.9 C 6.63 g/m*3 5.9 C 0 km/h
1312 26-10-2008 05:01:03 5.8 C 6.66 g/m*3 5.8 C 0 km/h
1313 26-10-2008 05:26:03 5.6 C 6.5 g/m*3 5.6 C 0 km/h
1314 26-10-2008 05:51:03 5.4 C 6.42 g/m*3 5.4 C 0 km/h
1315 26-10-2008 06:16:03 5.7 C 6.62 g/m*3 5.7 C 0 km/h
1316 26-10-2008 06:41:03 6.4 C 6.93 g/m*3 6.4 C 0 km/h
1317 26-10-2008 07:06:03 6.8 C 6.96 g/m*3 6.8 C 0 km/h
1318 26-10-2008 07:31:03 6.8 C 6.81 g/m*3 6.8 C 0 km/h
1319 26-10-2008 07:56:03 6.7 C 6.76 g/m*3 6.7 C 0 km/h
1320 26-10-2008 08:21:03 6.5 C 6.67 g/m*3 6.5 C 0 km/h
1321 26-10-2008 08:46:03 6.6 C 6.72 g/m*3 6.6 C 0 km/h
1322 26-10-2008 09:11:03 7.7 C 7.22 g/m*3 7.7 C 0 km/h
1323 26-10-2008 09:36:03 8.5 C 7.43 g/m*3 8.5 C 0 km/h
1324 26-10-2008 10:01:03 9.4 C 7.69 g/m*3 9.4 C 0 km/h
1325 26-10-2008 10:26:04 10.9 C 7.16 g/m*3 10.9 C 0 km/h
Sensor: Nr:Datum:Temp:Abs-Feuchte:Windchill:Wind:
Aussen-T/F 1326 26-10-2008 10:51:04 11.8 C 7.05 g/m*3 11.8 C 0 km/h
1327 26-10-2008 11:16:04 12.3 C 6.62 g/m*3 12.3 C 0 km/h
1328 26-10-2008 11:41:04 12.7 C 6.57 g/m*3 12.7 C 0 km/h
1329 26-10-2008 12:06:04 13.5 C 6.2 g/m*3 13.5 C 0 km/h
1330 26-10-2008 12:31:04 13.9 C 6.11 g/m*3 13.9 C 0 km/h
1331 26-10-2008 12:56:04 15.6 C 5.59 g/m*3 15.6 C 0 km/h
1332 26-10-2008 13:21:04 16.8 C 5.15 g/m*3 16.8 C 0 km/h
1333 26-10-2008 13:46:04 16 C 5.04 g/m*3 16 C 0 km/h
1334 26-10-2008 14:11:04 15.6 C 4.92 g/m*3 15.6 C 0 km/h
1335 26-10-2008 14:36:04 15.2 C 4.8 g/m*3 15.2 C 0 km/h
1336 26-10-2008 15:01:04 15.1 C 4.9 g/m*3 15.1 C 0 km/h
1337 26-10-2008 15:26:04 15.2 C 4.8 g/m*3 15.2 C 0 km/h
1338 26-10-2008 15:51:04 15.2 C 4.93 g/m*3 15.2 C 0 km/h
1339 26-10-2008 16:16:04 15.1 C 5.03 g/m*3 15.1 C 0 km/h
1340 26-10-2008 16:41:04 14.7 C 5.16 g/m*3 14.7 C 0 km/h
1341 26-10-2008 17:06:04 14.3 C 5.28 g/m*3 14.3 C 0 km/h
1342 26-10-2008 17:31:04 14.5 C 5.1 g/m*3 14.5 C 0 km/h
1343 26-10-2008 17:56:04 14.5 C 5.1 g/m*3 14.5 C 0 km/h
1344 26-10-2008 18:21:04 14.5 C 4.97 g/m*3 14.5 C 0 km/h
1345 26-10-2008 18:46:05 14.3 C 5.04 g/m*3 14.3 C 0 km/h
1346 26-10-2008 19:11:05 14.1 C 5.1 g/m*3 14.1 C 0 km/h
1347 26-10-2008 19:36:05 14.1 C 5.1 g/m*3 14.1 C 0 km/h
1348 26-10-2008 20:01:05 14 C 5.31 g/m*3 14 C 0 km/h
1349 26-10-2008 20:26:05 13.7 C 5.57 g/m*3 13.7 C 0 km/h
1350 26-10-2008 20:51:05 13.7 C 5.92 g/m*3 13.7 C 0 km/h
Sensor: Nr:Datum:Temp:Abs-Feuchte:Windchill:Wind:
Aussen-T/F 1351 26-10-2008 21:16:05 13.6 C 6 g/m*3 13.6 C 0 km/h
1352 26-10-2008 21:41:05 13.6 C 6.36 g/m*3 13.6 C 0 km/h
1353 26-10-2008 22:06:05 13.5 C 6.43 g/m*3 13.5 C 0 km/h
1354 26-10-2008 22:31:05 13.5 C 6.55 g/m*3 13.5 C 0 km/h
1355 26-10-2008 22:56:05 13.4 C 6.63 g/m*3 13.4 C 0 km/h
1356 26-10-2008 23:21:05 13.5 C 6.78 g/m*3 13.5 C 0 km/h
1357 26-10-2008 23:46:05 13.2 C 6.89 g/m*3 13.2 C 0 km/h
1358 27-10-2008 00:11:05 13.2 C 6.89 g/m*3 13.2 C 0 km/h
1359 27-10-2008 00:36:05 13.2 C 7 g/m*3 13.2 C 0 km/h
1360 27-10-2008 01:01:05 12 C 7.89 g/m*3 12 C 0 km/h
1361 27-10-2008 01:26:05 11.4 C 8.31 g/m*3 11.4 C 0 km/h
1362 27-10-2008 01:51:05 11 C 8.41 g/m*3 11 C 0 km/h
1363 27-10-2008 02:16:05 11 C 8.51 g/m*3 11 C 0 km/h
1364 27-10-2008 02:41:05 11.2 C 8.41 g/m*3 11.2 C 0 km/h
1365 27-10-2008 03:06:05 11.1 C 8.36 g/m*3 11.1 C 0 km/h
1366 27-10-2008 03:31:06 10.9 C 8.55 g/m*3 10.9 C 0 km/h
1367 27-10-2008 03:56:06 10.9 C 8.65 g/m*3 10.9 C 0 km/h
1368 27-10-2008 04:21:06 10.7 C 8.74 g/m*3 10.7 C 0 km/h
1369 27-10-2008 04:46:06 10.6 C 8.78 g/m*3 10.6 C 0 km/h
1370 27-10-2008 05:11:06 10.5 C 8.83 g/m*3 10.5 C 0 km/h
1371 27-10-2008 05:36:06 10.5 C 8.92 g/m*3 10.5 C 0 km/h
1372 27-10-2008 06:01:06 10.4 C 8.87 g/m*3 10.4 C 0 km/h
1373 27-10-2008 06:26:06 10.3 C 8.81 g/m*3 10.3 C 0 km/h
1374 27-10-2008 06:51:06 10.2 C 8.76 g/m*3 10.2 C 0 km/h
1375 27-10-2008 07:16:06 10.2 C 8.85 g/m*3 10.2 C 0 km/h
Sensor: Nr:Datum:Temp:Abs-Feuchte:Windchill:Wind:
Aussen-T/F 1376 27-10-2008 07:41:06 10.1 C 8.79 g/m*3 10.1 C 0 km/h
1377 27-10-2008 08:06:06 10.1 C 8.79 g/m*3 10.1 C 0 km/h
1378 27-10-2008 08:31:06 10.2 C 8.95 g/m*3 10.2 C 0 km/h
1379 27-10-2008 08:56:06 10.3 C 9 g/m*3 10.3 C 0 km/h
1380 27-10-2008 09:21:06 10.4 C 9.06 g/m*3 10.4 C 0 km/h
1381 27-10-2008 09:46:06 10.4 C 9.06 g/m*3 10.4 C 0 km/h
1382 27-10-2008 10:11:06 10.4 C 9.06 g/m*3 10.4 C 0 km/h
1383 27-10-2008 10:36:06 10.6 C 9.17 g/m*3 10.6 C 0 km/h
1384 27-10-2008 11:01:06 9.5 C 8.56 g/m*3 9.5 C 0 km/h
1385 27-10-2008 11:26:06 9.5 C 8.56 g/m*3 9.5 C 0 km/h
1386 27-10-2008 11:51:07 10.1 C 8.79 g/m*3 10.1 C 0 km/h
1387 27-10-2008 12:16:07 10.2 C 8.85 g/m*3 10.2 C 0 km/h
1388 27-10-2008 12:41:07 10.5 C 9.02 g/m*3 10.5 C 0 km/h
1389 27-10-2008 13:06:07 10.4 C 8.67 g/m*3 10.4 C 0 km/h
1390 27-10-2008 13:31:07 10.4 C 8.58 g/m*3 10.4 C 0 km/h
1391 27-10-2008 13:56:07 10.7 C 8.15 g/m*3 10.7 C 0 km/h
1392 27-10-2008 14:21:07 11.9 C 8.37 g/m*3 11.9 C 0 km/h
1393 27-10-2008 14:46:07 12 C 7.99 g/m*3 12 C 0 km/h
1394 27-10-2008 15:11:07 14 C 8.81 g/m*3 14 C 0 km/h
1395 27-10-2008 15:36:07 13.5 C 7.49 g/m*3 13.5 C 0 km/h
1396 27-10-2008 16:01:07 13.4 C 7.32 g/m*3 13.4 C 0 km/h
1397 27-10-2008 16:26:07 11.5 C 7.13 g/m*3 11.5 C 0 km/h
1398 27-10-2008 16:51:07 11.2 C 7.3 g/m*3 11.2 C 0 km/h
1399 27-10-2008 17:16:07 10.7 C 7.46 g/m*3 10.7 C 0 km/h
1400 27-10-2008 17:41:07 10.2 C 6.66 g/m*3 10.2 C 0 km/h
Sensor: Nr:Datum:Temp:Abs-Feuchte:Windchill:Wind:
Aussen-T/F 1401 27-10-2008 18:06:07 9.8 C 6.77 g/m*3 9.8 C 0 km/h
1402 27-10-2008 18:31:07 9.9 C 6.82 g/m*3 9.9 C 0 km/h
1403 27-10-2008 18:56:07 9.5 C 6.92 g/m*3 9.5 C 0 km/h
1404 27-10-2008 19:21:07 8.8 C 6.88 g/m*3 8.8 C 0 km/h
1405 27-10-2008 19:46:07 9.1 C 7.01 g/m*3 9.1 C 0 km/h
1406 27-10-2008 20:11:08 8.8 C 7.05 g/m*3 8.8 C 0 km/h
1407 27-10-2008 20:36:08 8.4 C 6.87 g/m*3 8.4 C 0 km/h
1408 27-10-2008 21:01:08 8.1 C 6.82 g/m*3 8.1 C 0 km/h
1409 27-10-2008 21:26:08 7.9 C 6.82 g/m*3 7.9 C 0 km/h
1410 27-10-2008 21:51:08 7.1 C 6.55 g/m*3 7.1 C 0 km/h
1411 27-10-2008 22:16:08 7.3 C 6.79 g/m*3 7.3 C 0 km/h
1412 27-10-2008 22:41:08 7.2 C 6.67 g/m*3 7.2 C 0 km/h
1413 27-10-2008 23:06:08 6.8 C 6.65 g/m*3 6.8 C 0 km/h
1414 27-10-2008 23:31:08 6.3 C 6.51 g/m*3 6.3 C 0 km/h
1415 27-10-2008 23:56:08 6.1 C 6.5 g/m*3 6.1 C 0 km/h
1416 28-10-2008 00:21:08 5.8 C 6.45 g/m*3 5.8 C 0 km/h
1417 28-10-2008 00:46:08 6.1 C 6.58 g/m*3 6.1 C 0 km/h
1418 28-10-2008 01:11:08 6.1 C 6.65 g/m*3 6.1 C 0 km/h
1419 28-10-2008 01:36:08 5.8 C 6.52 g/m*3 5.8 C 0 km/h
1420 28-10-2008 02:01:08 6 C 6.6 g/m*3 6 C 0 km/h
1421 28-10-2008 02:26:08 6.3 C 6.81 g/m*3 6.3 C 0 km/h
1422 28-10-2008 02:51:08 6.4 C 6.78 g/m*3 6.4 C 0 km/h
1423 28-10-2008 03:16:08 6.4 C 6.78 g/m*3 6.4 C 0 km/h
1424 28-10-2008 03:41:08 6.6 C 6.87 g/m*3 6.6 C 0 km/h
1425 28-10-2008 04:06:08 6.5 C 6.82 g/m*3 6.5 C 0 km/h
Sensor: Nr:Datum:Temp:Abs-Feuchte:Windchill:Wind:
Aussen-T/F 1426 28-10-2008 04:31:08 6.5 C 6.82 g/m*3 6.5 C 0 km/h
1427 28-10-2008 04:56:09 6.5 C 6.9 g/m*3 6.5 C 0 km/h
1428 28-10-2008 05:21:09 6.5 C 6.9 g/m*3 6.5 C 0 km/h
1429 28-10-2008 05:46:09 6.4 C 6.93 g/m*3 6.4 C 0 km/h
1430 28-10-2008 06:11:09 6.3 C 6.88 g/m*3 6.3 C 0 km/h
1431 28-10-2008 06:36:09 6.5 C 6.97 g/m*3 6.5 C 0 km/h
1432 28-10-2008 07:01:09 6.2 C 6.84 g/m*3 6.2 C 0 km/h
1433 28-10-2008 07:26:09 6 C 6.75 g/m*3 6 C 0 km/h
1434 28-10-2008 07:51:09 6 C 6.75 g/m*3 6 C 0 km/h
1435 28-10-2008 08:16:09 6.2 C 6.91 g/m*3 6.2 C 0 km/h
1436 28-10-2008 08:41:09 6.6 C 7.1 g/m*3 6.6 C 0 km/h
1437 28-10-2008 09:06:09 7 C 7.21 g/m*3 7 C 0 km/h
1438 28-10-2008 09:31:09 7.3 C 7.19 g/m*3 7.3 C 0 km/h
1439 28-10-2008 09:56:09 7.8 C 6.94 g/m*3 7.8 C 0 km/h
1440 28-10-2008 10:21:09 7.9 C 6.65 g/m*3 7.9 C 0 km/h
1441 28-10-2008 10:46:09 8.5 C 6.92 g/m*3 8.5 C 0 km/h
1442 28-10-2008 11:11:09 9.2 C 6.88 g/m*3 9.2 C 0 km/h
1443 28-10-2008 11:36:09 10.1 C 6.71 g/m*3 10.1 C 0 km/h
1444 28-10-2008 12:01:09 10.5 C 6.3 g/m*3 10.5 C 0 km/h
1445 28-10-2008 12:26:09 10.5 C 5.82 g/m*3 10.5 C 0 km/h
1446 28-10-2008 12:51:09 10.3 C 4.98 g/m*3 10.3 C 0 km/h
1447 28-10-2008 13:16:10 10.6 C 5.37 g/m*3 10.6 C 0 km/h
1448 28-10-2008 13:41:10 10.5 C 5.43 g/m*3 10.5 C 0 km/h
1449 28-10-2008 14:06:10 10.1 C 5.3 g/m*3 10.1 C 0 km/h
1450 28-10-2008 14:31:10 10.2 C 5.33 g/m*3 10.2 C 0 km/h
Sensor: Nr:Datum:Temp:Abs-Feuchte:Windchill:Wind:
Aussen-T/F 1451 28-10-2008 14:56:10 10.4 C 5.4 g/m*3 10.4 C 0 km/h
1452 28-10-2008 15:21:10 10.2 C 5.23 g/m*3 10.2 C 0 km/h
1453 28-10-2008 15:46:10 9.8 C 5.38 g/m*3 9.8 C 0 km/h
1454 28-10-2008 16:11:10 9 C 5.73 g/m*3 9 C 0 km/h
1455 28-10-2008 16:36:10 8.4 C 6.19 g/m*3 8.4 C 0 km/h
1456 28-10-2008 17:01:10 7.8 C 6.12 g/m*3 7.8 C 0 km/h
1457 28-10-2008 17:26:10 7 C 5.97 g/m*3 7 C 0 km/h
1458 28-10-2008 17:51:10 6.5 C 5.92 g/m*3 6.5 C 0 km/h
1459 28-10-2008 18:16:10 6.2 C 5.96 g/m*3 6.2 C 0 km/h
1460 28-10-2008 18:41:10 5.5 C 5.76 g/m*3 5.5 C 0 km/h
1461 28-10-2008 19:06:10 5.4 C 5.72 g/m*3 5.4 C 0 km/h
1462 28-10-2008 19:31:10 5.2 C 5.78 g/m*3 5.2 C 0 km/h
1463 28-10-2008 19:56:10 5 C 5.71 g/m*3 5 C 0 km/h
1464 28-10-2008 20:21:10 4.9 C 5.81 g/m*3 4.9 C 0 km/h
1465 28-10-2008 20:46:10 4.7 C 5.73 g/m*3 4.7 C 0 km/h
1466 28-10-2008 21:11:10 4.4 C 5.62 g/m*3 4.4 C 0 km/h
1467 28-10-2008 21:36:10 4.2 C 5.61 g/m*3 4.2 C 0 km/h
1468 28-10-2008 22:01:11 3.9 C 5.49 g/m*3 3.9 C 0 km/h
1469 28-10-2008 22:26:11 3.8 C 5.58 g/m*3 3.8 C 0 km/h
1470 28-10-2008 22:51:11 3.6 C 5.51 g/m*3 3.6 C 0 km/h
1471 28-10-2008 23:16:11 3.4 C 5.44 g/m*3 3.4 C 0 km/h
1472 28-10-2008 23:41:11 3.2 C 5.36 g/m*3 3.2 C 0 km/h
1473 29-10-2008 00:06:11 3.2 C 5.42 g/m*3 3.2 C 0 km/h
1474 29-10-2008 00:31:11 3.1 C 5.39 g/m*3 3.1 C 0 km/h
1475 29-10-2008 00:56:11 2.8 C 5.34 g/m*3 2.8 C 0 km/h
Sensor: Nr:Datum:Temp:Abs-Feuchte:Windchill:Wind:
Aussen-T/F 1476 29-10-2008 01:21:11 2.8 C 5.4 g/m*3 2.8 C 0 km/h
1477 29-10-2008 01:46:11 2.9 C 5.43 g/m*3 2.9 C 0 km/h
1478 29-10-2008 02:11:11 3 C 5.47 g/m*3 3 C 0 km/h
1479 29-10-2008 02:36:11 2.9 C 5.49 g/m*3 2.9 C 0 km/h
1480 29-10-2008 03:01:11 3.1 C 5.51 g/m*3 3.1 C 0 km/h
1481 29-10-2008 03:26:11 3.4 C 5.68 g/m*3 3.4 C 0 km/h
1482 29-10-2008 03:51:11 3.6 C 5.76 g/m*3 3.6 C 0 km/h
1483 29-10-2008 04:16:11 3.6 C 5.69 g/m*3 3.6 C 0 km/h
1484 29-10-2008 04:41:11 3.4 C 5.62 g/m*3 3.4 C 0 km/h
1485 29-10-2008 05:06:11 3.5 C 5.66 g/m*3 3.5 C 0 km/h
1486 29-10-2008 05:31:11 3.7 C 5.73 g/m*3 3.7 C 0 km/h
1487 29-10-2008 05:56:11 3.7 C 5.73 g/m*3 3.7 C 0 km/h
1488 29-10-2008 06:21:11 3.7 C 5.73 g/m*3 3.7 C 0 km/h
1489 29-10-2008 06:46:12 3.7 C 5.67 g/m*3 3.7 C 0 km/h
1490 29-10-2008 07:11:12 3.7 C 5.67 g/m*3 3.7 C 0 km/h
1491 29-10-2008 07:36:12 3.6 C 5.63 g/m*3 3.6 C 0 km/h
1492 29-10-2008 08:01:12 3.6 C 5.63 g/m*3 3.6 C 0 km/h
1493 29-10-2008 08:26:12 3.9 C 5.75 g/m*3 3.9 C 0 km/h
1494 29-10-2008 08:51:12 3.9 C 5.68 g/m*3 3.9 C 0 km/h
1495 29-10-2008 09:16:12 4.4 C 5.75 g/m*3 4.4 C 0 km/h
1496 29-10-2008 09:41:12 4.6 C 5.69 g/m*3 4.6 C 0 km/h
1497 29-10-2008 10:06:12 5 C 5.57 g/m*3 5 C 0 km/h
1498 29-10-2008 10:31:12 5.6 C 5.66 g/m*3 5.6 C 0 km/h
1499 29-10-2008 10:56:12 5.6 C 5.59 g/m*3 5.6 C 0 km/h
1500 29-10-2008 11:21:12 6.5 C 5.77 g/m*3 6.5 C 0 km/h
Sensor: Nr:Datum:Temp:Abs-Feuchte:Windchill:Wind:
Aussen-T/F 1501 29-10-2008 11:46:12 7.2 C 5.65 g/m*3 7.2 C 0 km/h
1502 29-10-2008 12:11:12 7.1 C 5.54 g/m*3 7.1 C 0 km/h
1503 29-10-2008 12:36:12 7.5 C 5.76 g/m*3 7.5 C 0 km/h
1504 29-10-2008 13:01:12 8 C 5.37 g/m*3 8 C 0 km/h
1505 29-10-2008 13:26:12 8.4 C 5.51 g/m*3 8.4 C 0 km/h
1506 29-10-2008 13:51:12 9.2 C 5.63 g/m*3 9.2 C 0 km/h
1507 29-10-2008 14:16:12 9.1 C 5.41 g/m*3 9.1 C 0 km/h
1508 29-10-2008 14:41:12 10.2 C 5.42 g/m*3 10.2 C 0 km/h
1509 29-10-2008 15:06:13 10.7 C 5.11 g/m*3 10.7 C 0 km/h
1510 29-10-2008 15:31:13 9.8 C 5.1 g/m*3 9.8 C 0 km/h
1511 29-10-2008 15:56:13 9.4 C 5.34 g/m*3 9.4 C 0 km/h
1512 29-10-2008 16:21:13 8.4 C 5.34 g/m*3 8.4 C 0 km/h
1513 29-10-2008 16:46:13 7.9 C 5.5 g/m*3 7.9 C 0 km/h
1514 29-10-2008 17:11:13 7.1 C 5.38 g/m*3 7.1 C 0 km/h
1515 29-10-2008 17:36:13 6.7 C 5.47 g/m*3 6.7 C 0 km/h
1516 29-10-2008 18:01:13 6.4 C 5.59 g/m*3 6.4 C 0 km/h
1517 29-10-2008 18:26:13 6.2 C 5.52 g/m*3 6.2 C 0 km/h
1518 29-10-2008 18:51:13 6 C 5.52 g/m*3 6 C 0 km/h
1519 29-10-2008 19:16:13 5.9 C 5.62 g/m*3 5.9 C 0 km/h
1520 29-10-2008 19:41:13 5.9 C 5.7 g/m*3 5.9 C 0 km/h
1521 29-10-2008 20:06:13 5.8 C 5.66 g/m*3 5.8 C 0 km/h
1522 29-10-2008 20:31:13 5.4 C 5.58 g/m*3 5.4 C 0 km/h
1523 29-10-2008 20:56:13 5.1 C 5.54 g/m*3 5.1 C 0 km/h
1524 29-10-2008 21:21:13 5.3 C 5.54 g/m*3 5.3 C 0 km/h
1525 29-10-2008 21:46:13 5.1 C 5.47 g/m*3 5.1 C 0 km/h
Sensor: Nr:Datum:Temp:Abs-Feuchte:Windchill:Wind:
Aussen-T/F 1526 29-10-2008 22:11:13 5.2 C 5.51 g/m*3 5.2 C 0 km/h
1527 29-10-2008 22:36:13 5.2 C 5.58 g/m*3 5.2 C 0 km/h
1528 29-10-2008 23:01:13 5.2 C 5.65 g/m*3 5.2 C 0 km/h
1529 29-10-2008 23:26:13 5.2 C 5.65 g/m*3 5.2 C 0 km/h
1530 29-10-2008 23:51:14 5 C 5.64 g/m*3 5 C 0 km/h
1531 30-10-2008 00:16:14 5 C 5.71 g/m*3 5 C 0 km/h
1532 30-10-2008 00:41:14 4.9 C 5.74 g/m*3 4.9 C 0 km/h
1533 30-10-2008 01:06:14 4.7 C 5.73 g/m*3 4.7 C 0 km/h
1534 30-10-2008 01:31:14 4.8 C 5.83 g/m*3 4.8 C 0 km/h
1535 30-10-2008 01:56:14 4.8 C 5.83 g/m*3 4.8 C 0 km/h
1536 30-10-2008 02:21:14 5 C 5.84 g/m*3 5 C 0 km/h
1537 30-10-2008 02:46:14 4.8 C 5.83 g/m*3 4.8 C 0 km/h
1538 30-10-2008 03:11:14 4.8 C 5.9 g/m*3 4.8 C 0 km/h
1539 30-10-2008 03:36:14 4.7 C 5.93 g/m*3 4.7 C 0 km/h
1540 30-10-2008 04:01:14 4.7 C 6 g/m*3 4.7 C 0 km/h
1541 30-10-2008 04:26:14 4.5 C 5.98 g/m*3 4.5 C 0 km/h
1542 30-10-2008 04:51:14 4.5 C 5.98 g/m*3 4.5 C 0 km/h
1543 30-10-2008 05:16:14 4.5 C 6.05 g/m*3 4.5 C 0 km/h
1544 30-10-2008 05:41:14 4.5 C 6.05 g/m*3 4.5 C 0 km/h
1545 30-10-2008 06:06:14 4.2 C 5.93 g/m*3 4.2 C 0 km/h
1546 30-10-2008 06:31:14 4.2 C 5.93 g/m*3 4.2 C 0 km/h
1547 30-10-2008 06:56:14 4.1 C 5.89 g/m*3 4.1 C 0 km/h
1548 30-10-2008 07:21:14 3.9 C 5.87 g/m*3 3.9 C 0 km/h
1549 30-10-2008 07:46:14 3.9 C 5.94 g/m*3 3.9 C 0 km/h
1550 30-10-2008 08:11:15 4 C 5.98 g/m*3 4 C 0 km/h
Sensor: Nr:Datum:Temp:Abs-Feuchte:Windchill:Wind:
Aussen-T/F 1551 30-10-2008 08:36:15 4.2 C 6.06 g/m*3 4.2 C 0 km/h
1552 30-10-2008 09:01:15 4.6 C 6.22 g/m*3 4.6 C 0 km/h
1553 30-10-2008 09:26:15 4.8 C 6.3 g/m*3 4.8 C 0 km/h
1554 30-10-2008 09:51:15 4.8 C 6.24 g/m*3 4.8 C 0 km/h
1555 30-10-2008 10:16:15 4.7 C 6 g/m*3 4.7 C 0 km/h
1556 30-10-2008 10:41:15 4.7 C 5.93 g/m*3 4.7 C 0 km/h
1557 30-10-2008 11:06:15 5.1 C 6.02 g/m*3 5.1 C 0 km/h
1558 30-10-2008 11:31:15 5.3 C 6.1 g/m*3 5.3 C 0 km/h
1559 30-10-2008 11:56:15 5.8 C 6.23 g/m*3 5.8 C 0 km/h
1560 30-10-2008 12:21:15 5.7 C 6.05 g/m*3 5.7 C 0 km/h
1561 30-10-2008 12:46:15 5.6 C 6.08 g/m*3 5.6 C 0 km/h
1562 30-10-2008 13:11:15 5.7 C 6.12 g/m*3 5.7 C 0 km/h
1563 30-10-2008 13:36:15 5.3 C 5.82 g/m*3 5.3 C 0 km/h
1564 30-10-2008 14:01:15 5.7 C 6.05 g/m*3 5.7 C 0 km/h
1565 30-10-2008 14:26:15 5.6 C 6.08 g/m*3 5.6 C 0 km/h
1566 30-10-2008 14:51:15 5.4 C 6 g/m*3 5.4 C 0 km/h
1567 30-10-2008 15:16:15 5.8 C 6.16 g/m*3 5.8 C 0 km/h
1568 30-10-2008 15:41:15 5.7 C 6.05 g/m*3 5.7 C 0 km/h
1569 30-10-2008 16:06:15 5.7 C 6.12 g/m*3 5.7 C 0 km/h
1570 30-10-2008 16:31:15 5.7 C 6.19 g/m*3 5.7 C 0 km/h
1571 30-10-2008 16:56:16 5.4 C 6.07 g/m*3 5.4 C 0 km/h
1572 30-10-2008 17:21:16 4.8 C 5.9 g/m*3 4.8 C 0 km/h
1573 30-10-2008 17:46:16 4.7 C 5.86 g/m*3 4.7 C 0 km/h
1574 30-10-2008 18:11:16 4.8 C 5.97 g/m*3 4.8 C 0 km/h
1575 30-10-2008 18:36:16 4.6 C 5.89 g/m*3 4.6 C 0 km/h
Sensor: Nr:Datum:Temp:Abs-Feuchte:Windchill:Wind:
Aussen-T/F 1576 30-10-2008 19:01:16 4.6 C 6.02 g/m*3 4.6 C 0 km/h
1577 30-10-2008 19:26:16 4.6 C 6.02 g/m*3 4.6 C 0 km/h
1578 30-10-2008 19:51:16 4.6 C 6.09 g/m*3 4.6 C 0 km/h
1579 30-10-2008 20:16:16 4.4 C 6.01 g/m*3 4.4 C 0 km/h
1580 30-10-2008 20:41:16 4.5 C 6.11 g/m*3 4.5 C 0 km/h
1581 30-10-2008 21:06:16 4.4 C 6.07 g/m*3 4.4 C 0 km/h
1582 30-10-2008 21:31:16 4.3 C 6.03 g/m*3 4.3 C 0 km/h
1583 30-10-2008 21:56:16 4.3 C 6.03 g/m*3 4.3 C 0 km/h
1584 30-10-2008 22:21:16 4.3 C 6.1 g/m*3 4.3 C 0 km/h
1585 30-10-2008 22:46:16 4.3 C 6.1 g/m*3 4.3 C 0 km/h
1586 30-10-2008 23:11:16 4.1 C 6.02 g/m*3 4.1 C 0 km/h
1587 30-10-2008 23:36:16 3.9 C 5.94 g/m*3 3.9 C 0 km/h
1588 31-10-2008 00:01:16 3.8 C 5.96 g/m*3 3.8 C 0 km/h
1589 31-10-2008 00:26:16 3.7 C 5.92 g/m*3 3.7 C 0 km/h
1590 31-10-2008 00:51:16 3.4 C 5.8 g/m*3 3.4 C 0 km/h
1591 31-10-2008 01:16:16 3.2 C 5.72 g/m*3 3.2 C 0 km/h
1592 31-10-2008 01:41:17 2.8 C 5.57 g/m*3 2.8 C 0 km/h
1593 31-10-2008 02:06:17 2.7 C 5.54 g/m*3 2.7 C 0 km/h
1594 31-10-2008 02:31:17 2.9 C 5.61 g/m*3 2.9 C 0 km/h
1595 31-10-2008 02:56:17 3.2 C 5.72 g/m*3 3.2 C 0 km/h
1596 31-10-2008 03:21:17 3.1 C 5.69 g/m*3 3.1 C 0 km/h
1597 31-10-2008 03:46:17 3 C 5.65 g/m*3 3 C 0 km/h
1598 31-10-2008 04:11:17 3.1 C 5.69 g/m*3 3.1 C 0 km/h
1599 31-10-2008 04:36:17 3.2 C 5.72 g/m*3 3.2 C 0 km/h
1600 31-10-2008 05:01:17 3.3 C 5.76 g/m*3 3.3 C 0 km/h
Sensor: Nr:Datum:Temp:Abs-Feuchte:Windchill:Wind:
Aussen-T/F 1601 31-10-2008 05:26:17 3.6 C 5.88 g/m*3 3.6 C 0 km/h
1602 31-10-2008 05:51:17 3.7 C 5.92 g/m*3 3.7 C 0 km/h
1603 31-10-2008 06:16:17 3.8 C 5.96 g/m*3 3.8 C 0 km/h
1604 31-10-2008 06:41:17 4 C 6.04 g/m*3 4 C 0 km/h
1605 31-10-2008 07:06:17 4 C 6.04 g/m*3 4 C 0 km/h
1606 31-10-2008 07:31:17 4 C 6.04 g/m*3 4 C 0 km/h
1607 31-10-2008 07:56:17 4.1 C 6.08 g/m*3 4.1 C 0 km/h
1608 31-10-2008 08:21:17 4.3 C 6.16 g/m*3 4.3 C 0 km/h
1609 31-10-2008 08:46:17 4.5 C 6.24 g/m*3 4.5 C 0 km/h
1610 31-10-2008 09:11:17 4.9 C 6.41 g/m*3 4.9 C 0 km/h
1611 31-10-2008 09:36:17 5.4 C 6.63 g/m*3 5.4 C 0 km/h
1612 31-10-2008 10:01:17 5.8 C 6.81 g/m*3 5.8 C 0 km/h
1613 31-10-2008 10:26:18 6.3 C 6.74 g/m*3 6.3 C 0 km/h
1614 31-10-2008 10:51:18 6.5 C 6.6 g/m*3 6.5 C 0 km/h
1615 31-10-2008 11:16:18 7.1 C 6.55 g/m*3 7.1 C 0 km/h
1616 31-10-2008 11:41:18 7 C 6.51 g/m*3 7 C 0 km/h
1617 31-10-2008 12:06:18 7 C 6.66 g/m*3 7 C 0 km/h
1618 31-10-2008 12:31:18 7.8 C 7.02 g/m*3 7.8 C 0 km/h
1619 31-10-2008 12:56:18 8 C 6.7 g/m*3 8 C 0 km/h
1620 31-10-2008 13:21:18 8 C 6.7 g/m*3 8 C 0 km/h
1621 31-10-2008 13:46:18 8.8 C 6.7 g/m*3 8.8 C 0 km/h
1622 31-10-2008 14:11:18 9.5 C 6.74 g/m*3 9.5 C 0 km/h
1623 31-10-2008 14:36:18 10 C 6.77 g/m*3 10 C 0 km/h
1624 31-10-2008 15:01:18 11.2 C 6.99 g/m*3 11.2 C 0 km/h
1625 31-10-2008 15:26:18 11.1 C 6.35 g/m*3 11.1 C 0 km/h
Sensor: Nr:Datum:Temp:Abs-Feuchte:Windchill:Wind:
Aussen-T/F 1626 31-10-2008 15:51:18 10.2 C 6.38 g/m*3 10.2 C 0 km/h
1627 31-10-2008 16:16:18 9.6 C 6.5 g/m*3 9.6 C 0 km/h
1628 31-10-2008 16:41:18 8.9 C 6.48 g/m*3 8.9 C 0 km/h
1629 31-10-2008 17:06:18 8.4 C 6.53 g/m*3 8.4 C 0 km/h
1630 31-10-2008 17:31:18 8.1 C 6.32 g/m*3 8.1 C 0 km/h
1631 31-10-2008 17:56:18 7.9 C 6.32 g/m*3 7.9 C 0 km/h
1632 31-10-2008 18:21:18 7.3 C 6.32 g/m*3 7.3 C 0 km/h
1633 31-10-2008 18:46:19 6.8 C 6.42 g/m*3 6.8 C 0 km/h
1634 31-10-2008 19:11:19 7 C 6.51 g/m*3 7 C 0 km/h
1635 31-10-2008 19:36:19 6.8 C 6.5 g/m*3 6.8 C 0 km/h
1636 31-10-2008 20:01:19 6.7 C 6.53 g/m*3 6.7 C 0 km/h
1637 31-10-2008 20:26:19 6.5 C 6.52 g/m*3 6.5 C 0 km/h
1638 31-10-2008 20:51:19 6.4 C 6.56 g/m*3 6.4 C 0 km/h
1639 31-10-2008 21:16:19 6.2 C 6.47 g/m*3 6.2 C 0 km/h
1640 31-10-2008 21:41:19 6.2 C 6.55 g/m*3 6.2 C 0 km/h
1641 31-10-2008 22:06:19 6.2 C 6.55 g/m*3 6.2 C 0 km/h
1642 31-10-2008 22:31:19 6.2 C 6.55 g/m*3 6.2 C 0 km/h
1643 31-10-2008 22:56:19 6.3 C 6.66 g/m*3 6.3 C 0 km/h
1644 31-10-2008 23:21:19 6.5 C 6.75 g/m*3 6.5 C 0 km/h
1645 31-10-2008 23:46:19 6.5 C 6.67 g/m*3 6.5 C 0 km/h
1646 01-11-2008 00:11:19 6.4 C 6.63 g/m*3 6.4 C 0 km/h
1647 01-11-2008 00:36:19 6.3 C 6.66 g/m*3 6.3 C 0 km/h
1648 01-11-2008 01:01:19 6.4 C 6.71 g/m*3 6.4 C 0 km/h
1649 01-11-2008 01:26:19 6.4 C 6.78 g/m*3 6.4 C 0 km/h
1650 01-11-2008 01:51:19 6.4 C 6.85 g/m*3 6.4 C 0 km/h
Sensor: Nr:Datum:Temp:Abs-Feuchte:Windchill:Wind:
Aussen-T/F 1651 01-11-2008 02:16:19 6.3 C 6.81 g/m*3 6.3 C 0 km/h
1652 01-11-2008 02:41:19 6.2 C 6.84 g/m*3 6.2 C 0 km/h
1653 01-11-2008 03:06:19 6.2 C 6.91 g/m*3 6.2 C 0 km/h
1654 01-11-2008 03:31:20 6 C 6.82 g/m*3 6 C 0 km/h
1655 01-11-2008 03:56:20 5.9 C 6.85 g/m*3 5.9 C 0 km/h
1656 01-11-2008 04:21:20 6 C 6.9 g/m*3 6 C 0 km/h
1657 01-11-2008 04:46:20 5.9 C 6.85 g/m*3 5.9 C 0 km/h
1658 01-11-2008 05:11:20 6 C 6.9 g/m*3 6 C 0 km/h
1659 01-11-2008 05:36:20 6 C 6.9 g/m*3 6 C 0 km/h
1660 01-11-2008 06:01:20 5.9 C 6.85 g/m*3 5.9 C 0 km/h
1661 01-11-2008 06:26:20 5.9 C 6.85 g/m*3 5.9 C 0 km/h
1662 01-11-2008 06:51:20 5.7 C 6.76 g/m*3 5.7 C 0 km/h
1663 01-11-2008 07:16:20 5.5 C 6.67 g/m*3 5.5 C 0 km/h
1664 01-11-2008 07:41:20 5.3 C 6.58 g/m*3 5.3 C 0 km/h
1665 01-11-2008 08:06:20 5.6 C 6.72 g/m*3 5.6 C 0 km/h
1666 01-11-2008 08:31:20 5.9 C 6.85 g/m*3 5.9 C 0 km/h
1667 01-11-2008 08:56:20 6.5 C 7.12 g/m*3 6.5 C 0 km/h
1668 01-11-2008 09:21:20 7.1 C 7.41 g/m*3 7.1 C 0 km/h
1669 01-11-2008 09:46:20 7.4 C 7.55 g/m*3 7.4 C 0 km/h
1670 01-11-2008 10:11:20 7.9 C 7.56 g/m*3 7.9 C 0 km/h
1671 01-11-2008 10:36:20 8.2 C 7.2 g/m*3 8.2 C 0 km/h
1672 01-11-2008 11:01:20 8.5 C 7.09 g/m*3 8.5 C 0 km/h
1673 01-11-2008 11:26:20 8.7 C 7.01 g/m*3 8.7 C 0 km/h
1674 01-11-2008 11:51:20 9.3 C 6.74 g/m*3 9.3 C 0 km/h
1675 01-11-2008 12:16:21 9.6 C 6.78 g/m*3 9.6 C 0 km/h
Sensor: Nr:Datum:Temp:Abs-Feuchte:Windchill:Wind:
Aussen-T/F 1676 01-11-2008 12:41:21 10 C 6.58 g/m*3 10 C 0 km/h
1677 01-11-2008 13:06:21 10 C 6.58 g/m*3 10 C 0 km/h
1678 01-11-2008 13:31:21 10.3 C 6.7 g/m*3 10.3 C 0 km/h
1679 01-11-2008 13:56:21 10.3 C 6.8 g/m*3 10.3 C 0 km/h
1680 01-11-2008 14:21:21 10.4 C 6.84 g/m*3 10.4 C 0 km/h
1681 01-11-2008 14:46:21 10.5 C 6.89 g/m*3 10.5 C 0 km/h
1682 01-11-2008 15:11:21 10.8 C 6.92 g/m*3 10.8 C 0 km/h
1683 01-11-2008 15:36:21 10.5 C 7.18 g/m*3 10.5 C 0 km/h
1684 01-11-2008 16:01:21 10.1 C 7.28 g/m*3 10.1 C 0 km/h
1685 01-11-2008 16:26:21 9.8 C 7.52 g/m*3 9.8 C 0 km/h
1686 01-11-2008 16:51:21 9.5 C 7.55 g/m*3 9.5 C 0 km/h
1687 01-11-2008 17:16:21 9.4 C 7.6 g/m*3 9.4 C 0 km/h
1688 01-11-2008 17:41:21 9.5 C 7.74 g/m*3 9.5 C 0 km/h
1689 01-11-2008 18:06:21 9.4 C 7.69 g/m*3 9.4 C 0 km/h
1690 01-11-2008 18:31:21 9.2 C 7.59 g/m*3 9.2 C 0 km/h
1691 01-11-2008 18:56:21 9.2 C 7.68 g/m*3 9.2 C 0 km/h
1692 01-11-2008 19:21:21 9.2 C 7.68 g/m*3 9.2 C 0 km/h
1693 01-11-2008 19:46:21 9.2 C 7.68 g/m*3 9.2 C 0 km/h
1694 01-11-2008 20:11:21 9 C 7.41 g/m*3 9 C 0 km/h
1695 01-11-2008 20:36:22 8.9 C 7.53 g/m*3 8.9 C 0 km/h
1696 01-11-2008 21:01:22 8.7 C 7.52 g/m*3 8.7 C 0 km/h
1697 01-11-2008 21:26:22 8.4 C 7.38 g/m*3 8.4 C 0 km/h
1698 01-11-2008 21:51:22 8.3 C 7.42 g/m*3 8.3 C 0 km/h
1699 01-11-2008 22:16:22 8.6 C 7.65 g/m*3 8.6 C 0 km/h
1700 01-11-2008 22:41:22 8.6 C 7.73 g/m*3 8.6 C 0 km/h
Sensor: Nr:Datum:Temp:Abs-Feuchte:Windchill:Wind:
Aussen-T/F 1701 01-11-2008 23:06:22 8.5 C 7.68 g/m*3 8.5 C 0 km/h
1702 01-11-2008 23:31:22 8.4 C 7.63 g/m*3 8.4 C 0 km/h
1703 01-11-2008 23:56:22 8.4 C 7.72 g/m*3 8.4 C 0 km/h
1704 02-11-2008 00:21:22 8.5 C 7.77 g/m*3 8.5 C 0 km/h
1705 02-11-2008 00:46:22 8.5 C 7.85 g/m*3 8.5 C 0 km/h
1706 02-11-2008 01:11:22 9.6 C 7.79 g/m*3 9.6 C 0 km/h
1707 02-11-2008 01:36:22 9.8 C 7.42 g/m*3 9.8 C 0 km/h
1708 02-11-2008 02:01:22 9.3 C 7.46 g/m*3 9.3 C 0 km/h
1709 02-11-2008 02:26:22 9.4 C 7.51 g/m*3 9.4 C 0 km/h
1710 02-11-2008 02:51:22 9 C 7.41 g/m*3 9 C 0 km/h
1711 02-11-2008 03:16:22 8.9 C 7.53 g/m*3 8.9 C 0 km/h
1712 02-11-2008 03:41:22 8.5 C 7.43 g/m*3 8.5 C 0 km/h
1713 02-11-2008 04:06:22 8.3 C 7.5 g/m*3 8.3 C 0 km/h
1714 02-11-2008 04:31:22 8.1 C 7.49 g/m*3 8.1 C 0 km/h
1715 02-11-2008 04:56:22 7.9 C 7.47 g/m*3 7.9 C 0 km/h
1716 02-11-2008 05:21:23 7.6 C 7.41 g/m*3 7.6 C 0 km/h
1717 02-11-2008 05:46:23 7.6 C 7.41 g/m*3 7.6 C 0 km/h
1718 02-11-2008 06:11:23 7.4 C 7.4 g/m*3 7.4 C 0 km/h
1719 02-11-2008 06:36:23 7.5 C 7.52 g/m*3 7.5 C 0 km/h
1720 02-11-2008 07:01:23 7.4 C 7.48 g/m*3 7.4 C 0 km/h
1721 02-11-2008 07:26:23 7.3 C 7.43 g/m*3 7.3 C 0 km/h
1722 02-11-2008 07:51:23 7.1 C 7.33 g/m*3 7.1 C 0 km/h
1723 02-11-2008 08:16:23 7.3 C 7.43 g/m*3 7.3 C 0 km/h
1724 02-11-2008 08:41:23 7.6 C 7.65 g/m*3 7.6 C 0 km/h
1725 02-11-2008 09:06:23 7.6 C 7.65 g/m*3 7.6 C 0 km/h
Sensor: Nr:Datum:Temp:Abs-Feuchte:Windchill:Wind:
Aussen-T/F 1726 02-11-2008 09:31:23 8.1 C 7.82 g/m*3 8.1 C 0 km/h
1727 02-11-2008 09:56:23 8.7 C 8.13 g/m*3 8.7 C 0 km/h
1728 02-11-2008 10:21:23 9.5 C 8.47 g/m*3 9.5 C 0 km/h
1729 02-11-2008 10:46:23 10.1 C 8.42 g/m*3 10.1 C 0 km/h
1730 02-11-2008 11:11:23 10.8 C 8.2 g/m*3 10.8 C 0 km/h
1731 02-11-2008 11:36:23 11.5 C 8.06 g/m*3 11.5 C 0 km/h
1732 02-11-2008 12:01:23 12.5 C 8.25 g/m*3 12.5 C 0 km/h
1733 02-11-2008 12:26:23 13.4 C 8.02 g/m*3 13.4 C 0 km/h
1734 02-11-2008 12:51:23 13.5 C 7.84 g/m*3 13.5 C 0 km/h
1735 02-11-2008 13:16:23 13.8 C 7.74 g/m*3 13.8 C 0 km/h
1736 02-11-2008 13:41:24 14.1 C 7.89 g/m*3 14.1 C 0 km/h
1737 02-11-2008 14:06:24 15.4 C 7.88 g/m*3 15.4 C 0 km/h
1738 02-11-2008 14:31:24 14.8 C 7.73 g/m*3 14.8 C 0 km/h
1739 02-11-2008 14:56:24 14.4 C 7.91 g/m*3 14.4 C 0 km/h
1740 02-11-2008 15:21:24 14.4 C 7.91 g/m*3 14.4 C 0 km/h
1741 02-11-2008 15:46:24 13.8 C 8.1 g/m*3 13.8 C 0 km/h
1742 02-11-2008 16:11:24 13.5 C 8.19 g/m*3 13.5 C 0 km/h
1743 02-11-2008 16:36:24 12.6 C 8.19 g/m*3 12.6 C 0 km/h
1744 02-11-2008 17:01:24 11.8 C 8.1 g/m*3 11.8 C 0 km/h
1745 02-11-2008 17:26:24 11.2 C 8.01 g/m*3 11.2 C 0 km/h
1746 02-11-2008 17:51:24 10.6 C 8 g/m*3 10.6 C 0 km/h
1747 02-11-2008 18:16:24 10.7 C 8.15 g/m*3 10.7 C 0 km/h
1748 02-11-2008 18:41:24 10.1 C 7.85 g/m*3 10.1 C 0 km/h
1749 02-11-2008 19:06:24 9.9 C 7.94 g/m*3 9.9 C 0 km/h
1750 02-11-2008 19:31:24 9.8 C 7.89 g/m*3 9.8 C 0 km/h
Sensor: Nr:Datum:Temp:Abs-Feuchte:Windchill:Wind:
Aussen-T/F 1751 02-11-2008 19:56:24 9.6 C 7.88 g/m*3 9.6 C 0 km/h
1752 02-11-2008 20:21:24 9.4 C 7.87 g/m*3 9.4 C 0 km/h
1753 02-11-2008 20:46:24 9.2 C 7.86 g/m*3 9.2 C 0 km/h
1754 02-11-2008 21:11:24 9.1 C 7.81 g/m*3 9.1 C 0 km/h
1755 02-11-2008 21:36:24 9.1 C 7.9 g/m*3 9.1 C 0 km/h
1756 02-11-2008 22:01:24 9.2 C 7.95 g/m*3 9.2 C 0 km/h
1757 02-11-2008 22:26:25 9 C 7.85 g/m*3 9 C 0 km/h
1758 02-11-2008 22:51:25 8.7 C 7.7 g/m*3 8.7 C 0 km/h
1759 02-11-2008 23:16:25 8.6 C 7.73 g/m*3 8.6 C 0 km/h
1760 02-11-2008 23:41:25 8.2 C 7.62 g/m*3 8.2 C 0 km/h
1761 03-11-2008 00:06:25 8.1 C 7.57 g/m*3 8.1 C 0 km/h
1762 03-11-2008 00:31:25 8 C 7.52 g/m*3 8 C 0 km/h
1763 03-11-2008 00:56:25 7.7 C 7.46 g/m*3 7.7 C 0 km/h
1764 03-11-2008 01:21:25 7.8 C 7.59 g/m*3 7.8 C 0 km/h
1765 03-11-2008 01:46:25 8 C 7.69 g/m*3 8 C 0 km/h
1766 03-11-2008 02:11:25 8 C 7.69 g/m*3 8 C 0 km/h
1767 03-11-2008 02:36:25 8 C 7.69 g/m*3 8 C 0 km/h
1768 03-11-2008 03:01:25 8.5 C 8.03 g/m*3 8.5 C 0 km/h
1769 03-11-2008 03:26:25 8.9 C 8.23 g/m*3 8.9 C 0 km/h
1770 03-11-2008 03:51:25 9 C 8.11 g/m*3 9 C 0 km/h
1771 03-11-2008 04:16:25 9.1 C 8.07 g/m*3 9.1 C 0 km/h
1772 03-11-2008 04:41:25 9.1 C 7.99 g/m*3 9.1 C 0 km/h
1773 03-11-2008 05:06:25 9.2 C 7.95 g/m*3 9.2 C 0 km/h
1774 03-11-2008 05:31:25 9.2 C 7.86 g/m*3 9.2 C 0 km/h
1775 03-11-2008 05:56:25 9.1 C 7.81 g/m*3 9.1 C 0 km/h
Sensor: Nr:Datum:Temp:Abs-Feuchte:Windchill:Wind:
Aussen-T/F 1776 03-11-2008 06:21:25 9.2 C 7.86 g/m*3 9.2 C 0 km/h
1777 03-11-2008 06:46:25 9.2 C 7.77 g/m*3 9.2 C 0 km/h
1778 03-11-2008 07:11:26 9.2 C 7.77 g/m*3 9.2 C 0 km/h
1779 03-11-2008 07:36:26 9.2 C 7.77 g/m*3 9.2 C 0 km/h
1780 03-11-2008 08:01:26 9.4 C 7.87 g/m*3 9.4 C 0 km/h
1781 03-11-2008 08:26:26 9.5 C 7.92 g/m*3 9.5 C 0 km/h
1782 03-11-2008 08:51:26 9.8 C 8.07 g/m*3 9.8 C 0 km/h
1783 03-11-2008 09:16:26 10.1 C 7.94 g/m*3 10.1 C 0 km/h
1784 03-11-2008 09:41:26 10.2 C 7.9 g/m*3 10.2 C 0 km/h
1785 03-11-2008 10:06:26 10.4 C 7.81 g/m*3 10.4 C 0 km/h
1786 03-11-2008 10:31:26 10.5 C 7.76 g/m*3 10.5 C 0 km/h
1787 03-11-2008 10:56:26 11.1 C 7.96 g/m*3 11.1 C 0 km/h
1788 03-11-2008 11:21:26 11.4 C 7.8 g/m*3 11.4 C 0 km/h
1789 03-11-2008 11:46:26 11.7 C 7.84 g/m*3 11.7 C 0 km/h
1790 03-11-2008 12:11:26 12.7 C 8.24 g/m*3 12.7 C 0 km/h
1791 03-11-2008 12:36:26 13.1 C 7.99 g/m*3 13.1 C 0 km/h
1792 03-11-2008 13:01:26 13.4 C 7.9 g/m*3 13.4 C 0 km/h
1793 03-11-2008 13:26:26 13.4 C 7.9 g/m*3 13.4 C 0 km/h
1794 03-11-2008 13:51:26 13.5 C 7.72 g/m*3 13.5 C 0 km/h
1795 03-11-2008 14:16:26 13.6 C 7.77 g/m*3 13.6 C 0 km/h
1796 03-11-2008 14:41:26 14.4 C 7.79 g/m*3 14.4 C 0 km/h
1797 03-11-2008 15:06:27 14 C 7.84 g/m*3 14 C 0 km/h
1798 03-11-2008 15:31:27 13.3 C 8.09 g/m*3 13.3 C 0 km/h
1799 03-11-2008 15:56:27 13.2 C 8.27 g/m*3 13.2 C 0 km/h
1800 03-11-2008 16:21:27 12.7 C 8.24 g/m*3 12.7 C 0 km/h
Sensor: Nr:Datum:Temp:Abs-Feuchte:Windchill:Wind:
Aussen-T/F 1801 03-11-2008 16:46:27 12.3 C 8.25 g/m*3 12.3 C 0 km/h
1802 03-11-2008 17:11:27 11.5 C 8.06 g/m*3 11.5 C 0 km/h
1803 03-11-2008 17:36:27 10.8 C 8.01 g/m*3 10.8 C 0 km/h
1804 03-11-2008 18:01:27 10.1 C 7.85 g/m*3 10.1 C 0 km/h
1805 03-11-2008 18:26:27 9.7 C 7.93 g/m*3 9.7 C 0 km/h
1806 03-11-2008 18:51:27 9.3 C 7.82 g/m*3 9.3 C 0 km/h
1807 03-11-2008 19:16:27 9 C 7.76 g/m*3 9 C 0 km/h
1808 03-11-2008 19:41:27 8.5 C 7.6 g/m*3 8.5 C 0 km/h
1809 03-11-2008 20:06:27 8.4 C 7.63 g/m*3 8.4 C 0 km/h
1810 03-11-2008 20:31:27 8.1 C 7.49 g/m*3 8.1 C 0 km/h
1811 03-11-2008 20:56:27 7.9 C 7.56 g/m*3 7.9 C 0 km/h
1812 03-11-2008 21:21:27 7.5 C 7.36 g/m*3 7.5 C 0 km/h
1813 03-11-2008 21:46:27 7.1 C 7.18 g/m*3 7.1 C 0 km/h
1814 03-11-2008 22:11:27 6.8 C 7.11 g/m*3 6.8 C 0 km/h
1815 03-11-2008 22:36:27 6.6 C 7.02 g/m*3 6.6 C 0 km/h
1816 03-11-2008 23:01:27 6.4 C 6.93 g/m*3 6.4 C 0 km/h
1817 03-11-2008 23:26:28 6.7 C 7.14 g/m*3 6.7 C 0 km/h
1818 03-11-2008 23:51:28 7.1 C 7.33 g/m*3 7.1 C 0 km/h
1819 04-11-2008 00:16:28 6.9 C 7.31 g/m*3 6.9 C 0 km/h
1820 04-11-2008 00:41:28 6.7 C 7.22 g/m*3 6.7 C 0 km/h
1821 04-11-2008 01:06:28 6.8 C 7.27 g/m*3 6.8 C 0 km/h
1822 04-11-2008 01:31:28 6.8 C 7.27 g/m*3 6.8 C 0 km/h
1823 04-11-2008 01:56:28 6.6 C 7.17 g/m*3 6.6 C 0 km/h
1824 04-11-2008 02:21:28 6.5 C 7.12 g/m*3 6.5 C 0 km/h
1825 04-11-2008 02:46:28 6.7 C 7.22 g/m*3 6.7 C 0 km/h
Sensor: Nr:Datum:Temp:Abs-Feuchte:Windchill:Wind:
Aussen-T/F 1826 04-11-2008 03:11:28 6.8 C 7.27 g/m*3 6.8 C 0 km/h
1827 04-11-2008 03:36:28 6.8 C 7.27 g/m*3 6.8 C 0 km/h
1828 04-11-2008 04:01:28 6.8 C 7.27 g/m*3 6.8 C 0 km/h
1829 04-11-2008 04:26:28 6.7 C 7.22 g/m*3 6.7 C 0 km/h
1830 04-11-2008 04:51:28 6.8 C 7.27 g/m*3 6.8 C 0 km/h
1831 04-11-2008 05:16:28 6.4 C 7.08 g/m*3 6.4 C 0 km/h
1832 04-11-2008 05:41:28 6.3 C 7.03 g/m*3 6.3 C 0 km/h
1833 04-11-2008 06:06:28 6.2 C 6.99 g/m*3 6.2 C 0 km/h
1834 04-11-2008 06:31:28 6.3 C 7.03 g/m*3 6.3 C 0 km/h
1835 04-11-2008 06:56:28 6.4 C 7.08 g/m*3 6.4 C 0 km/h
1836 04-11-2008 07:21:29 6.4 C 7.08 g/m*3 6.4 C 0 km/h
1837 04-11-2008 07:46:29 6.5 C 7.12 g/m*3 6.5 C 0 km/h
1838 04-11-2008 08:11:29 6.6 C 7.17 g/m*3 6.6 C 0 km/h
1839 04-11-2008 08:36:29 6.6 C 7.17 g/m*3 6.6 C 0 km/h
1840 04-11-2008 09:01:29 6.9 C 7.31 g/m*3 6.9 C 0 km/h
1841 04-11-2008 09:26:29 7.4 C 7.55 g/m*3 7.4 C 0 km/h
1842 04-11-2008 09:51:29 7.7 C 7.7 g/m*3 7.7 C 0 km/h
1843 04-11-2008 10:16:29 8.1 C 7.9 g/m*3 8.1 C 0 km/h
1844 04-11-2008 10:41:29 7.8 C 7.75 g/m*3 7.8 C 0 km/h
1845 04-11-2008 11:06:29 8.5 C 8.03 g/m*3 8.5 C 0 km/h
1846 04-11-2008 11:31:29 9 C 8.11 g/m*3 9 C 0 km/h
1847 04-11-2008 11:56:29 9 C 7.93 g/m*3 9 C 0 km/h
1848 04-11-2008 12:21:29 9.1 C 7.81 g/m*3 9.1 C 0 km/h
1849 04-11-2008 12:46:29 9.7 C 8.11 g/m*3 9.7 C 0 km/h
1850 04-11-2008 13:11:29 12 C 8.85 g/m*3 12 C 0 km/h
Sensor: Nr:Datum:Temp:Abs-Feuchte:Windchill:Wind:
Aussen-T/F 1851 04-11-2008 13:36:29 13.7 C 8.05 g/m*3 13.7 C 0 km/h
1852 04-11-2008 14:01:29 14.5 C 8.46 g/m*3 14.5 C 0 km/h
1853 04-11-2008 14:26:29 14.4 C 8.41 g/m*3 14.4 C 0 km/h
1854 04-11-2008 14:51:29 14.4 C 8.41 g/m*3 14.4 C 0 km/h
1855 04-11-2008 15:16:30 13.9 C 8.51 g/m*3 13.9 C 0 km/h
1856 04-11-2008 15:41:30 13.4 C 8.49 g/m*3 13.4 C 0 km/h
1857 04-11-2008 16:06:30 12.8 C 8.4 g/m*3 12.8 C 0 km/h
1858 04-11-2008 16:31:30 12.1 C 8.36 g/m*3 12.1 C 0 km/h
1859 04-11-2008 16:56:30 11.8 C 8.21 g/m*3 11.8 C 0 km/h
1860 04-11-2008 17:21:30 11.9 C 8.26 g/m*3 11.9 C 0 km/h
1861 04-11-2008 17:46:30 11.1 C 8.16 g/m*3 11.1 C 0 km/h
1862 04-11-2008 18:11:30 10.9 C 8.26 g/m*3 10.9 C 0 km/h
1863 04-11-2008 18:36:30 10.8 C 8.4 g/m*3 10.8 C 0 km/h
1864 04-11-2008 19:01:30 10.6 C 8.39 g/m*3 10.6 C 0 km/h
1865 04-11-2008 19:26:30 10.4 C 8.29 g/m*3 10.4 C 0 km/h
1866 04-11-2008 19:51:30 10.2 C 8.28 g/m*3 10.2 C 0 km/h
1867 04-11-2008 20:16:30 10.1 C 8.32 g/m*3 10.1 C 0 km/h
1868 04-11-2008 20:41:30 9.7 C 8.2 g/m*3 9.7 C 0 km/h
1869 04-11-2008 21:06:30 9.3 C 8.09 g/m*3 9.3 C 0 km/h
1870 04-11-2008 21:31:30 9.1 C 7.99 g/m*3 9.1 C 0 km/h
1871 04-11-2008 21:56:30 9.1 C 8.07 g/m*3 9.1 C 0 km/h
1872 04-11-2008 22:21:30 9.1 C 8.16 g/m*3 9.1 C 0 km/h
1873 04-11-2008 22:46:30 8.7 C 8.04 g/m*3 8.7 C 0 km/h
1874 04-11-2008 23:11:31 8.4 C 7.89 g/m*3 8.4 C 0 km/h
1875 04-11-2008 23:36:31 9 C 8.2 g/m*3 9 C 0 km/h
Sensor: Nr:Datum:Temp:Abs-Feuchte:Windchill:Wind:
Aussen-T/F 1876 05-11-2008 00:01:31 8.7 C 8.04 g/m*3 8.7 C 0 km/h
1877 05-11-2008 00:26:31 8.7 C 8.04 g/m*3 8.7 C 0 km/h
1878 05-11-2008 00:51:31 8.6 C 7.99 g/m*3 8.6 C 0 km/h
1879 05-11-2008 01:16:31 8.7 C 8.04 g/m*3 8.7 C 0 km/h
1880 05-11-2008 01:41:31 8.8 C 7.92 g/m*3 8.8 C 0 km/h
1881 05-11-2008 02:06:31 8.7 C 7.7 g/m*3 8.7 C 0 km/h
1882 05-11-2008 02:31:31 8.5 C 7.6 g/m*3 8.5 C 0 km/h
1883 05-11-2008 02:56:31 8.4 C 7.55 g/m*3 8.4 C 0 km/h
1884 05-11-2008 03:21:31 8.3 C 7.5 g/m*3 8.3 C 0 km/h
1885 05-11-2008 03:46:31 8.4 C 7.55 g/m*3 8.4 C 0 km/h
1886 05-11-2008 04:11:31 8.2 C 7.37 g/m*3 8.2 C 0 km/h
1887 05-11-2008 04:36:31 7.9 C 7.39 g/m*3 7.9 C 0 km/h
1888 05-11-2008 05:01:31 8.2 C 7.45 g/m*3 8.2 C 0 km/h
1889 05-11-2008 05:26:31 8.4 C 7.55 g/m*3 8.4 C 0 km/h
1890 05-11-2008 05:51:31 8.4 C 7.55 g/m*3 8.4 C 0 km/h
1891 05-11-2008 06:16:31 8.4 C 7.38 g/m*3 8.4 C 0 km/h
1892 05-11-2008 06:41:31 8.5 C 7.34 g/m*3 8.5 C 0 km/h
1893 05-11-2008 07:06:31 8.4 C 7.21 g/m*3 8.4 C 0 km/h
1894 05-11-2008 07:31:32 8.4 C 7.21 g/m*3 8.4 C 0 km/h
1895 05-11-2008 07:56:32 8.5 C 7.26 g/m*3 8.5 C 0 km/h
1896 05-11-2008 08:21:32 8.7 C 7.35 g/m*3 8.7 C 0 km/h
1897 05-11-2008 08:46:32 8.9 C 7.45 g/m*3 8.9 C 0 km/h
1898 05-11-2008 09:11:32 9.2 C 7.5 g/m*3 9.2 C 0 km/h
1899 05-11-2008 09:36:32 9.8 C 7.79 g/m*3 9.8 C 0 km/h
1900 05-11-2008 10:01:32 10 C 7.42 g/m*3 10 C 0 km/h
Sensor: Nr:Datum:Temp:Abs-Feuchte:Windchill:Wind:
Aussen-T/F 1901 05-11-2008 10:26:32 10.7 C 7.46 g/m*3 10.7 C 0 km/h
1902 05-11-2008 10:51:32 10.7 C 7.46 g/m*3 10.7 C 0 km/h
1903 05-11-2008 11:16:32 10.9 C 7.46 g/m*3 10.9 C 0 km/h
1904 05-11-2008 11:41:32 11 C 7.51 g/m*3 11 C 0 km/h
1905 05-11-2008 12:06:32 11.1 C 7.45 g/m*3 11.1 C 0 km/h
1906 05-11-2008 12:31:32 11 C 7.41 g/m*3 11 C 0 km/h
1907 05-11-2008 12:56:32 10.8 C 7.51 g/m*3 10.8 C 0 km/h
1908 05-11-2008 13:21:32 11 C 7.61 g/m*3 11 C 0 km/h
1909 05-11-2008 13:46:32 11.2 C 7.6 g/m*3 11.2 C 0 km/h
1910 05-11-2008 14:11:32 11.2 C 7.7 g/m*3 11.2 C 0 km/h
1911 05-11-2008 14:36:32 11.4 C 7.8 g/m*3 11.4 C 0 km/h
1912 05-11-2008 15:01:32 11.5 C 7.64 g/m*3 11.5 C 0 km/h
1913 05-11-2008 15:26:33 11.5 C 7.64 g/m*3 11.5 C 0 km/h
1914 05-11-2008 15:51:33 11.4 C 7.7 g/m*3 11.4 C 0 km/h
1915 05-11-2008 16:16:33 11.1 C 7.66 g/m*3 11.1 C 0 km/h
1916 05-11-2008 16:41:33 10.9 C 7.76 g/m*3 10.9 C 0 km/h
1917 05-11-2008 17:06:33 10.7 C 7.66 g/m*3 10.7 C 0 km/h
1918 05-11-2008 17:31:33 10.5 C 7.66 g/m*3 10.5 C 0 km/h
1919 05-11-2008 17:56:33 10.5 C 7.76 g/m*3 10.5 C 0 km/h
1920 05-11-2008 18:21:33 10.4 C 7.81 g/m*3 10.4 C 0 km/h
1921 05-11-2008 18:46:33 10.4 C 7.81 g/m*3 10.4 C 0 km/h
1922 05-11-2008 19:11:33 10.4 C 7.9 g/m*3 10.4 C 0 km/h
1923 05-11-2008 19:36:33 10.3 C 7.85 g/m*3 10.3 C 0 km/h
1924 05-11-2008 20:01:33 10.3 C 7.85 g/m*3 10.3 C 0 km/h
1925 05-11-2008 20:26:33 10.3 C 7.95 g/m*3 10.3 C 0 km/h
Sensor: Nr:Datum:Temp:Abs-Feuchte:Windchill:Wind:
Aussen-T/F 1926 05-11-2008 20:51:33 10.2 C 7.9 g/m*3 10.2 C 0 km/h
1927 05-11-2008 21:16:33 10.2 C 7.9 g/m*3 10.2 C 0 km/h
1928 05-11-2008 21:41:33 10.2 C 7.9 g/m*3 10.2 C 0 km/h
1929 05-11-2008 22:06:33 10.2 C 7.9 g/m*3 10.2 C 0 km/h
1930 05-11-2008 22:31:33 10.2 C 7.99 g/m*3 10.2 C 0 km/h
1931 05-11-2008 22:56:33 10.2 C 7.99 g/m*3 10.2 C 0 km/h
1932 05-11-2008 23:21:34 10.2 C 7.99 g/m*3 10.2 C 0 km/h
1933 05-11-2008 23:46:34 10 C 7.99 g/m*3 10 C 0 km/h
1934 06-11-2008 00:11:34 10 C 7.99 g/m*3 10 C 0 km/h
1935 06-11-2008 00:36:34 10 C 7.99 g/m*3 10 C 0 km/h
1936 06-11-2008 01:01:34 10 C 7.99 g/m*3 10 C 0 km/h
1937 06-11-2008 01:26:34 9.9 C 8.12 g/m*3 9.9 C 0 km/h
1938 06-11-2008 01:51:34 9.8 C 8.07 g/m*3 9.8 C 0 km/h
1939 06-11-2008 02:16:34 9.8 C 7.98 g/m*3 9.8 C 0 km/h
1940 06-11-2008 02:41:34 9.7 C 7.84 g/m*3 9.7 C 0 km/h
1941 06-11-2008 03:06:34 9.5 C 7.74 g/m*3 9.5 C 0 km/h
1942 06-11-2008 03:31:34 9.3 C 7.73 g/m*3 9.3 C 0 km/h
1943 06-11-2008 03:56:34 8.9 C 7.62 g/m*3 8.9 C 0 km/h
1944 06-11-2008 04:21:34 8.5 C 7.43 g/m*3 8.5 C 0 km/h
1945 06-11-2008 04:46:34 8.6 C 7.48 g/m*3 8.6 C 0 km/h
1946 06-11-2008 05:11:34 8.9 C 7.71 g/m*3 8.9 C 0 km/h
1947 06-11-2008 05:36:34 9 C 7.58 g/m*3 9 C 0 km/h
1948 06-11-2008 06:01:34 9 C 7.58 g/m*3 9 C 0 km/h
1949 06-11-2008 06:26:34 9.3 C 7.64 g/m*3 9.3 C 0 km/h
1950 06-11-2008 06:51:34 9.3 C 7.46 g/m*3 9.3 C 0 km/h
Sensor: Nr:Datum:Temp:Abs-Feuchte:Windchill:Wind:
Aussen-T/F 1951 06-11-2008 07:16:34 9.3 C 7.46 g/m*3 9.3 C 0 km/h
1952 06-11-2008 07:41:35 9.1 C 7.36 g/m*3 9.1 C 0 km/h
1953 06-11-2008 08:06:35 9.4 C 7.51 g/m*3 9.4 C 0 km/h
1954 06-11-2008 08:31:35 9.7 C 7.56 g/m*3 9.7 C 0 km/h
1955 06-11-2008 08:56:35 10 C 7.42 g/m*3 10 C 0 km/h
1956 06-11-2008 09:21:35 10.3 C 7.47 g/m*3 10.3 C 0 km/h
1957 06-11-2008 09:46:35 10.6 C 7.12 g/m*3 10.6 C 0 km/h
1958 06-11-2008 10:11:35 11 C 7.01 g/m*3 11 C 0 km/h
1959 06-11-2008 10:36:35 11.3 C 7.04 g/m*3 11.3 C 0 km/h
1960 06-11-2008 11:01:35 12.1 C 7.18 g/m*3 12.1 C 0 km/h
1961 06-11-2008 11:26:35 12.4 C 7.1 g/m*3 12.4 C 0 km/h
1962 06-11-2008 11:51:35 12.2 C 6.91 g/m*3 12.2 C 0 km/h
1963 06-11-2008 12:16:35 12.2 C 6.91 g/m*3 12.2 C 0 km/h
1964 06-11-2008 12:41:35 12.1 C 6.97 g/m*3 12.1 C 0 km/h
1965 06-11-2008 13:06:35 12.6 C 7.08 g/m*3 12.6 C 0 km/h
1966 06-11-2008 13:31:35 12.7 C 7.01 g/m*3 12.7 C 0 km/h
1967 06-11-2008 13:56:35 12.4 C 7.1 g/m*3 12.4 C 0 km/h
1968 06-11-2008 14:21:35 13 C 7.14 g/m*3 13 C 0 km/h
1969 06-11-2008 14:46:35 13.1 C 6.96 g/m*3 13.1 C 0 km/h
1970 06-11-2008 15:11:35 13 C 6.92 g/m*3 13 C 0 km/h
1971 06-11-2008 15:36:36 12.6 C 6.97 g/m*3 12.6 C 0 km/h
1972 06-11-2008 16:01:36 12.4 C 6.99 g/m*3 12.4 C 0 km/h
1973 06-11-2008 16:26:36 11.8 C 6.95 g/m*3 11.8 C 0 km/h
1974 06-11-2008 16:51:36 11.4 C 6.98 g/m*3 11.4 C 0 km/h
1975 06-11-2008 17:16:36 11.1 C 6.95 g/m*3 11.1 C 0 km/h
Sensor: Nr:Datum:Temp:Abs-Feuchte:Windchill:Wind:
Aussen-T/F 1976 06-11-2008 17:41:36 10.9 C 7.06 g/m*3 10.9 C 0 km/h
1977 06-11-2008 18:06:36 10.1 C 6.9 g/m*3 10.1 C 0 km/h
1978 06-11-2008 18:31:36 10.1 C 7 g/m*3 10.1 C 0 km/h
1979 06-11-2008 18:56:36 10.2 C 7.04 g/m*3 10.2 C 0 km/h
1980 06-11-2008 19:21:36 10.4 C 7.13 g/m*3 10.4 C 0 km/h
1981 06-11-2008 19:46:36 10.3 C 7.09 g/m*3 10.3 C 0 km/h
1982 06-11-2008 20:11:36 10.2 C 7.14 g/m*3 10.2 C 0 km/h
1983 06-11-2008 20:36:36 10.3 C 7.28 g/m*3 10.3 C 0 km/h
1984 06-11-2008 21:01:36 10.2 C 7.23 g/m*3 10.2 C 0 km/h
1985 06-11-2008 21:26:36 10.4 C 7.23 g/m*3 10.4 C 0 km/h
1986 06-11-2008 21:51:36 10.3 C 7.18 g/m*3 10.3 C 0 km/h
1987 06-11-2008 22:16:36 10.2 C 7.33 g/m*3 10.2 C 0 km/h
1988 06-11-2008 22:41:36 10.2 C 7.33 g/m*3 10.2 C 0 km/h
1989 06-11-2008 23:06:36 10.1 C 7.28 g/m*3 10.1 C 0 km/h
1990 06-11-2008 23:31:37 10.2 C 7.23 g/m*3 10.2 C 0 km/h
1991 06-11-2008 23:56:37 10.2 C 7.23 g/m*3 10.2 C 0 km/h
1992 07-11-2008 00:21:37 10.1 C 7.19 g/m*3 10.1 C 0 km/h
1993 07-11-2008 00:46:37 10.1 C 7.19 g/m*3 10.1 C 0 km/h
1994 07-11-2008 01:11:37 10 C 7.24 g/m*3 10 C 0 km/h
1995 07-11-2008 01:36:37 10 C 7.24 g/m*3 10 C 0 km/h
1996 07-11-2008 02:01:37 10 C 7.14 g/m*3 10 C 0 km/h
1997 07-11-2008 02:26:37 10 C 7.14 g/m*3 10 C 0 km/h
1998 07-11-2008 02:51:37 9.9 C 7.28 g/m*3 9.9 C 0 km/h
1999 07-11-2008 03:16:37 9.9 C 7.19 g/m*3 9.9 C 0 km/h
2000 07-11-2008 03:41:37 10 C 7.14 g/m*3 10 C 0 km/h
Sensor: Nr:Datum:Temp:Abs-Feuchte:Windchill:Wind:
Aussen-T/F 2001 07-11-2008 04:06:37 10.2 C 7.14 g/m*3 10.2 C 0 km/h
2002 07-11-2008 04:31:37 10.1 C 7.19 g/m*3 10.1 C 0 km/h
2003 07-11-2008 04:56:37 10.3 C 7.28 g/m*3 10.3 C 0 km/h
2004 07-11-2008 05:21:37 10.3 C 7.28 g/m*3 10.3 C 0 km/h
2005 07-11-2008 05:46:37 10.2 C 7.23 g/m*3 10.2 C 0 km/h
2006 07-11-2008 06:11:37 10.1 C 7.19 g/m*3 10.1 C 0 km/h
2007 07-11-2008 06:36:37 10 C 7.14 g/m*3 10 C 0 km/h
2008 07-11-2008 07:01:37 10.1 C 7.09 g/m*3 10.1 C 0 km/h
2009 07-11-2008 07:26:38 10.1 C 7 g/m*3 10.1 C 0 km/h
2010 07-11-2008 07:51:38 9.8 C 7.05 g/m*3 9.8 C 0 km/h
2011 07-11-2008 08:16:38 9.6 C 7.15 g/m*3 9.6 C 0 km/h
2012 07-11-2008 08:41:38 10.3 C 6.99 g/m*3 10.3 C 0 km/h
2013 07-11-2008 09:06:38 10.8 C 7.02 g/m*3 10.8 C 0 km/h
2014 07-11-2008 09:31:38 11 C 6.91 g/m*3 11 C 0 km/h
2015 07-11-2008 09:56:38 11.1 C 6.95 g/m*3 11.1 C 0 km/h
2016 07-11-2008 10:21:38 11.3 C 7.04 g/m*3 11.3 C 0 km/h
2017 07-11-2008 10:46:38 11.2 C 6.89 g/m*3 11.2 C 0 km/h
2018 07-11-2008 11:11:38 11.6 C 6.96 g/m*3 11.6 C 0 km/h
2019 07-11-2008 11:36:38 12.2 C 6.91 g/m*3 12.2 C 0 km/h
2020 07-11-2008 12:01:38 12.7 C 6.9 g/m*3 12.7 C 0 km/h
2021 07-11-2008 12:26:38 13.1 C 6.85 g/m*3 13.1 C 0 km/h
2022 07-11-2008 12:51:38 13.2 C 6.77 g/m*3 13.2 C 0 km/h
2023 07-11-2008 13:16:38 13.8 C 6.91 g/m*3 13.8 C 0 km/h
2024 07-11-2008 13:41:38 13.6 C 6.71 g/m*3 13.6 C 0 km/h
2025 07-11-2008 14:06:38 13.8 C 7.03 g/m*3 13.8 C 0 km/h
Sensor: Nr:Datum:Temp:Abs-Feuchte:Windchill:Wind:
Aussen-T/F 2026 07-11-2008 14:31:38 14.5 C 7.09 g/m*3 14.5 C 0 km/h
2027 07-11-2008 14:56:38 14 C 7 g/m*3 14 C 0 km/h
2028 07-11-2008 15:21:38 13.8 C 7.27 g/m*3 13.8 C 0 km/h
2029 07-11-2008 15:46:39 13.5 C 7.37 g/m*3 13.5 C 0 km/h
2030 07-11-2008 16:11:39 13.1 C 7.3 g/m*3 13.1 C 0 km/h
2031 07-11-2008 16:36:39 12.7 C 7.57 g/m*3 12.7 C 0 km/h
2032 07-11-2008 17:01:39 12.4 C 7.43 g/m*3 12.4 C 0 km/h
2033 07-11-2008 17:26:39 11.8 C 7.26 g/m*3 11.8 C 0 km/h
2034 07-11-2008 17:51:39 11.1 C 7.15 g/m*3 11.1 C 0 km/h
2035 07-11-2008 18:16:39 10.4 C 7.23 g/m*3 10.4 C 0 km/h
2036 07-11-2008 18:41:39 10.4 C 7.42 g/m*3 10.4 C 0 km/h
2037 07-11-2008 19:06:39 10.7 C 7.56 g/m*3 10.7 C 0 km/h
2038 07-11-2008 19:31:39 10.6 C 7.32 g/m*3 10.6 C 0 km/h
2039 07-11-2008 19:56:39 10 C 7.33 g/m*3 10 C 0 km/h
2040 07-11-2008 20:21:39 9.9 C 7.56 g/m*3 9.9 C 0 km/h
2041 07-11-2008 20:46:39 9.5 C 7.37 g/m*3 9.5 C 0 km/h
2042 07-11-2008 21:11:39 9.1 C 7.36 g/m*3 9.1 C 0 km/h
2043 07-11-2008 21:36:39 8.7 C 7.44 g/m*3 8.7 C 0 km/h
2044 07-11-2008 22:01:39 8.4 C 7.38 g/m*3 8.4 C 0 km/h
2045 07-11-2008 22:26:39 7.9 C 7.31 g/m*3 7.9 C 0 km/h
2046 07-11-2008 22:51:39 7.5 C 7.12 g/m*3 7.5 C 0 km/h
2047 07-11-2008 23:16:39 7.3 C 7.03 g/m*3 7.3 C 0 km/h
2048 07-11-2008 23:41:40 7.3 C 7.11 g/m*3 7.3 C 0 km/h
2049 08-11-2008 00:06:40 7.3 C 7.19 g/m*3 7.3 C 0 km/h
2050 08-11-2008 00:31:40 6.9 C 7.08 g/m*3 6.9 C 0 km/h
Sensor: Nr:Datum:Temp:Abs-Feuchte:Windchill:Wind:
Aussen-T/F 2051 08-11-2008 00:56:40 7.1 C 7.18 g/m*3 7.1 C 0 km/h
2052 08-11-2008 01:21:40 7 C 7.13 g/m*3 7 C 0 km/h
2053 08-11-2008 01:46:40 7.2 C 7.3 g/m*3 7.2 C 0 km/h
2054 08-11-2008 02:11:40 7.3 C 7.35 g/m*3 7.3 C 0 km/h
2055 08-11-2008 02:36:40 7.5 C 7.44 g/m*3 7.5 C 0 km/h
2056 08-11-2008 03:01:40 7.8 C 7.59 g/m*3 7.8 C 0 km/h
2057 08-11-2008 03:26:40 7.9 C 7.56 g/m*3 7.9 C 0 km/h
2058 08-11-2008 03:51:40 8.1 C 7.57 g/m*3 8.1 C 0 km/h
2059 08-11-2008 04:16:40 8.2 C 7.62 g/m*3 8.2 C 0 km/h
2060 08-11-2008 04:41:40 8.3 C 7.67 g/m*3 8.3 C 0 km/h
2061 08-11-2008 05:06:40 8.3 C 7.59 g/m*3 8.3 C 0 km/h
2062 08-11-2008 05:31:40 8 C 7.44 g/m*3 8 C 0 km/h
2063 08-11-2008 05:56:40 8.6 C 7.82 g/m*3 8.6 C 0 km/h
2064 08-11-2008 06:21:40 8.6 C 7.65 g/m*3 8.6 C 0 km/h
2065 08-11-2008 06:46:40 8.5 C 7.6 g/m*3 8.5 C 0 km/h
2066 08-11-2008 07:11:40 8.5 C 7.77 g/m*3 8.5 C 0 km/h
2067 08-11-2008 07:36:41 8 C 7.52 g/m*3 8 C 0 km/h
2068 08-11-2008 08:01:41 7.9 C 7.64 g/m*3 7.9 C 0 km/h
2069 08-11-2008 08:26:41 7.3 C 7.27 g/m*3 7.3 C 0 km/h
2070 08-11-2008 08:51:41 7.2 C 7.3 g/m*3 7.2 C 0 km/h
2071 08-11-2008 09:16:41 7.6 C 7.57 g/m*3 7.6 C 0 km/h
2072 08-11-2008 09:41:41 8.2 C 7.87 g/m*3 8.2 C 0 km/h
2073 08-11-2008 10:06:41 8.7 C 8.13 g/m*3 8.7 C 0 km/h
2074 08-11-2008 10:31:41 8.9 C 7.88 g/m*3 8.9 C 0 km/h
2075 08-11-2008 10:56:41 9.3 C 7.28 g/m*3 9.3 C 0 km/h
Sensor: Nr:Datum:Temp:Abs-Feuchte:Windchill:Wind:
Aussen-T/F 2076 08-11-2008 11:21:41 9.7 C 6.36 g/m*3 9.7 C 0 km/h
2077 08-11-2008 11:46:41 10.3 C 6.03 g/m*3 10.3 C 0 km/h
2078 08-11-2008 12:11:41 10.9 C 5.97 g/m*3 10.9 C 0 km/h
2079 08-11-2008 12:36:41 11.7 C 5.86 g/m*3 11.7 C 0 km/h
2080 08-11-2008 13:01:41 12.2 C 5.4 g/m*3 12.2 C 0 km/h
2081 08-11-2008 13:26:41 12.4 C 5.14 g/m*3 12.4 C 0 km/h
2082 08-11-2008 13:51:01 12 C 5.33 g/m*3 12 C 0 km/h
2083 08-11-2008 14:16:01 11.9 C 5.51 g/m*3 11.9 C 0 km/h
2084 08-11-2008 14:41:01 12 C 5.44 g/m*3 12 C 0 km/h
2085 08-11-2008 15:06:02 11.8 C 5.79 g/m*3 11.8 C 0 km/h
2086 08-11-2008 15:31:02 12 C 5.86 g/m*3 12 C 0 km/h
2087 08-11-2008 15:56:02 11.2 C 5.98 g/m*3 11.2 C 0 km/h
2088 08-11-2008 16:21:02 10.2 C 5.8 g/m*3 10.2 C 0 km/h
2089 08-11-2008 16:46:02 9.5 C 6.01 g/m*3 9.5 C 0 km/h
2090 08-11-2008 17:11:02 8.8 C 6.09 g/m*3 8.8 C 0 km/h
2091 08-11-2008 17:36:02 8.2 C 6.03 g/m*3 8.2 C 0 km/h
2092 08-11-2008 18:01:02 7.7 C 6.08 g/m*3 7.7 C 0 km/h
2093 08-11-2008 18:26:01 7.4 C 6.04 g/m*3 7.4 C 0 km/h
2094 08-11-2008 18:51:01 7.2 C 6.12 g/m*3 7.2 C 0 km/h
2095 08-11-2008 19:16:02 6.8 C 6.12 g/m*3 6.8 C 0 km/h
2096 08-11-2008 19:41:02 6.5 C 6.15 g/m*3 6.5 C 0 km/h
2097 08-11-2008 20:06:02 6.1 C 5.99 g/m*3 6.1 C 0 km/h
2098 08-11-2008 20:31:02 5.8 C 6.02 g/m*3 5.8 C 0 km/h
2099 08-11-2008 20:56:02 5.6 C 6.08 g/m*3 5.6 C 0 km/h
2100 08-11-2008 21:21:02 5.3 C 5.96 g/m*3 5.3 C 0 km/h
Sensor: Nr:Datum:Temp:Abs-Feuchte:Windchill:Wind:
Aussen-T/F 2101 08-11-2008 21:46:02 5.2 C 6.06 g/m*3 5.2 C 0 km/h
2102 08-11-2008 22:11:03 5.1 C 6.02 g/m*3 5.1 C 0 km/h
2103 08-11-2008 22:36:03 4.7 C 6 g/m*3 4.7 C 0 km/h
2104 08-11-2008 23:01:02 4.9 C 6.14 g/m*3 4.9 C 0 km/h
2105 08-11-2008 23:26:02 5.3 C 6.38 g/m*3 5.3 C 0 km/h
2106 08-11-2008 23:50:02 5.8 C 6.66 g/m*3 5.8 C 0 km/h
2107 09-11-2008 00:02:03 6.4 C 6.85 g/m*3 6.4 C 0 km/h
2108 09-11-2008 00:14:03 6.7 C 6.84 g/m*3 6.7 C 0 km/h
2109 09-11-2008 00:26:03 6.7 C 6.76 g/m*3 6.7 C 0 km/h
2110 09-11-2008 00:38:03 7 C 6.74 g/m*3 7 C 0 km/h
2111 09-11-2008 00:50:02 7 C 6.59 g/m*3 7 C 0 km/h
2112 09-11-2008 01:02:03 6.6 C 6.42 g/m*3 6.6 C 0 km/h
2113 09-11-2008 01:14:03 6.7 C 6.53 g/m*3 6.7 C 0 km/h
2114 09-11-2008 01:26:02 6.5 C 6.37 g/m*3 6.5 C 0 km/h
2115 09-11-2008 01:38:03 6.5 C 6.45 g/m*3 6.5 C 0 km/h
2116 09-11-2008 01:50:02 6.4 C 6.41 g/m*3 6.4 C 0 km/h
2117 09-11-2008 02:02:01 7.1 C 6.63 g/m*3 7.1 C 0 km/h
2118 09-11-2008 02:14:01 7.5 C 6.56 g/m*3 7.5 C 0 km/h
2119 09-11-2008 02:26:02 7.3 C 6.4 g/m*3 7.3 C 0 km/h
2120 09-11-2008 02:38:01 7.6 C 6.53 g/m*3 7.6 C 0 km/h
2121 09-11-2008 02:50:01 7.5 C 6.32 g/m*3 7.5 C 0 km/h
2122 09-11-2008 03:02:01 7.7 C 6.49 g/m*3 7.7 C 0 km/h
2123 09-11-2008 03:14:02 8 C 6.45 g/m*3 8 C 0 km/h
2124 09-11-2008 03:26:02 8 C 6.45 g/m*3 8 C 0 km/h
2125 09-11-2008 03:38:01 8.2 C 6.53 g/m*3 8.2 C 0 km/h
Sensor: Nr:Datum:Temp:Abs-Feuchte:Windchill:Wind:
Aussen-T/F 2126 09-11-2008 03:50:01 8.8 C 6.61 g/m*3 8.8 C 0 km/h
2127 09-11-2008 04:02:01 9.3 C 6.56 g/m*3 9.3 C 0 km/h
2128 09-11-2008 04:14:01 9.4 C 6.51 g/m*3 9.4 C 0 km/h
2129 09-11-2008 04:26:01 9.6 C 6.5 g/m*3 9.6 C 0 km/h
2130 09-11-2008 04:38:01 9.3 C 6.47 g/m*3 9.3 C 0 km/h
2131 09-11-2008 04:50:02 9.3 C 6.56 g/m*3 9.3 C 0 km/h
2132 09-11-2008 05:02:01 9.2 C 6.52 g/m*3 9.2 C 0 km/h
2133 09-11-2008 05:14:01 9.6 C 6.6 g/m*3 9.6 C 0 km/h
2134 09-11-2008 05:26:02 9.7 C 6.64 g/m*3 9.7 C 0 km/h
2135 09-11-2008 05:38:01 9.7 C 6.64 g/m*3 9.7 C 0 km/h
2136 09-11-2008 05:50:02 9.6 C 6.6 g/m*3 9.6 C 0 km/h
2137 09-11-2008 06:02:01 9.6 C 6.69 g/m*3 9.6 C 0 km/h
2138 09-11-2008 06:14:01 9.6 C 6.6 g/m*3 9.6 C 0 km/h
2139 09-11-2008 06:26:02 9.8 C 6.68 g/m*3 9.8 C 0 km/h
2140 09-11-2008 06:38:01 9.7 C 6.64 g/m*3 9.7 C 0 km/h
2141 09-11-2008 06:50:02 9.7 C 6.64 g/m*3 9.7 C 0 km/h
2142 09-11-2008 07:02:01 9.9 C 6.82 g/m*3 9.9 C 0 km/h
2143 09-11-2008 07:14:01 10 C 6.77 g/m*3 10 C 0 km/h
2144 09-11-2008 07:26:02 9.8 C 6.87 g/m*3 9.8 C 0 km/h
2145 09-11-2008 07:38:01 9.4 C 7.15 g/m*3 9.4 C 0 km/h
2146 09-11-2008 07:50:01 9.2 C 7.41 g/m*3 9.2 C 0 km/h
2147 09-11-2008 08:02:01 9.3 C 7.64 g/m*3 9.3 C 0 km/h
2148 09-11-2008 08:14:01 9.1 C 7.72 g/m*3 9.1 C 0 km/h
2149 09-11-2008 08:26:01 9.3 C 7.82 g/m*3 9.3 C 0 km/h
2150 09-11-2008 08:38:01 9.4 C 7.96 g/m*3 9.4 C 0 km/h
Sensor: Nr:Datum:Temp:Abs-Feuchte:Windchill:Wind:
Aussen-T/F 2151 09-11-2008 08:50:01 9.4 C 7.96 g/m*3 9.4 C 0 km/h
2152 09-11-2008 09:02:02 9.6 C 8.15 g/m*3 9.6 C 0 km/h
2153 09-11-2008 09:14:02 9.6 C 8.15 g/m*3 9.6 C 0 km/h
2154 09-11-2008 09:26:01 9.7 C 8.2 g/m*3 9.7 C 0 km/h
2155 09-11-2008 09:38:01 9.7 C 8.2 g/m*3 9.7 C 0 km/h
2156 09-11-2008 09:50:01 9.8 C 8.35 g/m*3 9.8 C 0 km/h
2157 09-11-2008 10:02:02 9.7 C 8.3 g/m*3 9.7 C 0 km/h
2158 09-11-2008 10:14:02 9.7 C 8.3 g/m*3 9.7 C 0 km/h
2159 09-11-2008 10:26:01 9.7 C 8.39 g/m*3 9.7 C 0 km/h
2160 09-11-2008 10:38:02 9.8 C 8.44 g/m*3 9.8 C 0 km/h
2161 09-11-2008 10:50:01 9.8 C 8.54 g/m*3 9.8 C 0 km/h
2162 09-11-2008 11:02:02 9.8 C 8.54 g/m*3 9.8 C 0 km/h
2163 09-11-2008 11:14:02 9.9 C 8.59 g/m*3 9.9 C 0 km/h
2164 09-11-2008 11:26:01 10.1 C 8.7 g/m*3 10.1 C 0 km/h
2165 09-11-2008 11:38:02 10.3 C 8.81 g/m*3 10.3 C 0 km/h
2166 09-11-2008 11:50:02 10.3 C 8.81 g/m*3 10.3 C 0 km/h
2167 09-11-2008 12:02:02 10.4 C 8.87 g/m*3 10.4 C 0 km/h
2168 09-11-2008 12:14:02 10.7 C 9.04 g/m*3 10.7 C 0 km/h
2169 09-11-2008 12:26:02 11 C 9.11 g/m*3 11 C 0 km/h
2170 09-11-2008 12:38:02 10.8 C 8.99 g/m*3 10.8 C 0 km/h
2171 09-11-2008 12:50:02 10.9 C 9.05 g/m*3 10.9 C 0 km/h
2172 09-11-2008 13:02:02 10.6 C 8.69 g/m*3 10.6 C 0 km/h
2173 09-11-2008 13:14:02 10.5 C 8.44 g/m*3 10.5 C 0 km/h
2174 09-11-2008 13:26:02 10.6 C 8.39 g/m*3 10.6 C 0 km/h
2175 09-11-2008 13:38:02 10.3 C 8.24 g/m*3 10.3 C 0 km/h
Sensor: Nr:Datum:Temp:Abs-Feuchte:Windchill:Wind:
Aussen-T/F 2176 09-11-2008 13:50:02 9.8 C 7.61 g/m*3 9.8 C 0 km/h
2177 09-11-2008 14:02:02 9.5 C 7.1 g/m*3 9.5 C 0 km/h
2178 09-11-2008 14:14:02 9.7 C 7.19 g/m*3 9.7 C 0 km/h
2179 09-11-2008 14:26:01 9.5 C 7.28 g/m*3 9.5 C 0 km/h
2180 09-11-2008 14:38:02 9.6 C 7.51 g/m*3 9.6 C 0 km/h
2181 09-11-2008 14:50:01 9.7 C 7.56 g/m*3 9.7 C 0 km/h
2182 09-11-2008 15:02:01 9.8 C 7.24 g/m*3 9.8 C 0 km/h
2183 09-11-2008 15:14:01 10.1 C 6.9 g/m*3 10.1 C 0 km/h
2184 09-11-2008 15:26:02 10 C 6.95 g/m*3 10 C 0 km/h
2185 09-11-2008 15:38:02 10.1 C 6.9 g/m*3 10.1 C 0 km/h
2186 09-11-2008 15:50:01 9.9 C 7 g/m*3 9.9 C 0 km/h
2187 09-11-2008 16:02:03 9.8 C 7.14 g/m*3 9.8 C 0 km/h
2188 09-11-2008 16:14:03 9.6 C 7.15 g/m*3 9.6 C 0 km/h
2189 09-11-2008 16:26:01 9.4 C 7.15 g/m*3 9.4 C 0 km/h
2190 09-11-2008 16:38:02 9.2 C 7.23 g/m*3 9.2 C 0 km/h
2191 09-11-2008 16:50:02 9.1 C 7.19 g/m*3 9.1 C 0 km/h
2192 09-11-2008 17:02:02 9.1 C 7.19 g/m*3 9.1 C 0 km/h
2193 09-11-2008 17:14:02 9 C 7.14 g/m*3 9 C 0 km/h
2194 09-11-2008 17:26:02 8.8 C 7.22 g/m*3 8.8 C 0 km/h
2195 09-11-2008 17:38:03 8.7 C 7.26 g/m*3 8.7 C 0 km/h
2196 09-11-2008 17:50:02 8.7 C 7.26 g/m*3 8.7 C 0 km/h
2197 09-11-2008 18:02:02 8.6 C 7.22 g/m*3 8.6 C 0 km/h
2198 09-11-2008 18:14:02 8.5 C 7 g/m*3 8.5 C 0 km/h
2199 09-11-2008 18:26:02 8.1 C 6.82 g/m*3 8.1 C 0 km/h
2200 09-11-2008 18:38:02 7.9 C 6.82 g/m*3 7.9 C 0 km/h
Sensor: Nr:Datum:Temp:Abs-Feuchte:Windchill:Wind:
Aussen-T/F 2201 09-11-2008 18:50:01 7.8 C 6.77 g/m*3 7.8 C 0 km/h
2202 09-11-2008 19:02:02 7.6 C 6.69 g/m*3 7.6 C 0 km/h
2203 09-11-2008 19:14:02 7.4 C 6.68 g/m*3 7.4 C 0 km/h
2204 09-11-2008 19:26:03 7.4 C 6.76 g/m*3 7.4 C 0 km/h
2205 09-11-2008 19:38:03 7.3 C 6.72 g/m*3 7.3 C 0 km/h
2206 09-11-2008 19:50:02 7.4 C 6.84 g/m*3 7.4 C 0 km/h
2207 09-11-2008 20:02:02 7.5 C 6.8 g/m*3 7.5 C 0 km/h
2208 09-11-2008 20:14:02 7.4 C 6.76 g/m*3 7.4 C 0 km/h
2209 09-11-2008 20:26:01 7.6 C 6.93 g/m*3 7.6 C 0 km/h
2210 09-11-2008 20:38:02 7.4 C 6.76 g/m*3 7.4 C 0 km/h
2211 09-11-2008 20:50:02 7.4 C 6.92 g/m*3 7.4 C 0 km/h
2212 09-11-2008 21:02:01 7.6 C 7.01 g/m*3 7.6 C 0 km/h
2213 09-11-2008 21:14:01 7.7 C 7.14 g/m*3 7.7 C 0 km/h
2214 09-11-2008 21:26:02 7.9 C 7.23 g/m*3 7.9 C 0 km/h
2215 09-11-2008 21:38:01 7.9 C 7.23 g/m*3 7.9 C 0 km/h
2216 09-11-2008 21:50:02 7.9 C 7.31 g/m*3 7.9 C 0 km/h
2217 09-11-2008 22:02:01 7.9 C 7.31 g/m*3 7.9 C 0 km/h
2218 09-11-2008 22:14:01 7.8 C 7.35 g/m*3 7.8 C 0 km/h
2219 09-11-2008 22:26:02 8 C 7.44 g/m*3 8 C 0 km/h
2220 09-11-2008 22:38:01 8.3 C 7.67 g/m*3 8.3 C 0 km/h
2221 09-11-2008 22:50:01 8.5 C 7.77 g/m*3 8.5 C 0 km/h
2222 09-11-2008 23:02:01 8.5 C 7.77 g/m*3 8.5 C 0 km/h
2223 09-11-2008 23:14:01 8.9 C 8.06 g/m*3 8.9 C 0 km/h
2224 09-11-2008 23:26:01 9.3 C 8.27 g/m*3 9.3 C 0 km/h
2225 09-11-2008 23:38:01 10.1 C 8.7 g/m*3 10.1 C 0 km/h
Sensor: Nr:Datum:Temp:Abs-Feuchte:Windchill:Wind:
Aussen-T/F 2226 09-11-2008 23:50:01 11.4 C 9.34 g/m*3 11.4 C 0 km/h
2227 10-11-2008 00:02:02 12 C 8.95 g/m*3 12 C 0 km/h
2228 10-11-2008 00:14:02 12.1 C 8.69 g/m*3 12.1 C 0 km/h
2229 10-11-2008 00:26:02 12.3 C 8.58 g/m*3 12.3 C 0 km/h
2230 10-11-2008 00:38:02 12.3 C 8.58 g/m*3 12.3 C 0 km/h
2231 10-11-2008 00:50:01 12.6 C 8.41 g/m*3 12.6 C 0 km/h
2232 10-11-2008 01:02:02 12.9 C 8.34 g/m*3 12.9 C 0 km/h
2233 10-11-2008 01:14:02 13 C 8.05 g/m*3 13 C 0 km/h
2234 10-11-2008 01:26:01 13 C 7.94 g/m*3 13 C 0 km/h
2235 10-11-2008 01:38:02 13 C 7.83 g/m*3 13 C 0 km/h
2236 10-11-2008 01:50:02 13.1 C 7.53 g/m*3 13.1 C 0 km/h
2237 10-11-2008 02:02:01 13 C 7.48 g/m*3 13 C 0 km/h
2238 10-11-2008 02:14:01 13 C 7.48 g/m*3 13 C 0 km/h
2239 10-11-2008 02:26:02 12.9 C 7.55 g/m*3 12.9 C 0 km/h
2240 10-11-2008 02:38:01 12.5 C 7.81 g/m*3 12.5 C 0 km/h
2241 10-11-2008 02:51:05 12 C 7.99 g/m*3 12 C 0 km/h
2242 10-11-2008 03:03:05 11.8 C 8.21 g/m*3 11.8 C 0 km/h
2243 10-11-2008 03:15:05 11.2 C 8.51 g/m*3 11.2 C 0 km/h
2244 10-11-2008 03:27:05 11.1 C 8.66 g/m*3 11.1 C 0 km/h
2245 10-11-2008 03:39:02 11.3 C 8.67 g/m*3 11.3 C 0 km/h
2246 10-11-2008 03:51:02 11.6 C 8.52 g/m*3 11.6 C 0 km/h
2247 10-11-2008 04:03:03 11.8 C 8.31 g/m*3 11.8 C 0 km/h
2248 10-11-2008 04:15:02 11.9 C 8.26 g/m*3 11.9 C 0 km/h
2249 10-11-2008 04:27:02 12 C 8.21 g/m*3 12 C 0 km/h
2250 10-11-2008 04:39:03 12.3 C 8.25 g/m*3 12.3 C 0 km/h
Sensor: Nr:Datum:Temp:Abs-Feuchte:Windchill:Wind:
Aussen-T/F 2251 10-11-2008 04:51:02 12.5 C 8.14 g/m*3 12.5 C 0 km/h
2252 10-11-2008 05:03:02 12.5 C 8.14 g/m*3 12.5 C 0 km/h
2253 10-11-2008 05:15:02 12.6 C 8.08 g/m*3 12.6 C 0 km/h
2254 10-11-2008 05:27:02 12.8 C 8.06 g/m*3 12.8 C 0 km/h
2255 10-11-2008 05:39:02 12.9 C 8 g/m*3 12.9 C 0 km/h
2256 10-11-2008 05:51:01 13 C 7.83 g/m*3 13 C 0 km/h
2257 10-11-2008 06:03:02 13 C 7.83 g/m*3 13 C 0 km/h
2258 10-11-2008 06:15:02 13 C 7.83 g/m*3 13 C 0 km/h
2259 10-11-2008 06:27:02 13 C 7.83 g/m*3 13 C 0 km/h
2260 10-11-2008 06:39:02 13.1 C 7.76 g/m*3 13.1 C 0 km/h
2261 10-11-2008 06:51:02 13 C 7.71 g/m*3 13 C 0 km/h
2262 10-11-2008 07:03:02 13.1 C 7.76 g/m*3 13.1 C 0 km/h
2263 10-11-2008 07:15:02 13.3 C 7.74 g/m*3 13.3 C 0 km/h
2264 10-11-2008 07:27:02 13.2 C 7.69 g/m*3 13.2 C 0 km/h
2265 10-11-2008 07:39:02 13.1 C 7.87 g/m*3 13.1 C 0 km/h
2266 10-11-2008 07:51:02 12.8 C 8.18 g/m*3 12.8 C 0 km/h
2267 10-11-2008 08:03:03 12.7 C 8.24 g/m*3 12.7 C 0 km/h
2268 10-11-2008 08:15:02 13 C 8.28 g/m*3 13 C 0 km/h
2269 10-11-2008 08:27:02 13 C 8.28 g/m*3 13 C 0 km/h
2270 10-11-2008 08:39:03 12.8 C 8.4 g/m*3 12.8 C 0 km/h
2271 10-11-2008 08:51:02 13 C 8.39 g/m*3 13 C 0 km/h
2272 10-11-2008 09:03:01 13 C 8.28 g/m*3 13 C 0 km/h
2273 10-11-2008 09:15:02 13 C 8.28 g/m*3 13 C 0 km/h
2274 10-11-2008 09:27:03 13.2 C 8.27 g/m*3 13.2 C 0 km/h
2275 10-11-2008 09:39:01 13.4 C 8.14 g/m*3 13.4 C 0 km/h
Sensor: Nr:Datum:Temp:Abs-Feuchte:Windchill:Wind:
Aussen-T/F 2276 10-11-2008 09:51:02 13.5 C 8.07 g/m*3 13.5 C 0 km/h
2277 10-11-2008 10:03:01 13.7 C 8.05 g/m*3 13.7 C 0 km/h
2278 10-11-2008 10:15:02 13.7 C 7.93 g/m*3 13.7 C 0 km/h
2279 10-11-2008 10:27:02 13.7 C 7.93 g/m*3 13.7 C 0 km/h
2280 10-11-2008 10:39:01 13.8 C 7.98 g/m*3 13.8 C 0 km/h
2281 10-11-2008 10:51:01 14 C 7.96 g/m*3 14 C 0 km/h
2282 10-11-2008 11:03:01 14 C 8.08 g/m*3 14 C 0 km/h
2283 10-11-2008 11:15:01 13.8 C 8.22 g/m*3 13.8 C 0 km/h
2284 10-11-2008 11:27:01 14 C 8.2 g/m*3 14 C 0 km/h
2285 10-11-2008 11:39:01 14.2 C 8.06 g/m*3 14.2 C 0 km/h
2286 10-11-2008 11:51:01 14.4 C 8.03 g/m*3 14.4 C 0 km/h
2287 10-11-2008 12:03:02 14.7 C 7.93 g/m*3 14.7 C 0 km/h
2288 10-11-2008 12:15:02 15.2 C 7.92 g/m*3 15.2 C 0 km/h
2289 10-11-2008 12:27:02 15 C 7.82 g/m*3 15 C 0 km/h
2290 10-11-2008 12:39:02 15.1 C 7.87 g/m*3 15.1 C 0 km/h
2291 10-11-2008 12:51:02 14.9 C 7.9 g/m*3 14.9 C 0 km/h
2292 10-11-2008 13:03:01 14.9 C 7.77 g/m*3 14.9 C 0 km/h
2293 10-11-2008 13:15:02 15 C 7.69 g/m*3 15 C 0 km/h
2294 10-11-2008 13:27:02 14.7 C 7.81 g/m*3 14.7 C 0 km/h
2295 10-11-2008 13:39:02 14.8 C 7.85 g/m*3 14.8 C 0 km/h
2296 10-11-2008 13:51:02 14.9 C 7.77 g/m*3 14.9 C 0 km/h
2297 10-11-2008 14:03:02 15.3 C 7.84 g/m*3 15.3 C 0 km/h
2298 10-11-2008 14:15:02 15.3 C 7.57 g/m*3 15.3 C 0 km/h
2299 10-11-2008 14:27:02 15.1 C 7.74 g/m*3 15.1 C 0 km/h
2300 10-11-2008 14:39:02 15 C 7.82 g/m*3 15 C 0 km/h
Sensor: Nr:Datum:Temp:Abs-Feuchte:Windchill:Wind:
Aussen-T/F 2301 10-11-2008 14:51:02 14.8 C 7.85 g/m*3 14.8 C 0 km/h
2302 10-11-2008 15:03:01 14.8 C 7.73 g/m*3 14.8 C 0 km/h
2303 10-11-2008 15:15:02 14.8 C 7.73 g/m*3 14.8 C 0 km/h
2304 10-11-2008 15:27:03 14.8 C 7.73 g/m*3 14.8 C 0 km/h
2305 10-11-2008 15:39:01 14.9 C 7.77 g/m*3 14.9 C 0 km/h
2306 10-11-2008 15:51:03 14.8 C 7.73 g/m*3 14.8 C 0 km/h
2307 10-11-2008 16:03:02 14.8 C 7.73 g/m*3 14.8 C 0 km/h
2308 10-11-2008 16:15:03 14.8 C 7.73 g/m*3 14.8 C 0 km/h
2309 10-11-2008 16:27:03 14.7 C 7.81 g/m*3 14.7 C 0 km/h
2310 10-11-2008 16:39:02 14.6 C 7.76 g/m*3 14.6 C 0 km/h
2311 10-11-2008 16:51:02 14.5 C 7.84 g/m*3 14.5 C 0 km/h
2312 10-11-2008 17:03:02 14.5 C 7.71 g/m*3 14.5 C 0 km/h
2313 10-11-2008 17:15:02 14.6 C 7.63 g/m*3 14.6 C 0 km/h
2314 10-11-2008 17:27:02 14.7 C 7.55 g/m*3 14.7 C 0 km/h
2315 10-11-2008 17:39:02 14.7 C 7.55 g/m*3 14.7 C 0 km/h
2316 10-11-2008 17:51:01 14.9 C 7.65 g/m*3 14.9 C 0 km/h
2317 10-11-2008 18:03:02 15.1 C 7.48 g/m*3 15.1 C 0 km/h
2318 10-11-2008 18:15:01 15.2 C 7.4 g/m*3 15.2 C 0 km/h
2319 10-11-2008 18:27:01 15.2 C 7.4 g/m*3 15.2 C 0 km/h
2320 10-11-2008 18:39:02 14.9 C 7.39 g/m*3 14.9 C 0 km/h
2321 10-11-2008 18:51:02 15.1 C 7.22 g/m*3 15.1 C 0 km/h
2322 10-11-2008 19:03:03 15.1 C 7.1 g/m*3 15.1 C 0 km/h
2323 10-11-2008 19:15:02 15.2 C 7.14 g/m*3 15.2 C 0 km/h
2324 10-11-2008 19:27:02 15 C 7.05 g/m*3 15 C 0 km/h
2325 10-11-2008 19:39:03 15.1 C 7.1 g/m*3 15.1 C 0 km/h
Sensor: Nr:Datum:Temp:Abs-Feuchte:Windchill:Wind:
Aussen-T/F 2326 10-11-2008 19:51:02 15.2 C 7.14 g/m*3 15.2 C 0 km/h
2327 10-11-2008 20:03:02 15.1 C 7.22 g/m*3 15.1 C 0 km/h
2328 10-11-2008 20:15:02 15.3 C 7.31 g/m*3 15.3 C 0 km/h
2329 10-11-2008 20:27:02 15.3 C 7.31 g/m*3 15.3 C 0 km/h
2330 10-11-2008 20:39:02 15.3 C 7.31 g/m*3 15.3 C 0 km/h
2331 10-11-2008 20:51:02 15.4 C 7.36 g/m*3 15.4 C 0 km/h
2332 10-11-2008 21:03:02 15.5 C 7.53 g/m*3 15.5 C 0 km/h
2333 10-11-2008 21:15:02 15.5 C 7.53 g/m*3 15.5 C 0 km/h
2334 10-11-2008 21:27:02 15.6 C 7.58 g/m*3 15.6 C 0 km/h
2335 10-11-2008 21:39:02 15.4 C 7.75 g/m*3 15.4 C 0 km/h
2336 10-11-2008 21:51:01 15.2 C 8.05 g/m*3 15.2 C 0 km/h
2337 10-11-2008 22:03:02 15.3 C 7.97 g/m*3 15.3 C 0 km/h
2338 10-11-2008 22:15:02 15.2 C 8.05 g/m*3 15.2 C 0 km/h
2339 10-11-2008 22:27:02 15.5 C 7.93 g/m*3 15.5 C 0 km/h
2340 10-11-2008 22:39:02 15.7 C 7.63 g/m*3 15.7 C 0 km/h
2341 10-11-2008 22:52:02 15.8 C 7.67 g/m*3 15.8 C 0 km/h
2342 10-11-2008 23:04:02 15.8 C 7.54 g/m*3 15.8 C 0 km/h
2343 10-11-2008 23:16:02 15.9 C 7.58 g/m*3 15.9 C 0 km/h
2344 10-11-2008 23:28:02 15.8 C 7.54 g/m*3 15.8 C 0 km/h
2345 10-11-2008 23:40:02 15.8 C 7.54 g/m*3 15.8 C 0 km/h
2346 10-11-2008 23:52:02 16 C 7.49 g/m*3 16 C 0 km/h

Legende:
   Min
   Max


Maximal/Minimal-Werte vom 17.04.2019 - 19.05.2019

Sensor Min Max Avg
Temp
(Aussen-T/F)
2.2 °C
13-05-2019  06:50:00
26.6 °C
24-04-2019  17:05:00
11.51 °C

Die Daten stammen von einer Davis Vantage Pro 2 Wetter-Station und werden unter Linux mit der Software wview2wettercgi und aufbereitet. Alle Angaben erfolgen ohne Gewähr für ihre Vollständigkeit oder Richtigkeit.
Kontakt: Rainer Krienke krienke@uni-koblenz.de . Meine Webseiten an der Uni Koblenz oder privat.
Version: $Revision: 0.78 $